<?xml version="1.0" encoding="UTF-8" standalone="no" ?>
<gpx xmlns="http://www.topografix.com/GPX/1/1" xmlns:xsi="http://www.w3.org/2001/XMLSchema-instance" xsi:schemaLocation="http://www.topografix.com/GPX/1/1 http://www.topografix.com/GPX/1/1/gpx.xsd" version="1.1" creator="VisuGPX - https://www.visugpx.com">
  <metadata>
    <name>Les calanques: départ de Cassis</name>
    <desc><![CDATA[Passage par Calanques de Port Miou, Port Pin, En Vau,]]></desc>
  </metadata>
  <trk>
    <name><![CDATA[22-AVR-19 04:58:58 PM]]></name>
    <trkseg>
      <trkpt lat="43.21382" lon="5.53885">
        <ele>24.17</ele>
        <time>2019-04-22T08:09:48Z</time>
      </trkpt>
      <trkpt lat="43.21377" lon="5.53866">
        <ele>24.65</ele>
        <time>2019-04-22T08:10:05Z</time>
      </trkpt>
      <trkpt lat="43.21386" lon="5.53852">
        <ele>24.17</ele>
        <time>2019-04-22T08:10:21Z</time>
      </trkpt>
      <trkpt lat="43.21396" lon="5.5384">
        <ele>23.69</ele>
        <time>2019-04-22T08:10:35Z</time>
      </trkpt>
      <trkpt lat="43.21398" lon="5.53837">
        <ele>23.21</ele>
        <time>2019-04-22T08:10:38Z</time>
      </trkpt>
      <trkpt lat="43.21407" lon="5.53826">
        <ele>22.73</ele>
        <time>2019-04-22T08:10:50Z</time>
      </trkpt>
      <trkpt lat="43.21417" lon="5.5381">
        <ele>23.69</ele>
        <time>2019-04-22T08:11:07Z</time>
      </trkpt>
      <trkpt lat="43.21425" lon="5.53793">
        <ele>23.69</ele>
        <time>2019-04-22T08:11:23Z</time>
      </trkpt>
      <trkpt lat="43.21432" lon="5.53776">
        <ele>24.65</ele>
        <time>2019-04-22T08:11:36Z</time>
      </trkpt>
      <trkpt lat="43.2144" lon="5.53768">
        <ele>22.73</ele>
        <time>2019-04-22T08:11:50Z</time>
      </trkpt>
      <trkpt lat="43.21452" lon="5.53761">
        <ele>21.77</ele>
        <time>2019-04-22T08:12:06Z</time>
      </trkpt>
      <trkpt lat="43.21457" lon="5.53759">
        <ele>21.77</ele>
        <time>2019-04-22T08:12:11Z</time>
      </trkpt>
      <trkpt lat="43.21475" lon="5.53739">
        <ele>20.81</ele>
        <time>2019-04-22T08:12:27Z</time>
      </trkpt>
      <trkpt lat="43.21482" lon="5.53728">
        <ele>22.25</ele>
        <time>2019-04-22T08:12:40Z</time>
      </trkpt>
      <trkpt lat="43.21483" lon="5.53725">
        <ele>22.25</ele>
        <time>2019-04-22T08:12:42Z</time>
      </trkpt>
      <trkpt lat="43.21489" lon="5.53708">
        <ele>22.73</ele>
        <time>2019-04-22T08:12:53Z</time>
      </trkpt>
      <trkpt lat="43.21481" lon="5.53686">
        <ele>21.29</ele>
        <time>2019-04-22T08:13:10Z</time>
      </trkpt>
      <trkpt lat="43.21477" lon="5.53675">
        <ele>21.29</ele>
        <time>2019-04-22T08:13:20Z</time>
      </trkpt>
      <trkpt lat="43.2147" lon="5.53649">
        <ele>21.77</ele>
        <time>2019-04-22T08:13:38Z</time>
      </trkpt>
      <trkpt lat="43.2147" lon="5.53648">
        <ele>21.77</ele>
        <time>2019-04-22T08:13:39Z</time>
      </trkpt>
      <trkpt lat="43.21462" lon="5.53627">
        <ele>20.81</ele>
        <time>2019-04-22T08:13:55Z</time>
      </trkpt>
      <trkpt lat="43.21459" lon="5.53613">
        <ele>20.32</ele>
        <time>2019-04-22T08:14:06Z</time>
      </trkpt>
      <trkpt lat="43.21455" lon="5.53589">
        <ele>19.36</ele>
        <time>2019-04-22T08:14:22Z</time>
      </trkpt>
      <trkpt lat="43.21447" lon="5.53569">
        <ele>19.84</ele>
        <time>2019-04-22T08:14:40Z</time>
      </trkpt>
      <trkpt lat="43.21438" lon="5.53556">
        <ele>19.84</ele>
        <time>2019-04-22T08:14:53Z</time>
      </trkpt>
      <trkpt lat="43.21428" lon="5.53536">
        <ele>16.96</ele>
        <time>2019-04-22T08:15:09Z</time>
      </trkpt>
      <trkpt lat="43.21425" lon="5.53533">
        <ele>20.32</ele>
        <time>2019-04-22T08:15:13Z</time>
      </trkpt>
      <trkpt lat="43.21425" lon="5.53532">
        <ele>19.84</ele>
        <time>2019-04-22T08:15:14Z</time>
      </trkpt>
      <trkpt lat="43.2142" lon="5.53517">
        <ele>20.81</ele>
        <time>2019-04-22T08:15:26Z</time>
      </trkpt>
      <trkpt lat="43.21423" lon="5.53515">
        <ele>20.81</ele>
        <time>2019-04-22T08:15:30Z</time>
      </trkpt>
      <trkpt lat="43.21427" lon="5.5351">
        <ele>22.25</ele>
        <time>2019-04-22T08:15:35Z</time>
      </trkpt>
      <trkpt lat="43.21427" lon="5.53495">
        <ele>21.29</ele>
        <time>2019-04-22T08:15:50Z</time>
      </trkpt>
      <trkpt lat="43.2142" lon="5.53484">
        <ele>23.21</ele>
        <time>2019-04-22T08:16:05Z</time>
      </trkpt>
      <trkpt lat="43.21422" lon="5.53491">
        <ele>22.25</ele>
        <time>2019-04-22T08:16:22Z</time>
      </trkpt>
      <trkpt lat="43.21426" lon="5.53505">
        <ele>21.77</ele>
        <time>2019-04-22T08:16:36Z</time>
      </trkpt>
      <trkpt lat="43.21433" lon="5.53511">
        <ele>21.77</ele>
        <time>2019-04-22T08:16:51Z</time>
      </trkpt>
      <trkpt lat="43.2144" lon="5.53503">
        <ele>22.25</ele>
        <time>2019-04-22T08:17:07Z</time>
      </trkpt>
      <trkpt lat="43.21439" lon="5.53496">
        <ele>25.61</ele>
        <time>2019-04-22T08:17:11Z</time>
      </trkpt>
      <trkpt lat="43.2144" lon="5.53492">
        <ele>24.65</ele>
        <time>2019-04-22T08:17:15Z</time>
      </trkpt>
      <trkpt lat="43.21439" lon="5.53489">
        <ele>25.61</ele>
        <time>2019-04-22T08:17:25Z</time>
      </trkpt>
      <trkpt lat="43.21438" lon="5.53477">
        <ele>26.57</ele>
        <time>2019-04-22T08:17:40Z</time>
      </trkpt>
      <trkpt lat="43.21436" lon="5.53458">
        <ele>27.53</ele>
        <time>2019-04-22T08:17:57Z</time>
      </trkpt>
      <trkpt lat="43.21431" lon="5.53437">
        <ele>29.46</ele>
        <time>2019-04-22T08:18:12Z</time>
      </trkpt>
      <trkpt lat="43.2143" lon="5.53423">
        <ele>32.34</ele>
        <time>2019-04-22T08:18:26Z</time>
      </trkpt>
      <trkpt lat="43.21423" lon="5.53401">
        <ele>31.38</ele>
        <time>2019-04-22T08:18:41Z</time>
      </trkpt>
      <trkpt lat="43.21427" lon="5.53383">
        <ele>32.82</ele>
        <time>2019-04-22T08:18:55Z</time>
      </trkpt>
      <trkpt lat="43.21438" lon="5.5337">
        <ele>34.26</ele>
        <time>2019-04-22T08:19:11Z</time>
      </trkpt>
      <trkpt lat="43.21449" lon="5.53357">
        <ele>34.74</ele>
        <time>2019-04-22T08:19:27Z</time>
      </trkpt>
      <trkpt lat="43.21454" lon="5.53355">
        <ele>35.23</ele>
        <time>2019-04-22T08:19:42Z</time>
      </trkpt>
      <trkpt lat="43.2146" lon="5.53339">
        <ele>35.23</ele>
        <time>2019-04-22T08:20:05Z</time>
      </trkpt>
      <trkpt lat="43.21449" lon="5.53324">
        <ele>36.67</ele>
        <time>2019-04-22T08:20:21Z</time>
      </trkpt>
      <trkpt lat="43.21437" lon="5.53316">
        <ele>36.67</ele>
        <time>2019-04-22T08:20:32Z</time>
      </trkpt>
      <trkpt lat="43.21415" lon="5.53311">
        <ele>36.67</ele>
        <time>2019-04-22T08:20:51Z</time>
      </trkpt>
      <trkpt lat="43.21406" lon="5.53308">
        <ele>37.63</ele>
        <time>2019-04-22T08:21:03Z</time>
      </trkpt>
      <trkpt lat="43.21402" lon="5.53305">
        <ele>37.63</ele>
        <time>2019-04-22T08:21:09Z</time>
      </trkpt>
      <trkpt lat="43.214" lon="5.53293">
        <ele>37.15</ele>
        <time>2019-04-22T08:21:23Z</time>
      </trkpt>
      <trkpt lat="43.21394" lon="5.53276">
        <ele>35.71</ele>
        <time>2019-04-22T08:21:40Z</time>
      </trkpt>
      <trkpt lat="43.21386" lon="5.53252">
        <ele>33.78</ele>
        <time>2019-04-22T08:21:58Z</time>
      </trkpt>
      <trkpt lat="43.21376" lon="5.53236">
        <ele>32.34</ele>
        <time>2019-04-22T08:22:07Z</time>
      </trkpt>
      <trkpt lat="43.21359" lon="5.53204">
        <ele>29.94</ele>
        <time>2019-04-22T08:22:28Z</time>
      </trkpt>
      <trkpt lat="43.21343" lon="5.53182">
        <ele>26.57</ele>
        <time>2019-04-22T08:22:46Z</time>
      </trkpt>
      <trkpt lat="43.21339" lon="5.53163">
        <ele>25.13</ele>
        <time>2019-04-22T08:23:03Z</time>
      </trkpt>
      <trkpt lat="43.21336" lon="5.53157">
        <ele>23.69</ele>
        <time>2019-04-22T08:23:07Z</time>
      </trkpt>
      <trkpt lat="43.21332" lon="5.53135">
        <ele>20.81</ele>
        <time>2019-04-22T08:23:22Z</time>
      </trkpt>
      <trkpt lat="43.21327" lon="5.53119">
        <ele>18.88</ele>
        <time>2019-04-22T08:23:33Z</time>
      </trkpt>
      <trkpt lat="43.2131" lon="5.53118">
        <ele>16.96</ele>
        <time>2019-04-22T08:23:51Z</time>
      </trkpt>
      <trkpt lat="43.21305" lon="5.53117">
        <ele>15.52</ele>
        <time>2019-04-22T08:24:06Z</time>
      </trkpt>
      <trkpt lat="43.21303" lon="5.53115">
        <ele>16</ele>
        <time>2019-04-22T08:24:21Z</time>
      </trkpt>
      <trkpt lat="43.21306" lon="5.5312">
        <ele>15.04</ele>
        <time>2019-04-22T08:24:49Z</time>
      </trkpt>
      <trkpt lat="43.21308" lon="5.53113">
        <ele>17.44</ele>
        <time>2019-04-22T08:25:03Z</time>
      </trkpt>
      <trkpt lat="43.21304" lon="5.53102">
        <ele>18.4</ele>
        <time>2019-04-22T08:25:16Z</time>
      </trkpt>
      <trkpt lat="43.21302" lon="5.53096">
        <ele>18.4</ele>
        <time>2019-04-22T08:25:36Z</time>
      </trkpt>
      <trkpt lat="43.21296" lon="5.5308">
        <ele>18.4</ele>
        <time>2019-04-22T08:25:54Z</time>
      </trkpt>
      <trkpt lat="43.21286" lon="5.5307">
        <ele>17.92</ele>
        <time>2019-04-22T08:26:07Z</time>
      </trkpt>
      <trkpt lat="43.21276" lon="5.53068">
        <ele>18.88</ele>
        <time>2019-04-22T08:26:19Z</time>
      </trkpt>
      <trkpt lat="43.21269" lon="5.53071">
        <ele>18.88</ele>
        <time>2019-04-22T08:26:27Z</time>
      </trkpt>
      <trkpt lat="43.21267" lon="5.53076">
        <ele>19.84</ele>
        <time>2019-04-22T08:26:43Z</time>
      </trkpt>
      <trkpt lat="43.21264" lon="5.53074">
        <ele>19.84</ele>
        <time>2019-04-22T08:26:54Z</time>
      </trkpt>
      <trkpt lat="43.21256" lon="5.53076">
        <ele>20.32</ele>
        <time>2019-04-22T08:27:01Z</time>
      </trkpt>
      <trkpt lat="43.2124" lon="5.53082">
        <ele>22.73</ele>
        <time>2019-04-22T08:27:17Z</time>
      </trkpt>
      <trkpt lat="43.21228" lon="5.53081">
        <ele>23.21</ele>
        <time>2019-04-22T08:27:33Z</time>
      </trkpt>
      <trkpt lat="43.21219" lon="5.53077">
        <ele>25.13</ele>
        <time>2019-04-22T08:27:47Z</time>
      </trkpt>
      <trkpt lat="43.21218" lon="5.53074">
        <ele>25.13</ele>
        <time>2019-04-22T08:27:50Z</time>
      </trkpt>
      <trkpt lat="43.21206" lon="5.53053">
        <ele>27.05</ele>
        <time>2019-04-22T08:28:08Z</time>
      </trkpt>
      <trkpt lat="43.21203" lon="5.53036">
        <ele>27.53</ele>
        <time>2019-04-22T08:28:22Z</time>
      </trkpt>
      <trkpt lat="43.21201" lon="5.53014">
        <ele>28.02</ele>
        <time>2019-04-22T08:28:37Z</time>
      </trkpt>
      <trkpt lat="43.21196" lon="5.52996">
        <ele>28.02</ele>
        <time>2019-04-22T08:28:52Z</time>
      </trkpt>
      <trkpt lat="43.2119" lon="5.52983">
        <ele>28.02</ele>
        <time>2019-04-22T08:29:08Z</time>
      </trkpt>
      <trkpt lat="43.2119" lon="5.52968">
        <ele>28.02</ele>
        <time>2019-04-22T08:29:24Z</time>
      </trkpt>
      <trkpt lat="43.21176" lon="5.52945">
        <ele>29.94</ele>
        <time>2019-04-22T08:29:40Z</time>
      </trkpt>
      <trkpt lat="43.21176" lon="5.52944">
        <ele>29.94</ele>
        <time>2019-04-22T08:29:41Z</time>
      </trkpt>
      <trkpt lat="43.21166" lon="5.52937">
        <ele>29.46</ele>
        <time>2019-04-22T08:29:48Z</time>
      </trkpt>
      <trkpt lat="43.21161" lon="5.52941">
        <ele>30.42</ele>
        <time>2019-04-22T08:30:02Z</time>
      </trkpt>
      <trkpt lat="43.21161" lon="5.5294">
        <ele>29.94</ele>
        <time>2019-04-22T08:30:17Z</time>
      </trkpt>
      <trkpt lat="43.21152" lon="5.52937">
        <ele>31.86</ele>
        <time>2019-04-22T08:30:32Z</time>
      </trkpt>
      <trkpt lat="43.2114" lon="5.5293">
        <ele>32.34</ele>
        <time>2019-04-22T08:30:46Z</time>
      </trkpt>
      <trkpt lat="43.21128" lon="5.52922">
        <ele>31.86</ele>
        <time>2019-04-22T08:31:01Z</time>
      </trkpt>
      <trkpt lat="43.21124" lon="5.52919">
        <ele>32.34</ele>
        <time>2019-04-22T08:31:08Z</time>
      </trkpt>
      <trkpt lat="43.21113" lon="5.52905">
        <ele>32.34</ele>
        <time>2019-04-22T08:31:25Z</time>
      </trkpt>
      <trkpt lat="43.2111" lon="5.52899">
        <ele>32.34</ele>
        <time>2019-04-22T08:31:31Z</time>
      </trkpt>
      <trkpt lat="43.21105" lon="5.52887">
        <ele>32.34</ele>
        <time>2019-04-22T08:31:40Z</time>
      </trkpt>
      <trkpt lat="43.21092" lon="5.52869">
        <ele>31.86</ele>
        <time>2019-04-22T08:31:56Z</time>
      </trkpt>
      <trkpt lat="43.21089" lon="5.52859">
        <ele>32.82</ele>
        <time>2019-04-22T08:32:11Z</time>
      </trkpt>
      <trkpt lat="43.21089" lon="5.52859">
        <ele>34.26</ele>
        <time>2019-04-22T08:32:13Z</time>
      </trkpt>
      <trkpt lat="43.21086" lon="5.52848">
        <ele>35.23</ele>
        <time>2019-04-22T08:32:31Z</time>
      </trkpt>
      <trkpt lat="43.21084" lon="5.52837">
        <ele>36.19</ele>
        <time>2019-04-22T08:32:49Z</time>
      </trkpt>
      <trkpt lat="43.21084" lon="5.52828">
        <ele>37.63</ele>
        <time>2019-04-22T08:32:57Z</time>
      </trkpt>
      <trkpt lat="43.21084" lon="5.52818">
        <ele>39.07</ele>
        <time>2019-04-22T08:33:12Z</time>
      </trkpt>
      <trkpt lat="43.21088" lon="5.52801">
        <ele>41.47</ele>
        <time>2019-04-22T08:33:28Z</time>
      </trkpt>
      <trkpt lat="43.21101" lon="5.52792">
        <ele>42.92</ele>
        <time>2019-04-22T08:33:45Z</time>
      </trkpt>
      <trkpt lat="43.21112" lon="5.52788">
        <ele>44.84</ele>
        <time>2019-04-22T08:33:59Z</time>
      </trkpt>
      <trkpt lat="43.21123" lon="5.52783">
        <ele>45.32</ele>
        <time>2019-04-22T08:34:13Z</time>
      </trkpt>
      <trkpt lat="43.21135" lon="5.52779">
        <ele>46.28</ele>
        <time>2019-04-22T08:34:28Z</time>
      </trkpt>
      <trkpt lat="43.21135" lon="5.5278">
        <ele>46.28</ele>
        <time>2019-04-22T08:34:29Z</time>
      </trkpt>
      <trkpt lat="43.21148" lon="5.52768">
        <ele>47.72</ele>
        <time>2019-04-22T08:34:45Z</time>
      </trkpt>
      <trkpt lat="43.21163" lon="5.52752">
        <ele>49.65</ele>
        <time>2019-04-22T08:35:01Z</time>
      </trkpt>
      <trkpt lat="43.2117" lon="5.52745">
        <ele>51.09</ele>
        <time>2019-04-22T08:35:14Z</time>
      </trkpt>
      <trkpt lat="43.21175" lon="5.5274">
        <ele>50.13</ele>
        <time>2019-04-22T08:35:19Z</time>
      </trkpt>
      <trkpt lat="43.21177" lon="5.52721">
        <ele>51.57</ele>
        <time>2019-04-22T08:35:36Z</time>
      </trkpt>
      <trkpt lat="43.21178" lon="5.52709">
        <ele>51.57</ele>
        <time>2019-04-22T08:35:45Z</time>
      </trkpt>
      <trkpt lat="43.21175" lon="5.52685">
        <ele>52.05</ele>
        <time>2019-04-22T08:36:01Z</time>
      </trkpt>
      <trkpt lat="43.21177" lon="5.52666">
        <ele>52.05</ele>
        <time>2019-04-22T08:36:15Z</time>
      </trkpt>
      <trkpt lat="43.2119" lon="5.52652">
        <ele>53.49</ele>
        <time>2019-04-22T08:36:32Z</time>
      </trkpt>
      <trkpt lat="43.21204" lon="5.52643">
        <ele>55.89</ele>
        <time>2019-04-22T08:36:49Z</time>
      </trkpt>
      <trkpt lat="43.2122" lon="5.52632">
        <ele>57.34</ele>
        <time>2019-04-22T08:37:06Z</time>
      </trkpt>
      <trkpt lat="43.21224" lon="5.52618">
        <ele>57.82</ele>
        <time>2019-04-22T08:37:21Z</time>
      </trkpt>
      <trkpt lat="43.21223" lon="5.5261">
        <ele>58.3</ele>
        <time>2019-04-22T08:37:42Z</time>
      </trkpt>
      <trkpt lat="43.21224" lon="5.5261">
        <ele>58.3</ele>
        <time>2019-04-22T08:38:00Z</time>
      </trkpt>
      <trkpt lat="43.21217" lon="5.52593">
        <ele>58.3</ele>
        <time>2019-04-22T08:38:18Z</time>
      </trkpt>
      <trkpt lat="43.21212" lon="5.52583">
        <ele>58.78</ele>
        <time>2019-04-22T08:38:33Z</time>
      </trkpt>
      <trkpt lat="43.21211" lon="5.52577">
        <ele>58.3</ele>
        <time>2019-04-22T08:38:50Z</time>
      </trkpt>
      <trkpt lat="43.21203" lon="5.52556">
        <ele>58.3</ele>
        <time>2019-04-22T08:39:07Z</time>
      </trkpt>
      <trkpt lat="43.212" lon="5.52542">
        <ele>58.78</ele>
        <time>2019-04-22T08:39:20Z</time>
      </trkpt>
      <trkpt lat="43.21193" lon="5.5252">
        <ele>58.3</ele>
        <time>2019-04-22T08:39:34Z</time>
      </trkpt>
      <trkpt lat="43.2118" lon="5.52489">
        <ele>56.86</ele>
        <time>2019-04-22T08:39:53Z</time>
      </trkpt>
      <trkpt lat="43.21176" lon="5.52467">
        <ele>55.41</ele>
        <time>2019-04-22T08:40:09Z</time>
      </trkpt>
      <trkpt lat="43.21169" lon="5.52445">
        <ele>53.01</ele>
        <time>2019-04-22T08:40:23Z</time>
      </trkpt>
      <trkpt lat="43.21163" lon="5.52419">
        <ele>51.09</ele>
        <time>2019-04-22T08:40:40Z</time>
      </trkpt>
      <trkpt lat="43.21153" lon="5.52399">
        <ele>50.13</ele>
        <time>2019-04-22T08:40:54Z</time>
      </trkpt>
      <trkpt lat="43.21151" lon="5.52395">
        <ele>49.65</ele>
        <time>2019-04-22T08:40:57Z</time>
      </trkpt>
      <trkpt lat="43.21145" lon="5.52373">
        <ele>47.72</ele>
        <time>2019-04-22T08:41:12Z</time>
      </trkpt>
      <trkpt lat="43.21138" lon="5.52346">
        <ele>45.8</ele>
        <time>2019-04-22T08:41:27Z</time>
      </trkpt>
      <trkpt lat="43.21141" lon="5.52329">
        <ele>44.36</ele>
        <time>2019-04-22T08:41:38Z</time>
      </trkpt>
      <trkpt lat="43.21145" lon="5.52308">
        <ele>41.47</ele>
        <time>2019-04-22T08:41:53Z</time>
      </trkpt>
      <trkpt lat="43.2114" lon="5.52278">
        <ele>38.59</ele>
        <time>2019-04-22T08:42:09Z</time>
      </trkpt>
      <trkpt lat="43.2114" lon="5.52255">
        <ele>36.67</ele>
        <time>2019-04-22T08:42:24Z</time>
      </trkpt>
      <trkpt lat="43.21145" lon="5.52229">
        <ele>34.26</ele>
        <time>2019-04-22T08:42:43Z</time>
      </trkpt>
      <trkpt lat="43.21147" lon="5.52217">
        <ele>32.34</ele>
        <time>2019-04-22T08:42:50Z</time>
      </trkpt>
      <trkpt lat="43.21158" lon="5.52202">
        <ele>31.86</ele>
        <time>2019-04-22T08:43:05Z</time>
      </trkpt>
      <trkpt lat="43.2116" lon="5.522">
        <ele>30.42</ele>
        <time>2019-04-22T08:43:23Z</time>
      </trkpt>
      <trkpt lat="43.21162" lon="5.522">
        <ele>30.42</ele>
        <time>2019-04-22T08:43:26Z</time>
      </trkpt>
      <trkpt lat="43.21172" lon="5.52201">
        <ele>27.05</ele>
        <time>2019-04-22T08:43:37Z</time>
      </trkpt>
      <trkpt lat="43.21185" lon="5.52199">
        <ele>24.65</ele>
        <time>2019-04-22T08:43:54Z</time>
      </trkpt>
      <trkpt lat="43.21198" lon="5.52196">
        <ele>23.69</ele>
        <time>2019-04-22T08:44:06Z</time>
      </trkpt>
      <trkpt lat="43.21194" lon="5.52193">
        <ele>22.73</ele>
        <time>2019-04-22T08:44:19Z</time>
      </trkpt>
      <trkpt lat="43.21187" lon="5.52181">
        <ele>22.73</ele>
        <time>2019-04-22T08:44:34Z</time>
      </trkpt>
      <trkpt lat="43.21176" lon="5.52157">
        <ele>21.29</ele>
        <time>2019-04-22T08:44:51Z</time>
      </trkpt>
      <trkpt lat="43.21175" lon="5.52151">
        <ele>20.81</ele>
        <time>2019-04-22T08:44:55Z</time>
      </trkpt>
      <trkpt lat="43.21165" lon="5.52129">
        <ele>19.84</ele>
        <time>2019-04-22T08:45:13Z</time>
      </trkpt>
      <trkpt lat="43.21155" lon="5.52113">
        <ele>19.36</ele>
        <time>2019-04-22T08:45:28Z</time>
      </trkpt>
      <trkpt lat="43.21147" lon="5.52107">
        <ele>20.32</ele>
        <time>2019-04-22T08:45:44Z</time>
      </trkpt>
      <trkpt lat="43.21145" lon="5.52113">
        <ele>20.81</ele>
        <time>2019-04-22T08:46:10Z</time>
      </trkpt>
      <trkpt lat="43.21151" lon="5.52108">
        <ele>20.81</ele>
        <time>2019-04-22T08:46:36Z</time>
      </trkpt>
      <trkpt lat="43.21137" lon="5.521">
        <ele>20.81</ele>
        <time>2019-04-22T08:46:58Z</time>
      </trkpt>
      <trkpt lat="43.21133" lon="5.52095">
        <ele>20.32</ele>
        <time>2019-04-22T08:47:04Z</time>
      </trkpt>
      <trkpt lat="43.21124" lon="5.52089">
        <ele>20.32</ele>
        <time>2019-04-22T08:47:12Z</time>
      </trkpt>
      <trkpt lat="43.21115" lon="5.52091">
        <ele>18.88</ele>
        <time>2019-04-22T08:47:29Z</time>
      </trkpt>
      <trkpt lat="43.21109" lon="5.52098">
        <ele>16.96</ele>
        <time>2019-04-22T08:47:46Z</time>
      </trkpt>
      <trkpt lat="43.21104" lon="5.52099">
        <ele>13.6</ele>
        <time>2019-04-22T08:47:55Z</time>
      </trkpt>
      <trkpt lat="43.21096" lon="5.52101">
        <ele>10.71</ele>
        <time>2019-04-22T08:48:06Z</time>
      </trkpt>
      <trkpt lat="43.21089" lon="5.52106">
        <ele>7.35</ele>
        <time>2019-04-22T08:48:18Z</time>
      </trkpt>
      <trkpt lat="43.21083" lon="5.52109">
        <ele>7.83</ele>
        <time>2019-04-22T08:48:30Z</time>
      </trkpt>
      <trkpt lat="43.2108" lon="5.52104">
        <ele>7.35</ele>
        <time>2019-04-22T08:48:49Z</time>
      </trkpt>
      <trkpt lat="43.21071" lon="5.52095">
        <ele>7.83</ele>
        <time>2019-04-22T08:49:01Z</time>
      </trkpt>
      <trkpt lat="43.21067" lon="5.52089">
        <ele>7.83</ele>
        <time>2019-04-22T08:49:15Z</time>
      </trkpt>
      <trkpt lat="43.21062" lon="5.52084">
        <ele>7.83</ele>
        <time>2019-04-22T08:49:34Z</time>
      </trkpt>
      <trkpt lat="43.21059" lon="5.5208">
        <ele>6.87</ele>
        <time>2019-04-22T08:49:48Z</time>
      </trkpt>
      <trkpt lat="43.21049" lon="5.52072">
        <ele>6.39</ele>
        <time>2019-04-22T08:50:07Z</time>
      </trkpt>
      <trkpt lat="43.21039" lon="5.52055">
        <ele>5.91</ele>
        <time>2019-04-22T08:50:23Z</time>
      </trkpt>
      <trkpt lat="43.21034" lon="5.52043">
        <ele>5.42</ele>
        <time>2019-04-22T08:50:34Z</time>
      </trkpt>
      <trkpt lat="43.21024" lon="5.52025">
        <ele>6.87</ele>
        <time>2019-04-22T08:50:49Z</time>
      </trkpt>
      <trkpt lat="43.21019" lon="5.52016">
        <ele>8.31</ele>
        <time>2019-04-22T08:51:06Z</time>
      </trkpt>
      <trkpt lat="43.2101" lon="5.52007">
        <ele>6.87</ele>
        <time>2019-04-22T08:51:22Z</time>
      </trkpt>
      <trkpt lat="43.20999" lon="5.51996">
        <ele>6.87</ele>
        <time>2019-04-22T08:51:38Z</time>
      </trkpt>
      <trkpt lat="43.20989" lon="5.51986">
        <ele>6.39</ele>
        <time>2019-04-22T08:51:51Z</time>
      </trkpt>
      <trkpt lat="43.20979" lon="5.5198">
        <ele>6.87</ele>
        <time>2019-04-22T08:52:07Z</time>
      </trkpt>
      <trkpt lat="43.20971" lon="5.51968">
        <ele>4.94</ele>
        <time>2019-04-22T08:52:21Z</time>
      </trkpt>
      <trkpt lat="43.20964" lon="5.51956">
        <ele>4.94</ele>
        <time>2019-04-22T08:52:37Z</time>
      </trkpt>
      <trkpt lat="43.20969" lon="5.51956">
        <ele>4.46</ele>
        <time>2019-04-22T08:52:52Z</time>
      </trkpt>
      <trkpt lat="43.20962" lon="5.51947">
        <ele>4.46</ele>
        <time>2019-04-22T08:53:06Z</time>
      </trkpt>
      <trkpt lat="43.2096" lon="5.51946">
        <ele>3.98</ele>
        <time>2019-04-22T08:53:08Z</time>
      </trkpt>
      <trkpt lat="43.20951" lon="5.51934">
        <ele>3.98</ele>
        <time>2019-04-22T08:53:20Z</time>
      </trkpt>
      <trkpt lat="43.20941" lon="5.51925">
        <ele>3.98</ele>
        <time>2019-04-22T08:53:33Z</time>
      </trkpt>
      <trkpt lat="43.20932" lon="5.51918">
        <ele>4.46</ele>
        <time>2019-04-22T08:53:46Z</time>
      </trkpt>
      <trkpt lat="43.20924" lon="5.51911">
        <ele>3.98</ele>
        <time>2019-04-22T08:54:02Z</time>
      </trkpt>
      <trkpt lat="43.20917" lon="5.51904">
        <ele>3.5</ele>
        <time>2019-04-22T08:54:11Z</time>
      </trkpt>
      <trkpt lat="43.20907" lon="5.51897">
        <ele>3.02</ele>
        <time>2019-04-22T08:54:22Z</time>
      </trkpt>
      <trkpt lat="43.20893" lon="5.51892">
        <ele>3.02</ele>
        <time>2019-04-22T08:54:36Z</time>
      </trkpt>
      <trkpt lat="43.20887" lon="5.51886">
        <ele>4.46</ele>
        <time>2019-04-22T08:54:51Z</time>
      </trkpt>
      <trkpt lat="43.20879" lon="5.5188">
        <ele>5.91</ele>
        <time>2019-04-22T08:55:07Z</time>
      </trkpt>
      <trkpt lat="43.20877" lon="5.5187">
        <ele>5.42</ele>
        <time>2019-04-22T08:55:15Z</time>
      </trkpt>
      <trkpt lat="43.20866" lon="5.51857">
        <ele>4.46</ele>
        <time>2019-04-22T08:55:32Z</time>
      </trkpt>
      <trkpt lat="43.20851" lon="5.51846">
        <ele>3.98</ele>
        <time>2019-04-22T08:55:45Z</time>
      </trkpt>
      <trkpt lat="43.20842" lon="5.51835">
        <ele>3.02</ele>
        <time>2019-04-22T08:56:00Z</time>
      </trkpt>
      <trkpt lat="43.2084" lon="5.51825">
        <ele>3.02</ele>
        <time>2019-04-22T08:56:09Z</time>
      </trkpt>
      <trkpt lat="43.20843" lon="5.51817">
        <ele>2.54</ele>
        <time>2019-04-22T08:56:27Z</time>
      </trkpt>
      <trkpt lat="43.20842" lon="5.51822">
        <ele>3.02</ele>
        <time>2019-04-22T08:56:39Z</time>
      </trkpt>
      <trkpt lat="43.20849" lon="5.51829">
        <ele>3.98</ele>
        <time>2019-04-22T08:56:54Z</time>
      </trkpt>
      <trkpt lat="43.20857" lon="5.51826">
        <ele>5.42</ele>
        <time>2019-04-22T08:57:10Z</time>
      </trkpt>
      <trkpt lat="43.20859" lon="5.51826">
        <ele>8.79</ele>
        <time>2019-04-22T08:57:24Z</time>
      </trkpt>
      <trkpt lat="43.20868" lon="5.51829">
        <ele>11.67</ele>
        <time>2019-04-22T08:57:41Z</time>
      </trkpt>
      <trkpt lat="43.20874" lon="5.5183">
        <ele>12.63</ele>
        <time>2019-04-22T08:57:56Z</time>
      </trkpt>
      <trkpt lat="43.20879" lon="5.51817">
        <ele>12.15</ele>
        <time>2019-04-22T08:58:11Z</time>
      </trkpt>
      <trkpt lat="43.20885" lon="5.51799">
        <ele>12.63</ele>
        <time>2019-04-22T08:58:27Z</time>
      </trkpt>
      <trkpt lat="43.20885" lon="5.51794">
        <ele>12.15</ele>
        <time>2019-04-22T08:58:41Z</time>
      </trkpt>
      <trkpt lat="43.20884" lon="5.51787">
        <ele>12.15</ele>
        <time>2019-04-22T08:59:05Z</time>
      </trkpt>
      <trkpt lat="43.20883" lon="5.5177">
        <ele>12.15</ele>
        <time>2019-04-22T08:59:20Z</time>
      </trkpt>
      <trkpt lat="43.20881" lon="5.51755">
        <ele>11.67</ele>
        <time>2019-04-22T08:59:36Z</time>
      </trkpt>
      <trkpt lat="43.20879" lon="5.51753">
        <ele>12.15</ele>
        <time>2019-04-22T08:59:39Z</time>
      </trkpt>
      <trkpt lat="43.20874" lon="5.51743">
        <ele>11.67</ele>
        <time>2019-04-22T08:59:48Z</time>
      </trkpt>
      <trkpt lat="43.20861" lon="5.51722">
        <ele>10.71</ele>
        <time>2019-04-22T09:00:08Z</time>
      </trkpt>
      <trkpt lat="43.2085" lon="5.51706">
        <ele>12.15</ele>
        <time>2019-04-22T09:00:25Z</time>
      </trkpt>
      <trkpt lat="43.20845" lon="5.51695">
        <ele>12.15</ele>
        <time>2019-04-22T09:00:41Z</time>
      </trkpt>
      <trkpt lat="43.20843" lon="5.517">
        <ele>11.19</ele>
        <time>2019-04-22T09:01:01Z</time>
      </trkpt>
      <trkpt lat="43.20846" lon="5.51695">
        <ele>10.71</ele>
        <time>2019-04-22T09:01:27Z</time>
      </trkpt>
      <trkpt lat="43.20843" lon="5.51692">
        <ele>13.6</ele>
        <time>2019-04-22T09:01:52Z</time>
      </trkpt>
      <trkpt lat="43.20838" lon="5.51687">
        <ele>14.56</ele>
        <time>2019-04-22T09:02:07Z</time>
      </trkpt>
      <trkpt lat="43.20835" lon="5.51682">
        <ele>16</ele>
        <time>2019-04-22T09:02:15Z</time>
      </trkpt>
      <trkpt lat="43.20833" lon="5.51678">
        <ele>15.52</ele>
        <time>2019-04-22T09:02:19Z</time>
      </trkpt>
      <trkpt lat="43.20819" lon="5.51656">
        <ele>15.52</ele>
        <time>2019-04-22T09:02:39Z</time>
      </trkpt>
      <trkpt lat="43.20804" lon="5.51641">
        <ele>12.63</ele>
        <time>2019-04-22T09:02:56Z</time>
      </trkpt>
      <trkpt lat="43.20791" lon="5.51634">
        <ele>12.63</ele>
        <time>2019-04-22T09:03:10Z</time>
      </trkpt>
      <trkpt lat="43.2078" lon="5.5162">
        <ele>12.15</ele>
        <time>2019-04-22T09:03:25Z</time>
      </trkpt>
      <trkpt lat="43.20776" lon="5.51614">
        <ele>11.67</ele>
        <time>2019-04-22T09:03:43Z</time>
      </trkpt>
      <trkpt lat="43.20769" lon="5.51608">
        <ele>8.31</ele>
        <time>2019-04-22T09:03:56Z</time>
      </trkpt>
      <trkpt lat="43.20766" lon="5.5161">
        <ele>7.35</ele>
        <time>2019-04-22T09:03:58Z</time>
      </trkpt>
      <trkpt lat="43.20763" lon="5.51602">
        <ele>6.39</ele>
        <time>2019-04-22T09:04:16Z</time>
      </trkpt>
      <trkpt lat="43.20758" lon="5.51601">
        <ele>7.83</ele>
        <time>2019-04-22T09:04:21Z</time>
      </trkpt>
      <trkpt lat="43.20754" lon="5.51605">
        <ele>12.15</ele>
        <time>2019-04-22T09:04:28Z</time>
      </trkpt>
      <trkpt lat="43.20753" lon="5.51604">
        <ele>10.71</ele>
        <time>2019-04-22T09:04:38Z</time>
      </trkpt>
      <trkpt lat="43.20748" lon="5.51592">
        <ele>12.63</ele>
        <time>2019-04-22T09:04:52Z</time>
      </trkpt>
      <trkpt lat="43.2075" lon="5.51586">
        <ele>11.67</ele>
        <time>2019-04-22T09:05:10Z</time>
      </trkpt>
      <trkpt lat="43.20746" lon="5.51577">
        <ele>11.19</ele>
        <time>2019-04-22T09:05:25Z</time>
      </trkpt>
      <trkpt lat="43.20737" lon="5.51562">
        <ele>12.15</ele>
        <time>2019-04-22T09:05:41Z</time>
      </trkpt>
      <trkpt lat="43.20744" lon="5.51562">
        <ele>13.6</ele>
        <time>2019-04-22T09:06:00Z</time>
      </trkpt>
      <trkpt lat="43.20743" lon="5.51545">
        <ele>13.6</ele>
        <time>2019-04-22T09:06:15Z</time>
      </trkpt>
      <trkpt lat="43.20747" lon="5.51529">
        <ele>14.08</ele>
        <time>2019-04-22T09:06:32Z</time>
      </trkpt>
      <trkpt lat="43.20739" lon="5.51506">
        <ele>14.08</ele>
        <time>2019-04-22T09:06:46Z</time>
      </trkpt>
      <trkpt lat="43.20728" lon="5.51491">
        <ele>14.56</ele>
        <time>2019-04-22T09:07:01Z</time>
      </trkpt>
      <trkpt lat="43.20715" lon="5.51485">
        <ele>15.04</ele>
        <time>2019-04-22T09:07:18Z</time>
      </trkpt>
      <trkpt lat="43.20712" lon="5.51482">
        <ele>16</ele>
        <time>2019-04-22T09:07:23Z</time>
      </trkpt>
      <trkpt lat="43.20696" lon="5.51476">
        <ele>17.44</ele>
        <time>2019-04-22T09:07:39Z</time>
      </trkpt>
      <trkpt lat="43.20696" lon="5.51476">
        <ele>17.92</ele>
        <time>2019-04-22T09:07:40Z</time>
      </trkpt>
      <trkpt lat="43.20681" lon="5.51471">
        <ele>20.32</ele>
        <time>2019-04-22T09:07:57Z</time>
      </trkpt>
      <trkpt lat="43.20669" lon="5.5147">
        <ele>20.81</ele>
        <time>2019-04-22T09:08:13Z</time>
      </trkpt>
      <trkpt lat="43.2066" lon="5.51467">
        <ele>21.77</ele>
        <time>2019-04-22T09:08:28Z</time>
      </trkpt>
      <trkpt lat="43.20649" lon="5.51463">
        <ele>24.65</ele>
        <time>2019-04-22T09:08:46Z</time>
      </trkpt>
      <trkpt lat="43.20647" lon="5.5146">
        <ele>25.61</ele>
        <time>2019-04-22T09:09:03Z</time>
      </trkpt>
      <trkpt lat="43.20639" lon="5.51454">
        <ele>25.13</ele>
        <time>2019-04-22T09:09:14Z</time>
      </trkpt>
      <trkpt lat="43.20634" lon="5.51446">
        <ele>28.98</ele>
        <time>2019-04-22T09:09:26Z</time>
      </trkpt>
      <trkpt lat="43.20633" lon="5.51445">
        <ele>28.98</ele>
        <time>2019-04-22T09:09:27Z</time>
      </trkpt>
      <trkpt lat="43.20624" lon="5.51436">
        <ele>32.34</ele>
        <time>2019-04-22T09:09:41Z</time>
      </trkpt>
      <trkpt lat="43.20622" lon="5.51434">
        <ele>33.78</ele>
        <time>2019-04-22T09:09:44Z</time>
      </trkpt>
      <trkpt lat="43.20618" lon="5.51429">
        <ele>37.15</ele>
        <time>2019-04-22T09:09:52Z</time>
      </trkpt>
      <trkpt lat="43.20609" lon="5.5142">
        <ele>38.11</ele>
        <time>2019-04-22T09:10:06Z</time>
      </trkpt>
      <trkpt lat="43.20607" lon="5.51417">
        <ele>38.59</ele>
        <time>2019-04-22T09:10:08Z</time>
      </trkpt>
      <trkpt lat="43.20595" lon="5.51402">
        <ele>40.03</ele>
        <time>2019-04-22T09:10:25Z</time>
      </trkpt>
      <trkpt lat="43.20589" lon="5.51393">
        <ele>39.55</ele>
        <time>2019-04-22T09:10:41Z</time>
      </trkpt>
      <trkpt lat="43.20585" lon="5.5139">
        <ele>39.55</ele>
        <time>2019-04-22T09:10:59Z</time>
      </trkpt>
      <trkpt lat="43.20586" lon="5.51384">
        <ele>39.55</ele>
        <time>2019-04-22T09:11:14Z</time>
      </trkpt>
      <trkpt lat="43.20584" lon="5.51379">
        <ele>40.99</ele>
        <time>2019-04-22T09:11:31Z</time>
      </trkpt>
      <trkpt lat="43.20581" lon="5.51364">
        <ele>41.47</ele>
        <time>2019-04-22T09:11:45Z</time>
      </trkpt>
      <trkpt lat="43.20581" lon="5.51346">
        <ele>42.92</ele>
        <time>2019-04-22T09:12:01Z</time>
      </trkpt>
      <trkpt lat="43.20582" lon="5.51343">
        <ele>42.92</ele>
        <time>2019-04-22T09:12:03Z</time>
      </trkpt>
      <trkpt lat="43.20584" lon="5.51333">
        <ele>42.92</ele>
        <time>2019-04-22T09:12:17Z</time>
      </trkpt>
      <trkpt lat="43.20589" lon="5.51324">
        <ele>42.92</ele>
        <time>2019-04-22T09:12:30Z</time>
      </trkpt>
      <trkpt lat="43.20595" lon="5.51311">
        <ele>43.4</ele>
        <time>2019-04-22T09:12:45Z</time>
      </trkpt>
      <trkpt lat="43.20597" lon="5.51292">
        <ele>43.88</ele>
        <time>2019-04-22T09:13:02Z</time>
      </trkpt>
      <trkpt lat="43.20598" lon="5.51279">
        <ele>45.8</ele>
        <time>2019-04-22T09:13:18Z</time>
      </trkpt>
      <trkpt lat="43.20596" lon="5.51266">
        <ele>46.28</ele>
        <time>2019-04-22T09:13:35Z</time>
      </trkpt>
      <trkpt lat="43.20593" lon="5.51251">
        <ele>47.72</ele>
        <time>2019-04-22T09:13:48Z</time>
      </trkpt>
      <trkpt lat="43.2059" lon="5.51237">
        <ele>47.72</ele>
        <time>2019-04-22T09:14:02Z</time>
      </trkpt>
      <trkpt lat="43.20586" lon="5.51224">
        <ele>52.05</ele>
        <time>2019-04-22T09:14:13Z</time>
      </trkpt>
      <trkpt lat="43.20586" lon="5.51224">
        <ele>51.09</ele>
        <time>2019-04-22T09:14:14Z</time>
      </trkpt>
      <trkpt lat="43.20571" lon="5.51208">
        <ele>49.65</ele>
        <time>2019-04-22T09:14:32Z</time>
      </trkpt>
      <trkpt lat="43.2056" lon="5.51194">
        <ele>49.65</ele>
        <time>2019-04-22T09:14:48Z</time>
      </trkpt>
      <trkpt lat="43.20557" lon="5.51192">
        <ele>49.16</ele>
        <time>2019-04-22T09:15:05Z</time>
      </trkpt>
      <trkpt lat="43.20556" lon="5.51197">
        <ele>46.76</ele>
        <time>2019-04-22T09:15:31Z</time>
      </trkpt>
      <trkpt lat="43.20554" lon="5.51194">
        <ele>46.76</ele>
        <time>2019-04-22T09:15:50Z</time>
      </trkpt>
      <trkpt lat="43.20549" lon="5.51188">
        <ele>47.24</ele>
        <time>2019-04-22T09:16:06Z</time>
      </trkpt>
      <trkpt lat="43.20541" lon="5.51179">
        <ele>46.76</ele>
        <time>2019-04-22T09:16:22Z</time>
      </trkpt>
      <trkpt lat="43.20536" lon="5.51168">
        <ele>46.76</ele>
        <time>2019-04-22T09:16:37Z</time>
      </trkpt>
      <trkpt lat="43.20536" lon="5.51168">
        <ele>47.72</ele>
        <time>2019-04-22T09:16:44Z</time>
      </trkpt>
      <trkpt lat="43.20532" lon="5.51162">
        <ele>46.28</ele>
        <time>2019-04-22T09:17:03Z</time>
      </trkpt>
      <trkpt lat="43.20522" lon="5.51165">
        <ele>42.92</ele>
        <time>2019-04-22T09:17:17Z</time>
      </trkpt>
      <trkpt lat="43.20511" lon="5.51161">
        <ele>40.99</ele>
        <time>2019-04-22T09:17:31Z</time>
      </trkpt>
      <trkpt lat="43.20499" lon="5.51161">
        <ele>38.59</ele>
        <time>2019-04-22T09:17:47Z</time>
      </trkpt>
      <trkpt lat="43.20489" lon="5.51159">
        <ele>36.67</ele>
        <time>2019-04-22T09:18:02Z</time>
      </trkpt>
      <trkpt lat="43.20482" lon="5.51159">
        <ele>35.23</ele>
        <time>2019-04-22T09:18:16Z</time>
      </trkpt>
      <trkpt lat="43.20482" lon="5.51159">
        <ele>36.19</ele>
        <time>2019-04-22T09:18:39Z</time>
      </trkpt>
      <trkpt lat="43.20477" lon="5.51159">
        <ele>35.23</ele>
        <time>2019-04-22T09:18:55Z</time>
      </trkpt>
      <trkpt lat="43.20465" lon="5.51158">
        <ele>33.78</ele>
        <time>2019-04-22T09:19:13Z</time>
      </trkpt>
      <trkpt lat="43.20458" lon="5.51158">
        <ele>31.38</ele>
        <time>2019-04-22T09:19:23Z</time>
      </trkpt>
      <trkpt lat="43.20451" lon="5.51159">
        <ele>30.42</ele>
        <time>2019-04-22T09:19:35Z</time>
      </trkpt>
      <trkpt lat="43.20444" lon="5.51156">
        <ele>28.02</ele>
        <time>2019-04-22T09:19:52Z</time>
      </trkpt>
      <trkpt lat="43.20443" lon="5.51151">
        <ele>25.61</ele>
        <time>2019-04-22T09:19:59Z</time>
      </trkpt>
      <trkpt lat="43.20437" lon="5.51143">
        <ele>23.21</ele>
        <time>2019-04-22T09:20:14Z</time>
      </trkpt>
      <trkpt lat="43.2043" lon="5.51138">
        <ele>20.32</ele>
        <time>2019-04-22T09:20:29Z</time>
      </trkpt>
      <trkpt lat="43.2043" lon="5.51127">
        <ele>17.92</ele>
        <time>2019-04-22T09:20:42Z</time>
      </trkpt>
      <trkpt lat="43.20428" lon="5.51119">
        <ele>15.52</ele>
        <time>2019-04-22T09:20:54Z</time>
      </trkpt>
      <trkpt lat="43.20426" lon="5.51117">
        <ele>14.08</ele>
        <time>2019-04-22T09:21:05Z</time>
      </trkpt>
      <trkpt lat="43.20426" lon="5.51108">
        <ele>11.19</ele>
        <time>2019-04-22T09:21:21Z</time>
      </trkpt>
      <trkpt lat="43.20425" lon="5.51107">
        <ele>8.79</ele>
        <time>2019-04-22T09:21:36Z</time>
      </trkpt>
      <trkpt lat="43.20424" lon="5.51098">
        <ele>6.87</ele>
        <time>2019-04-22T09:21:45Z</time>
      </trkpt>
      <trkpt lat="43.20409" lon="5.51091">
        <ele>4.46</ele>
        <time>2019-04-22T09:22:02Z</time>
      </trkpt>
      <trkpt lat="43.20399" lon="5.5109">
        <ele>2.06</ele>
        <time>2019-04-22T09:22:15Z</time>
      </trkpt>
      <trkpt lat="43.20392" lon="5.51083">
        <ele>1.1</ele>
        <time>2019-04-22T09:22:29Z</time>
      </trkpt>
      <trkpt lat="43.2039" lon="5.51084">
        <ele>-0.34</ele>
        <time>2019-04-22T09:22:45Z</time>
      </trkpt>
      <trkpt lat="43.20394" lon="5.51082">
        <ele>0.62</ele>
        <time>2019-04-22T09:23:17Z</time>
      </trkpt>
      <trkpt lat="43.20389" lon="5.51086">
        <ele>3.5</ele>
        <time>2019-04-22T09:23:46Z</time>
      </trkpt>
      <trkpt lat="43.20394" lon="5.51082">
        <ele>3.98</ele>
        <time>2019-04-22T09:24:05Z</time>
      </trkpt>
      <trkpt lat="43.20394" lon="5.51076">
        <ele>3.98</ele>
        <time>2019-04-22T09:24:27Z</time>
      </trkpt>
      <trkpt lat="43.20386" lon="5.51076">
        <ele>3.02</ele>
        <time>2019-04-22T09:24:42Z</time>
      </trkpt>
      <trkpt lat="43.20386" lon="5.51077">
        <ele>2.06</ele>
        <time>2019-04-22T09:24:55Z</time>
      </trkpt>
      <trkpt lat="43.20388" lon="5.51083">
        <ele>0.14</ele>
        <time>2019-04-22T09:25:08Z</time>
      </trkpt>
      <trkpt lat="43.20388" lon="5.51085">
        <ele>0.62</ele>
        <time>2019-04-22T09:25:26Z</time>
      </trkpt>
      <trkpt lat="43.20392" lon="5.51083">
        <ele>2.54</ele>
        <time>2019-04-22T09:25:38Z</time>
      </trkpt>
      <trkpt lat="43.20387" lon="5.51085">
        <ele>2.54</ele>
        <time>2019-04-22T09:25:54Z</time>
      </trkpt>
      <trkpt lat="43.20391" lon="5.51082">
        <ele>2.54</ele>
        <time>2019-04-22T09:26:19Z</time>
      </trkpt>
      <trkpt lat="43.20387" lon="5.51067">
        <ele>1.58</ele>
        <time>2019-04-22T09:26:35Z</time>
      </trkpt>
      <trkpt lat="43.20387" lon="5.51066">
        <ele>1.58</ele>
        <time>2019-04-22T09:26:36Z</time>
      </trkpt>
      <trkpt lat="43.20392" lon="5.51053">
        <ele>3.02</ele>
        <time>2019-04-22T09:26:51Z</time>
      </trkpt>
      <trkpt lat="43.20384" lon="5.51055">
        <ele>5.42</ele>
        <time>2019-04-22T09:27:08Z</time>
      </trkpt>
      <trkpt lat="43.20374" lon="5.51061">
        <ele>7.35</ele>
        <time>2019-04-22T09:27:24Z</time>
      </trkpt>
      <trkpt lat="43.20367" lon="5.51054">
        <ele>9.27</ele>
        <time>2019-04-22T09:27:42Z</time>
      </trkpt>
      <trkpt lat="43.20362" lon="5.51053">
        <ele>12.15</ele>
        <time>2019-04-22T09:27:57Z</time>
      </trkpt>
      <trkpt lat="43.20363" lon="5.51043">
        <ele>14.56</ele>
        <time>2019-04-22T09:28:09Z</time>
      </trkpt>
      <trkpt lat="43.20359" lon="5.51037">
        <ele>16</ele>
        <time>2019-04-22T09:28:22Z</time>
      </trkpt>
      <trkpt lat="43.20355" lon="5.51034">
        <ele>16.96</ele>
        <time>2019-04-22T09:28:35Z</time>
      </trkpt>
      <trkpt lat="43.20355" lon="5.51032">
        <ele>17.92</ele>
        <time>2019-04-22T09:28:37Z</time>
      </trkpt>
      <trkpt lat="43.20349" lon="5.51025">
        <ele>19.84</ele>
        <time>2019-04-22T09:28:54Z</time>
      </trkpt>
      <trkpt lat="43.20349" lon="5.51018">
        <ele>20.81</ele>
        <time>2019-04-22T09:29:09Z</time>
      </trkpt>
      <trkpt lat="43.20353" lon="5.51012">
        <ele>23.21</ele>
        <time>2019-04-22T09:29:26Z</time>
      </trkpt>
      <trkpt lat="43.20351" lon="5.51006">
        <ele>27.05</ele>
        <time>2019-04-22T09:29:39Z</time>
      </trkpt>
      <trkpt lat="43.20353" lon="5.50998">
        <ele>30.42</ele>
        <time>2019-04-22T09:29:56Z</time>
      </trkpt>
      <trkpt lat="43.20349" lon="5.50995">
        <ele>32.34</ele>
        <time>2019-04-22T09:30:10Z</time>
      </trkpt>
      <trkpt lat="43.20348" lon="5.50989">
        <ele>35.23</ele>
        <time>2019-04-22T09:30:25Z</time>
      </trkpt>
      <trkpt lat="43.20345" lon="5.50987">
        <ele>34.26</ele>
        <time>2019-04-22T09:30:45Z</time>
      </trkpt>
      <trkpt lat="43.20348" lon="5.50977">
        <ele>36.67</ele>
        <time>2019-04-22T09:31:03Z</time>
      </trkpt>
      <trkpt lat="43.20354" lon="5.50967">
        <ele>39.07</ele>
        <time>2019-04-22T09:31:19Z</time>
      </trkpt>
      <trkpt lat="43.20356" lon="5.50957">
        <ele>40.03</ele>
        <time>2019-04-22T09:31:32Z</time>
      </trkpt>
      <trkpt lat="43.20355" lon="5.50949">
        <ele>42.44</ele>
        <time>2019-04-22T09:31:47Z</time>
      </trkpt>
      <trkpt lat="43.20354" lon="5.50935">
        <ele>42.92</ele>
        <time>2019-04-22T09:32:05Z</time>
      </trkpt>
      <trkpt lat="43.20354" lon="5.5092">
        <ele>46.28</ele>
        <time>2019-04-22T09:32:22Z</time>
      </trkpt>
      <trkpt lat="43.20353" lon="5.50908">
        <ele>48.68</ele>
        <time>2019-04-22T09:32:37Z</time>
      </trkpt>
      <trkpt lat="43.20348" lon="5.50907">
        <ele>50.61</ele>
        <time>2019-04-22T09:32:52Z</time>
      </trkpt>
      <trkpt lat="43.20343" lon="5.50906">
        <ele>53.01</ele>
        <time>2019-04-22T09:33:02Z</time>
      </trkpt>
      <trkpt lat="43.20339" lon="5.50897">
        <ele>52.53</ele>
        <time>2019-04-22T09:33:22Z</time>
      </trkpt>
      <trkpt lat="43.20337" lon="5.509">
        <ele>53.49</ele>
        <time>2019-04-22T09:33:39Z</time>
      </trkpt>
      <trkpt lat="43.20335" lon="5.50902">
        <ele>53.01</ele>
        <time>2019-04-22T09:34:05Z</time>
      </trkpt>
      <trkpt lat="43.20329" lon="5.50907">
        <ele>53.97</ele>
        <time>2019-04-22T09:34:42Z</time>
      </trkpt>
      <trkpt lat="43.20336" lon="5.50903">
        <ele>55.41</ele>
        <time>2019-04-22T09:35:19Z</time>
      </trkpt>
      <trkpt lat="43.20335" lon="5.50904">
        <ele>55.41</ele>
        <time>2019-04-22T09:35:55Z</time>
      </trkpt>
      <trkpt lat="43.20336" lon="5.509">
        <ele>53.97</ele>
        <time>2019-04-22T09:36:30Z</time>
      </trkpt>
      <trkpt lat="43.20336" lon="5.50898">
        <ele>53.49</ele>
        <time>2019-04-22T09:36:59Z</time>
      </trkpt>
      <trkpt lat="43.2034" lon="5.50898">
        <ele>55.41</ele>
        <time>2019-04-22T09:37:24Z</time>
      </trkpt>
      <trkpt lat="43.20338" lon="5.50885">
        <ele>55.41</ele>
        <time>2019-04-22T09:37:43Z</time>
      </trkpt>
      <trkpt lat="43.20331" lon="5.50872">
        <ele>57.34</ele>
        <time>2019-04-22T09:37:57Z</time>
      </trkpt>
      <trkpt lat="43.20329" lon="5.50868">
        <ele>58.3</ele>
        <time>2019-04-22T09:38:02Z</time>
      </trkpt>
      <trkpt lat="43.20326" lon="5.50859">
        <ele>59.74</ele>
        <time>2019-04-22T09:38:19Z</time>
      </trkpt>
      <trkpt lat="43.20317" lon="5.50859">
        <ele>60.7</ele>
        <time>2019-04-22T09:38:35Z</time>
      </trkpt>
      <trkpt lat="43.20306" lon="5.50863">
        <ele>58.78</ele>
        <time>2019-04-22T09:38:50Z</time>
      </trkpt>
      <trkpt lat="43.20291" lon="5.50859">
        <ele>57.82</ele>
        <time>2019-04-22T09:39:07Z</time>
      </trkpt>
      <trkpt lat="43.20283" lon="5.50852">
        <ele>57.82</ele>
        <time>2019-04-22T09:39:21Z</time>
      </trkpt>
      <trkpt lat="43.20279" lon="5.50849">
        <ele>59.74</ele>
        <time>2019-04-22T09:39:37Z</time>
      </trkpt>
      <trkpt lat="43.20276" lon="5.50845">
        <ele>59.74</ele>
        <time>2019-04-22T09:39:52Z</time>
      </trkpt>
      <trkpt lat="43.20272" lon="5.50839">
        <ele>57.34</ele>
        <time>2019-04-22T09:40:01Z</time>
      </trkpt>
      <trkpt lat="43.20266" lon="5.50834">
        <ele>55.89</ele>
        <time>2019-04-22T09:40:08Z</time>
      </trkpt>
      <trkpt lat="43.20258" lon="5.50816">
        <ele>53.97</ele>
        <time>2019-04-22T09:40:23Z</time>
      </trkpt>
      <trkpt lat="43.20253" lon="5.50805">
        <ele>54.45</ele>
        <time>2019-04-22T09:40:35Z</time>
      </trkpt>
      <trkpt lat="43.20244" lon="5.50804">
        <ele>54.93</ele>
        <time>2019-04-22T09:40:52Z</time>
      </trkpt>
      <trkpt lat="43.2023" lon="5.50797">
        <ele>54.45</ele>
        <time>2019-04-22T09:41:08Z</time>
      </trkpt>
      <trkpt lat="43.20219" lon="5.50804">
        <ele>53.01</ele>
        <time>2019-04-22T09:41:24Z</time>
      </trkpt>
      <trkpt lat="43.20216" lon="5.50804">
        <ele>53.01</ele>
        <time>2019-04-22T09:41:44Z</time>
      </trkpt>
      <trkpt lat="43.20206" lon="5.50811">
        <ele>50.13</ele>
        <time>2019-04-22T09:41:59Z</time>
      </trkpt>
      <trkpt lat="43.20201" lon="5.50806">
        <ele>48.68</ele>
        <time>2019-04-22T09:42:10Z</time>
      </trkpt>
      <trkpt lat="43.2019" lon="5.50803">
        <ele>48.68</ele>
        <time>2019-04-22T09:42:21Z</time>
      </trkpt>
      <trkpt lat="43.20183" lon="5.5079">
        <ele>49.16</ele>
        <time>2019-04-22T09:42:38Z</time>
      </trkpt>
      <trkpt lat="43.20173" lon="5.50775">
        <ele>48.68</ele>
        <time>2019-04-22T09:42:55Z</time>
      </trkpt>
      <trkpt lat="43.20165" lon="5.50765">
        <ele>49.16</ele>
        <time>2019-04-22T09:43:11Z</time>
      </trkpt>
      <trkpt lat="43.20163" lon="5.50756">
        <ele>50.13</ele>
        <time>2019-04-22T09:43:26Z</time>
      </trkpt>
      <trkpt lat="43.20161" lon="5.50754">
        <ele>51.09</ele>
        <time>2019-04-22T09:43:34Z</time>
      </trkpt>
      <trkpt lat="43.20155" lon="5.50735">
        <ele>50.13</ele>
        <time>2019-04-22T09:43:49Z</time>
      </trkpt>
      <trkpt lat="43.20144" lon="5.50722">
        <ele>51.57</ele>
        <time>2019-04-22T09:44:06Z</time>
      </trkpt>
      <trkpt lat="43.20134" lon="5.50712">
        <ele>51.09</ele>
        <time>2019-04-22T09:44:20Z</time>
      </trkpt>
      <trkpt lat="43.20127" lon="5.50704">
        <ele>52.05</ele>
        <time>2019-04-22T09:44:36Z</time>
      </trkpt>
      <trkpt lat="43.20127" lon="5.50699">
        <ele>53.01</ele>
        <time>2019-04-22T09:44:53Z</time>
      </trkpt>
      <trkpt lat="43.20127" lon="5.507">
        <ele>49.65</ele>
        <time>2019-04-22T09:45:03Z</time>
      </trkpt>
      <trkpt lat="43.20127" lon="5.507">
        <ele>49.65</ele>
        <time>2019-04-22T09:45:04Z</time>
      </trkpt>
      <trkpt lat="43.20127" lon="5.50702">
        <ele>50.61</ele>
        <time>2019-04-22T09:45:35Z</time>
      </trkpt>
      <trkpt lat="43.20126" lon="5.50701">
        <ele>52.53</ele>
        <time>2019-04-22T09:46:13Z</time>
      </trkpt>
      <trkpt lat="43.20126" lon="5.507">
        <ele>50.13</ele>
        <time>2019-04-22T09:46:52Z</time>
      </trkpt>
      <trkpt lat="43.20128" lon="5.50699">
        <ele>53.49</ele>
        <time>2019-04-22T09:47:13Z</time>
      </trkpt>
      <trkpt lat="43.20127" lon="5.50706">
        <ele>52.53</ele>
        <time>2019-04-22T09:47:34Z</time>
      </trkpt>
      <trkpt lat="43.20126" lon="5.50708">
        <ele>54.45</ele>
        <time>2019-04-22T09:47:39Z</time>
      </trkpt>
      <trkpt lat="43.20124" lon="5.50707">
        <ele>52.05</ele>
        <time>2019-04-22T09:47:46Z</time>
      </trkpt>
      <trkpt lat="43.20115" lon="5.50694">
        <ele>51.57</ele>
        <time>2019-04-22T09:48:02Z</time>
      </trkpt>
      <trkpt lat="43.20113" lon="5.50691">
        <ele>46.76</ele>
        <time>2019-04-22T09:48:08Z</time>
      </trkpt>
      <trkpt lat="43.20112" lon="5.50691">
        <ele>46.76</ele>
        <time>2019-04-22T09:48:09Z</time>
      </trkpt>
      <trkpt lat="43.20103" lon="5.5069">
        <ele>45.8</ele>
        <time>2019-04-22T09:48:24Z</time>
      </trkpt>
      <trkpt lat="43.20102" lon="5.50691">
        <ele>44.84</ele>
        <time>2019-04-22T09:48:26Z</time>
      </trkpt>
      <trkpt lat="43.20094" lon="5.50691">
        <ele>42.92</ele>
        <time>2019-04-22T09:48:42Z</time>
      </trkpt>
      <trkpt lat="43.20088" lon="5.50694">
        <ele>42.92</ele>
        <time>2019-04-22T09:48:57Z</time>
      </trkpt>
      <trkpt lat="43.2008" lon="5.50696">
        <ele>40.51</ele>
        <time>2019-04-22T09:49:11Z</time>
      </trkpt>
      <trkpt lat="43.20074" lon="5.50697">
        <ele>37.63</ele>
        <time>2019-04-22T09:49:25Z</time>
      </trkpt>
      <trkpt lat="43.20074" lon="5.50699">
        <ele>36.67</ele>
        <time>2019-04-22T09:49:44Z</time>
      </trkpt>
      <trkpt lat="43.20075" lon="5.50698">
        <ele>37.15</ele>
        <time>2019-04-22T09:49:53Z</time>
      </trkpt>
      <trkpt lat="43.20076" lon="5.50698">
        <ele>37.15</ele>
        <time>2019-04-22T09:50:17Z</time>
      </trkpt>
      <trkpt lat="43.20071" lon="5.50697">
        <ele>36.67</ele>
        <time>2019-04-22T09:50:40Z</time>
      </trkpt>
      <trkpt lat="43.20066" lon="5.50698">
        <ele>36.19</ele>
        <time>2019-04-22T09:51:05Z</time>
      </trkpt>
      <trkpt lat="43.20059" lon="5.50704">
        <ele>34.26</ele>
        <time>2019-04-22T09:51:20Z</time>
      </trkpt>
      <trkpt lat="43.20055" lon="5.50707">
        <ele>31.38</ele>
        <time>2019-04-22T09:51:32Z</time>
      </trkpt>
      <trkpt lat="43.2005" lon="5.50695">
        <ele>31.86</ele>
        <time>2019-04-22T09:51:45Z</time>
      </trkpt>
      <trkpt lat="43.20044" lon="5.50681">
        <ele>29.46</ele>
        <time>2019-04-22T09:52:03Z</time>
      </trkpt>
      <trkpt lat="43.20039" lon="5.50677">
        <ele>32.82</ele>
        <time>2019-04-22T09:52:15Z</time>
      </trkpt>
      <trkpt lat="43.20039" lon="5.50677">
        <ele>32.82</ele>
        <time>2019-04-22T09:52:16Z</time>
      </trkpt>
      <trkpt lat="43.20029" lon="5.50669">
        <ele>32.34</ele>
        <time>2019-04-22T09:52:33Z</time>
      </trkpt>
      <trkpt lat="43.20027" lon="5.50659">
        <ele>33.3</ele>
        <time>2019-04-22T09:52:48Z</time>
      </trkpt>
      <trkpt lat="43.2002" lon="5.50642">
        <ele>35.71</ele>
        <time>2019-04-22T09:53:07Z</time>
      </trkpt>
      <trkpt lat="43.2002" lon="5.50637">
        <ele>36.67</ele>
        <time>2019-04-22T09:53:11Z</time>
      </trkpt>
      <trkpt lat="43.20021" lon="5.50624">
        <ele>39.07</ele>
        <time>2019-04-22T09:53:27Z</time>
      </trkpt>
      <trkpt lat="43.2002" lon="5.50613">
        <ele>41.47</ele>
        <time>2019-04-22T09:53:43Z</time>
      </trkpt>
      <trkpt lat="43.20015" lon="5.50604">
        <ele>43.4</ele>
        <time>2019-04-22T09:53:59Z</time>
      </trkpt>
      <trkpt lat="43.20015" lon="5.50592">
        <ele>46.76</ele>
        <time>2019-04-22T09:54:15Z</time>
      </trkpt>
      <trkpt lat="43.20016" lon="5.50584">
        <ele>50.13</ele>
        <time>2019-04-22T09:54:30Z</time>
      </trkpt>
      <trkpt lat="43.20022" lon="5.50577">
        <ele>52.05</ele>
        <time>2019-04-22T09:54:47Z</time>
      </trkpt>
      <trkpt lat="43.20025" lon="5.50573">
        <ele>53.49</ele>
        <time>2019-04-22T09:54:54Z</time>
      </trkpt>
      <trkpt lat="43.20027" lon="5.50563">
        <ele>54.93</ele>
        <time>2019-04-22T09:55:11Z</time>
      </trkpt>
      <trkpt lat="43.20028" lon="5.50561">
        <ele>55.89</ele>
        <time>2019-04-22T09:55:14Z</time>
      </trkpt>
      <trkpt lat="43.20031" lon="5.50554">
        <ele>57.34</ele>
        <time>2019-04-22T09:55:28Z</time>
      </trkpt>
      <trkpt lat="43.20034" lon="5.50549">
        <ele>59.74</ele>
        <time>2019-04-22T09:55:37Z</time>
      </trkpt>
      <trkpt lat="43.20039" lon="5.50546">
        <ele>60.7</ele>
        <time>2019-04-22T09:55:52Z</time>
      </trkpt>
      <trkpt lat="43.20047" lon="5.50535">
        <ele>62.62</ele>
        <time>2019-04-22T09:56:11Z</time>
      </trkpt>
      <trkpt lat="43.2005" lon="5.50532">
        <ele>64.55</ele>
        <time>2019-04-22T09:56:17Z</time>
      </trkpt>
      <trkpt lat="43.20056" lon="5.50519">
        <ele>64.55</ele>
        <time>2019-04-22T09:56:32Z</time>
      </trkpt>
      <trkpt lat="43.20064" lon="5.50508">
        <ele>65.99</ele>
        <time>2019-04-22T09:56:47Z</time>
      </trkpt>
      <trkpt lat="43.20069" lon="5.50496">
        <ele>68.39</ele>
        <time>2019-04-22T09:57:01Z</time>
      </trkpt>
      <trkpt lat="43.20073" lon="5.5049">
        <ele>65.51</ele>
        <time>2019-04-22T09:57:12Z</time>
      </trkpt>
      <trkpt lat="43.20075" lon="5.50486">
        <ele>66.95</ele>
        <time>2019-04-22T09:57:16Z</time>
      </trkpt>
      <trkpt lat="43.20075" lon="5.50485">
        <ele>66.95</ele>
        <time>2019-04-22T09:57:17Z</time>
      </trkpt>
      <trkpt lat="43.2008" lon="5.50469">
        <ele>65.99</ele>
        <time>2019-04-22T09:57:33Z</time>
      </trkpt>
      <trkpt lat="43.20081" lon="5.50459">
        <ele>67.43</ele>
        <time>2019-04-22T09:57:42Z</time>
      </trkpt>
      <trkpt lat="43.20083" lon="5.50446">
        <ele>69.83</ele>
        <time>2019-04-22T09:57:58Z</time>
      </trkpt>
      <trkpt lat="43.20083" lon="5.50428">
        <ele>69.83</ele>
        <time>2019-04-22T09:58:16Z</time>
      </trkpt>
      <trkpt lat="43.20087" lon="5.50412">
        <ele>73.68</ele>
        <time>2019-04-22T09:58:35Z</time>
      </trkpt>
      <trkpt lat="43.20088" lon="5.50411">
        <ele>73.68</ele>
        <time>2019-04-22T09:58:36Z</time>
      </trkpt>
      <trkpt lat="43.20096" lon="5.504">
        <ele>76.56</ele>
        <time>2019-04-22T09:58:55Z</time>
      </trkpt>
      <trkpt lat="43.20102" lon="5.50387">
        <ele>78</ele>
        <time>2019-04-22T09:59:11Z</time>
      </trkpt>
      <trkpt lat="43.20102" lon="5.50375">
        <ele>76.56</ele>
        <time>2019-04-22T09:59:26Z</time>
      </trkpt>
      <trkpt lat="43.20104" lon="5.50368">
        <ele>76.56</ele>
        <time>2019-04-22T09:59:42Z</time>
      </trkpt>
      <trkpt lat="43.20105" lon="5.50376">
        <ele>76.56</ele>
        <time>2019-04-22T10:00:10Z</time>
      </trkpt>
      <trkpt lat="43.20111" lon="5.50375">
        <ele>79.93</ele>
        <time>2019-04-22T10:00:24Z</time>
      </trkpt>
      <trkpt lat="43.20118" lon="5.5037">
        <ele>82.33</ele>
        <time>2019-04-22T10:00:42Z</time>
      </trkpt>
      <trkpt lat="43.20126" lon="5.50359">
        <ele>83.29</ele>
        <time>2019-04-22T10:00:59Z</time>
      </trkpt>
      <trkpt lat="43.20134" lon="5.50352">
        <ele>86.66</ele>
        <time>2019-04-22T10:01:17Z</time>
      </trkpt>
      <trkpt lat="43.20144" lon="5.50341">
        <ele>89.54</ele>
        <time>2019-04-22T10:01:35Z</time>
      </trkpt>
      <trkpt lat="43.20144" lon="5.50324">
        <ele>89.06</ele>
        <time>2019-04-22T10:01:53Z</time>
      </trkpt>
      <trkpt lat="43.20144" lon="5.50327">
        <ele>89.54</ele>
        <time>2019-04-22T10:02:11Z</time>
      </trkpt>
      <trkpt lat="43.20144" lon="5.50329">
        <ele>89.06</ele>
        <time>2019-04-22T10:02:40Z</time>
      </trkpt>
      <trkpt lat="43.20145" lon="5.50325">
        <ele>90.5</ele>
        <time>2019-04-22T10:03:06Z</time>
      </trkpt>
      <trkpt lat="43.20148" lon="5.50309">
        <ele>92.42</ele>
        <time>2019-04-22T10:03:23Z</time>
      </trkpt>
      <trkpt lat="43.20149" lon="5.50305">
        <ele>93.39</ele>
        <time>2019-04-22T10:03:28Z</time>
      </trkpt>
      <trkpt lat="43.2015" lon="5.50292">
        <ele>93.39</ele>
        <time>2019-04-22T10:03:44Z</time>
      </trkpt>
      <trkpt lat="43.20152" lon="5.50284">
        <ele>93.39</ele>
        <time>2019-04-22T10:04:00Z</time>
      </trkpt>
      <trkpt lat="43.20151" lon="5.50282">
        <ele>93.87</ele>
        <time>2019-04-22T10:04:24Z</time>
      </trkpt>
      <trkpt lat="43.20152" lon="5.50282">
        <ele>95.31</ele>
        <time>2019-04-22T10:04:37Z</time>
      </trkpt>
      <trkpt lat="43.2016" lon="5.50273">
        <ele>96.75</ele>
        <time>2019-04-22T10:04:56Z</time>
      </trkpt>
      <trkpt lat="43.20165" lon="5.50267">
        <ele>100.11</ele>
        <time>2019-04-22T10:05:12Z</time>
      </trkpt>
      <trkpt lat="43.20171" lon="5.50253">
        <ele>100.11</ele>
        <time>2019-04-22T10:05:29Z</time>
      </trkpt>
      <trkpt lat="43.20177" lon="5.50237">
        <ele>101.56</ele>
        <time>2019-04-22T10:05:48Z</time>
      </trkpt>
      <trkpt lat="43.20185" lon="5.50228">
        <ele>103.96</ele>
        <time>2019-04-22T10:06:06Z</time>
      </trkpt>
      <trkpt lat="43.2019" lon="5.50221">
        <ele>106.84</ele>
        <time>2019-04-22T10:06:23Z</time>
      </trkpt>
      <trkpt lat="43.20195" lon="5.50214">
        <ele>109.73</ele>
        <time>2019-04-22T10:06:37Z</time>
      </trkpt>
      <trkpt lat="43.20196" lon="5.50214">
        <ele>109.73</ele>
        <time>2019-04-22T10:06:38Z</time>
      </trkpt>
      <trkpt lat="43.20201" lon="5.50198">
        <ele>111.17</ele>
        <time>2019-04-22T10:06:54Z</time>
      </trkpt>
      <trkpt lat="43.20206" lon="5.50186">
        <ele>114.05</ele>
        <time>2019-04-22T10:07:11Z</time>
      </trkpt>
      <trkpt lat="43.20208" lon="5.50182">
        <ele>115.01</ele>
        <time>2019-04-22T10:07:17Z</time>
      </trkpt>
      <trkpt lat="43.20215" lon="5.5017">
        <ele>116.94</ele>
        <time>2019-04-22T10:07:35Z</time>
      </trkpt>
      <trkpt lat="43.20213" lon="5.50158">
        <ele>117.9</ele>
        <time>2019-04-22T10:07:51Z</time>
      </trkpt>
      <trkpt lat="43.20211" lon="5.50148">
        <ele>115.98</ele>
        <time>2019-04-22T10:08:07Z</time>
      </trkpt>
      <trkpt lat="43.20215" lon="5.50144">
        <ele>116.94</ele>
        <time>2019-04-22T10:08:22Z</time>
      </trkpt>
      <trkpt lat="43.20214" lon="5.5014">
        <ele>114.53</ele>
        <time>2019-04-22T10:08:43Z</time>
      </trkpt>
      <trkpt lat="43.20214" lon="5.50139">
        <ele>115.98</ele>
        <time>2019-04-22T10:09:00Z</time>
      </trkpt>
      <trkpt lat="43.20214" lon="5.5014">
        <ele>113.57</ele>
        <time>2019-04-22T10:09:17Z</time>
      </trkpt>
      <trkpt lat="43.20215" lon="5.5014">
        <ele>116.46</ele>
        <time>2019-04-22T10:09:43Z</time>
      </trkpt>
      <trkpt lat="43.20215" lon="5.50139">
        <ele>114.05</ele>
        <time>2019-04-22T10:09:47Z</time>
      </trkpt>
      <trkpt lat="43.20213" lon="5.5014">
        <ele>114.53</ele>
        <time>2019-04-22T10:10:22Z</time>
      </trkpt>
      <trkpt lat="43.20212" lon="5.50136">
        <ele>114.53</ele>
        <time>2019-04-22T10:10:50Z</time>
      </trkpt>
      <trkpt lat="43.20215" lon="5.50141">
        <ele>114.05</ele>
        <time>2019-04-22T10:11:23Z</time>
      </trkpt>
      <trkpt lat="43.20214" lon="5.50139">
        <ele>114.53</ele>
        <time>2019-04-22T10:11:53Z</time>
      </trkpt>
      <trkpt lat="43.20217" lon="5.50143">
        <ele>116.46</ele>
        <time>2019-04-22T10:12:14Z</time>
      </trkpt>
      <trkpt lat="43.20221" lon="5.50149">
        <ele>118.86</ele>
        <time>2019-04-22T10:12:30Z</time>
      </trkpt>
      <trkpt lat="43.20225" lon="5.50152">
        <ele>122.22</ele>
        <time>2019-04-22T10:12:42Z</time>
      </trkpt>
      <trkpt lat="43.20226" lon="5.50151">
        <ele>122.22</ele>
        <time>2019-04-22T10:12:43Z</time>
      </trkpt>
      <trkpt lat="43.20238" lon="5.50154">
        <ele>121.74</ele>
        <time>2019-04-22T10:12:59Z</time>
      </trkpt>
      <trkpt lat="43.20242" lon="5.50157">
        <ele>122.71</ele>
        <time>2019-04-22T10:13:06Z</time>
      </trkpt>
      <trkpt lat="43.20247" lon="5.50157">
        <ele>124.15</ele>
        <time>2019-04-22T10:13:26Z</time>
      </trkpt>
      <trkpt lat="43.20258" lon="5.50152">
        <ele>123.19</ele>
        <time>2019-04-22T10:13:42Z</time>
      </trkpt>
      <trkpt lat="43.20268" lon="5.50152">
        <ele>122.22</ele>
        <time>2019-04-22T10:13:54Z</time>
      </trkpt>
      <trkpt lat="43.20283" lon="5.50145">
        <ele>124.63</ele>
        <time>2019-04-22T10:14:13Z</time>
      </trkpt>
      <trkpt lat="43.20297" lon="5.5014">
        <ele>125.59</ele>
        <time>2019-04-22T10:14:31Z</time>
      </trkpt>
      <trkpt lat="43.2031" lon="5.50132">
        <ele>127.51</ele>
        <time>2019-04-22T10:14:48Z</time>
      </trkpt>
      <trkpt lat="43.20321" lon="5.50129">
        <ele>128.95</ele>
        <time>2019-04-22T10:15:06Z</time>
      </trkpt>
      <trkpt lat="43.20335" lon="5.5012">
        <ele>131.36</ele>
        <time>2019-04-22T10:15:26Z</time>
      </trkpt>
      <trkpt lat="43.20345" lon="5.50107">
        <ele>131.84</ele>
        <time>2019-04-22T10:15:43Z</time>
      </trkpt>
      <trkpt lat="43.20345" lon="5.50091">
        <ele>129.92</ele>
        <time>2019-04-22T10:15:58Z</time>
      </trkpt>
      <trkpt lat="43.20343" lon="5.50072">
        <ele>129.92</ele>
        <time>2019-04-22T10:16:11Z</time>
      </trkpt>
      <trkpt lat="43.20337" lon="5.50061">
        <ele>128.47</ele>
        <time>2019-04-22T10:16:28Z</time>
      </trkpt>
      <trkpt lat="43.20333" lon="5.50036">
        <ele>128.95</ele>
        <time>2019-04-22T10:16:48Z</time>
      </trkpt>
      <trkpt lat="43.20331" lon="5.50022">
        <ele>130.88</ele>
        <time>2019-04-22T10:17:04Z</time>
      </trkpt>
      <trkpt lat="43.20336" lon="5.50021">
        <ele>130.4</ele>
        <time>2019-04-22T10:17:21Z</time>
      </trkpt>
      <trkpt lat="43.20348" lon="5.50021">
        <ele>132.8</ele>
        <time>2019-04-22T10:17:41Z</time>
      </trkpt>
      <trkpt lat="43.20348" lon="5.50016">
        <ele>132.8</ele>
        <time>2019-04-22T10:17:59Z</time>
      </trkpt>
      <trkpt lat="43.20345" lon="5.50017">
        <ele>132.32</ele>
        <time>2019-04-22T10:18:26Z</time>
      </trkpt>
      <trkpt lat="43.20345" lon="5.50019">
        <ele>132.8</ele>
        <time>2019-04-22T10:19:01Z</time>
      </trkpt>
      <trkpt lat="43.20346" lon="5.50019">
        <ele>132.8</ele>
        <time>2019-04-22T10:19:34Z</time>
      </trkpt>
      <trkpt lat="43.20345" lon="5.50017">
        <ele>132.8</ele>
        <time>2019-04-22T10:20:06Z</time>
      </trkpt>
      <trkpt lat="43.20345" lon="5.50015">
        <ele>133.76</ele>
        <time>2019-04-22T10:20:34Z</time>
      </trkpt>
      <trkpt lat="43.20344" lon="5.50013">
        <ele>133.76</ele>
        <time>2019-04-22T10:21:05Z</time>
      </trkpt>
      <trkpt lat="43.20349" lon="5.5001">
        <ele>133.76</ele>
        <time>2019-04-22T10:21:38Z</time>
      </trkpt>
      <trkpt lat="43.20351" lon="5.50005">
        <ele>133.76</ele>
        <time>2019-04-22T10:21:43Z</time>
      </trkpt>
      <trkpt lat="43.20361" lon="5.49997">
        <ele>133.28</ele>
        <time>2019-04-22T10:21:58Z</time>
      </trkpt>
      <trkpt lat="43.20367" lon="5.49979">
        <ele>131.84</ele>
        <time>2019-04-22T10:22:16Z</time>
      </trkpt>
      <trkpt lat="43.20369" lon="5.49975">
        <ele>132.8</ele>
        <time>2019-04-22T10:22:20Z</time>
      </trkpt>
      <trkpt lat="43.20373" lon="5.49956">
        <ele>130.4</ele>
        <time>2019-04-22T10:22:36Z</time>
      </trkpt>
      <trkpt lat="43.20379" lon="5.49944">
        <ele>132.32</ele>
        <time>2019-04-22T10:22:51Z</time>
      </trkpt>
      <trkpt lat="43.20385" lon="5.49934">
        <ele>134.24</ele>
        <time>2019-04-22T10:23:07Z</time>
      </trkpt>
      <trkpt lat="43.20386" lon="5.4992">
        <ele>135.2</ele>
        <time>2019-04-22T10:23:21Z</time>
      </trkpt>
      <trkpt lat="43.20386" lon="5.49902">
        <ele>136.16</ele>
        <time>2019-04-22T10:23:40Z</time>
      </trkpt>
      <trkpt lat="43.20388" lon="5.49885">
        <ele>138.09</ele>
        <time>2019-04-22T10:23:56Z</time>
      </trkpt>
      <trkpt lat="43.20386" lon="5.49871">
        <ele>139.05</ele>
        <time>2019-04-22T10:24:11Z</time>
      </trkpt>
      <trkpt lat="43.20383" lon="5.49855">
        <ele>138.09</ele>
        <time>2019-04-22T10:24:25Z</time>
      </trkpt>
      <trkpt lat="43.2038" lon="5.49852">
        <ele>138.57</ele>
        <time>2019-04-22T10:24:34Z</time>
      </trkpt>
      <trkpt lat="43.2038" lon="5.49848">
        <ele>138.57</ele>
        <time>2019-04-22T10:24:48Z</time>
      </trkpt>
      <trkpt lat="43.20379" lon="5.4985">
        <ele>136.64</ele>
        <time>2019-04-22T10:25:08Z</time>
      </trkpt>
      <trkpt lat="43.20378" lon="5.49849">
        <ele>136.64</ele>
        <time>2019-04-22T10:25:39Z</time>
      </trkpt>
      <trkpt lat="43.2038" lon="5.49847">
        <ele>137.61</ele>
        <time>2019-04-22T10:26:16Z</time>
      </trkpt>
      <trkpt lat="43.2038" lon="5.49847">
        <ele>137.13</ele>
        <time>2019-04-22T10:26:55Z</time>
      </trkpt>
      <trkpt lat="43.2038" lon="5.49847">
        <ele>136.64</ele>
        <time>2019-04-22T10:27:25Z</time>
      </trkpt>
      <trkpt lat="43.2038" lon="5.49847">
        <ele>136.64</ele>
        <time>2019-04-22T10:27:57Z</time>
      </trkpt>
      <trkpt lat="43.20381" lon="5.49847">
        <ele>138.09</ele>
        <time>2019-04-22T10:28:37Z</time>
      </trkpt>
      <trkpt lat="43.2038" lon="5.49846">
        <ele>137.61</ele>
        <time>2019-04-22T10:29:19Z</time>
      </trkpt>
      <trkpt lat="43.20379" lon="5.49848">
        <ele>137.61</ele>
        <time>2019-04-22T10:29:58Z</time>
      </trkpt>
      <trkpt lat="43.20379" lon="5.49848">
        <ele>138.09</ele>
        <time>2019-04-22T10:30:25Z</time>
      </trkpt>
      <trkpt lat="43.20379" lon="5.49852">
        <ele>139.05</ele>
        <time>2019-04-22T10:30:42Z</time>
      </trkpt>
      <trkpt lat="43.20381" lon="5.49849">
        <ele>139.53</ele>
        <time>2019-04-22T10:30:59Z</time>
      </trkpt>
      <trkpt lat="43.20385" lon="5.4985">
        <ele>140.49</ele>
        <time>2019-04-22T10:31:22Z</time>
      </trkpt>
      <trkpt lat="43.20391" lon="5.4985">
        <ele>141.45</ele>
        <time>2019-04-22T10:31:37Z</time>
      </trkpt>
      <trkpt lat="43.20394" lon="5.49852">
        <ele>141.45</ele>
        <time>2019-04-22T10:31:43Z</time>
      </trkpt>
      <trkpt lat="43.20402" lon="5.49845">
        <ele>143.85</ele>
        <time>2019-04-22T10:31:59Z</time>
      </trkpt>
      <trkpt lat="43.20413" lon="5.49845">
        <ele>145.78</ele>
        <time>2019-04-22T10:32:15Z</time>
      </trkpt>
      <trkpt lat="43.20418" lon="5.49842">
        <ele>146.74</ele>
        <time>2019-04-22T10:32:30Z</time>
      </trkpt>
      <trkpt lat="43.20422" lon="5.4984">
        <ele>146.74</ele>
        <time>2019-04-22T10:32:53Z</time>
      </trkpt>
      <trkpt lat="43.20433" lon="5.49856">
        <ele>146.74</ele>
        <time>2019-04-22T10:33:11Z</time>
      </trkpt>
      <trkpt lat="43.20433" lon="5.4987">
        <ele>146.74</ele>
        <time>2019-04-22T10:33:24Z</time>
      </trkpt>
      <trkpt lat="43.20436" lon="5.49888">
        <ele>145.78</ele>
        <time>2019-04-22T10:33:41Z</time>
      </trkpt>
      <trkpt lat="43.20436" lon="5.49914">
        <ele>143.85</ele>
        <time>2019-04-22T10:33:59Z</time>
      </trkpt>
      <trkpt lat="43.20436" lon="5.49948">
        <ele>143.37</ele>
        <time>2019-04-22T10:34:21Z</time>
      </trkpt>
      <trkpt lat="43.20438" lon="5.49971">
        <ele>144.34</ele>
        <time>2019-04-22T10:34:38Z</time>
      </trkpt>
      <trkpt lat="43.2045" lon="5.49989">
        <ele>145.3</ele>
        <time>2019-04-22T10:34:57Z</time>
      </trkpt>
      <trkpt lat="43.20462" lon="5.50007">
        <ele>145.78</ele>
        <time>2019-04-22T10:35:15Z</time>
      </trkpt>
      <trkpt lat="43.20476" lon="5.50027">
        <ele>147.22</ele>
        <time>2019-04-22T10:35:33Z</time>
      </trkpt>
      <trkpt lat="43.20487" lon="5.5005">
        <ele>146.74</ele>
        <time>2019-04-22T10:35:52Z</time>
      </trkpt>
      <trkpt lat="43.20493" lon="5.50075">
        <ele>148.18</ele>
        <time>2019-04-22T10:36:13Z</time>
      </trkpt>
      <trkpt lat="43.20494" lon="5.50106">
        <ele>148.66</ele>
        <time>2019-04-22T10:36:35Z</time>
      </trkpt>
      <trkpt lat="43.20498" lon="5.50131">
        <ele>149.62</ele>
        <time>2019-04-22T10:36:53Z</time>
      </trkpt>
      <trkpt lat="43.2051" lon="5.50147">
        <ele>150.1</ele>
        <time>2019-04-22T10:37:12Z</time>
      </trkpt>
      <trkpt lat="43.20522" lon="5.50157">
        <ele>150.58</ele>
        <time>2019-04-22T10:37:29Z</time>
      </trkpt>
      <trkpt lat="43.2053" lon="5.50169">
        <ele>149.14</ele>
        <time>2019-04-22T10:37:46Z</time>
      </trkpt>
      <trkpt lat="43.20527" lon="5.50176">
        <ele>150.1</ele>
        <time>2019-04-22T10:37:59Z</time>
      </trkpt>
      <trkpt lat="43.20526" lon="5.50183">
        <ele>149.62</ele>
        <time>2019-04-22T10:38:29Z</time>
      </trkpt>
      <trkpt lat="43.20528" lon="5.50171">
        <ele>149.62</ele>
        <time>2019-04-22T10:38:47Z</time>
      </trkpt>
      <trkpt lat="43.20538" lon="5.50175">
        <ele>148.66</ele>
        <time>2019-04-22T10:39:00Z</time>
      </trkpt>
      <trkpt lat="43.20551" lon="5.50184">
        <ele>146.74</ele>
        <time>2019-04-22T10:39:20Z</time>
      </trkpt>
      <trkpt lat="43.20564" lon="5.50189">
        <ele>143.85</ele>
        <time>2019-04-22T10:39:34Z</time>
      </trkpt>
      <trkpt lat="43.20576" lon="5.50199">
        <ele>140.49</ele>
        <time>2019-04-22T10:39:52Z</time>
      </trkpt>
      <trkpt lat="43.20587" lon="5.502">
        <ele>138.57</ele>
        <time>2019-04-22T10:40:08Z</time>
      </trkpt>
      <trkpt lat="43.20595" lon="5.50204">
        <ele>137.61</ele>
        <time>2019-04-22T10:40:16Z</time>
      </trkpt>
      <trkpt lat="43.20601" lon="5.50207">
        <ele>137.13</ele>
        <time>2019-04-22T10:40:22Z</time>
      </trkpt>
      <trkpt lat="43.20619" lon="5.50206">
        <ele>135.68</ele>
        <time>2019-04-22T10:40:40Z</time>
      </trkpt>
      <trkpt lat="43.20629" lon="5.50188">
        <ele>135.68</ele>
        <time>2019-04-22T10:40:57Z</time>
      </trkpt>
      <trkpt lat="43.20633" lon="5.50189">
        <ele>135.68</ele>
        <time>2019-04-22T10:41:16Z</time>
      </trkpt>
      <trkpt lat="43.2064" lon="5.50172">
        <ele>135.2</ele>
        <time>2019-04-22T10:41:32Z</time>
      </trkpt>
      <trkpt lat="43.20641" lon="5.50158">
        <ele>133.28</ele>
        <time>2019-04-22T10:41:47Z</time>
      </trkpt>
      <trkpt lat="43.20641" lon="5.50153">
        <ele>131.84</ele>
        <time>2019-04-22T10:41:54Z</time>
      </trkpt>
      <trkpt lat="43.20653" lon="5.50143">
        <ele>128.95</ele>
        <time>2019-04-22T10:42:10Z</time>
      </trkpt>
      <trkpt lat="43.2066" lon="5.50145">
        <ele>127.99</ele>
        <time>2019-04-22T10:42:25Z</time>
      </trkpt>
      <trkpt lat="43.20662" lon="5.50144">
        <ele>126.55</ele>
        <time>2019-04-22T10:42:42Z</time>
      </trkpt>
      <trkpt lat="43.20665" lon="5.50145">
        <ele>125.59</ele>
        <time>2019-04-22T10:42:59Z</time>
      </trkpt>
      <trkpt lat="43.20666" lon="5.50149">
        <ele>125.59</ele>
        <time>2019-04-22T10:43:20Z</time>
      </trkpt>
      <trkpt lat="43.20667" lon="5.50144">
        <ele>124.63</ele>
        <time>2019-04-22T10:43:35Z</time>
      </trkpt>
      <trkpt lat="43.20668" lon="5.50138">
        <ele>123.19</ele>
        <time>2019-04-22T10:43:49Z</time>
      </trkpt>
      <trkpt lat="43.20665" lon="5.50133">
        <ele>121.26</ele>
        <time>2019-04-22T10:43:57Z</time>
      </trkpt>
      <trkpt lat="43.20668" lon="5.50132">
        <ele>119.82</ele>
        <time>2019-04-22T10:44:12Z</time>
      </trkpt>
      <trkpt lat="43.20673" lon="5.50126">
        <ele>117.42</ele>
        <time>2019-04-22T10:44:26Z</time>
      </trkpt>
      <trkpt lat="43.2067" lon="5.50122">
        <ele>115.5</ele>
        <time>2019-04-22T10:44:40Z</time>
      </trkpt>
      <trkpt lat="43.20666" lon="5.50124">
        <ele>114.05</ele>
        <time>2019-04-22T10:44:56Z</time>
      </trkpt>
      <trkpt lat="43.20663" lon="5.50116">
        <ele>111.17</ele>
        <time>2019-04-22T10:45:13Z</time>
      </trkpt>
      <trkpt lat="43.20665" lon="5.50108">
        <ele>107.81</ele>
        <time>2019-04-22T10:45:28Z</time>
      </trkpt>
      <trkpt lat="43.20672" lon="5.50103">
        <ele>104.92</ele>
        <time>2019-04-22T10:45:41Z</time>
      </trkpt>
      <trkpt lat="43.20676" lon="5.50103">
        <ele>103</ele>
        <time>2019-04-22T10:45:59Z</time>
      </trkpt>
      <trkpt lat="43.20683" lon="5.50108">
        <ele>103</ele>
        <time>2019-04-22T10:46:27Z</time>
      </trkpt>
      <trkpt lat="43.20681" lon="5.50111">
        <ele>104.44</ele>
        <time>2019-04-22T10:46:55Z</time>
      </trkpt>
      <trkpt lat="43.20681" lon="5.50105">
        <ele>103.48</ele>
        <time>2019-04-22T10:47:21Z</time>
      </trkpt>
      <trkpt lat="43.20684" lon="5.50099">
        <ele>102.04</ele>
        <time>2019-04-22T10:47:38Z</time>
      </trkpt>
      <trkpt lat="43.20685" lon="5.50092">
        <ele>100.6</ele>
        <time>2019-04-22T10:47:54Z</time>
      </trkpt>
      <trkpt lat="43.20686" lon="5.50084">
        <ele>99.15</ele>
        <time>2019-04-22T10:48:10Z</time>
      </trkpt>
      <trkpt lat="43.2069" lon="5.50081">
        <ele>98.67</ele>
        <time>2019-04-22T10:48:24Z</time>
      </trkpt>
      <trkpt lat="43.20689" lon="5.50078">
        <ele>96.75</ele>
        <time>2019-04-22T10:48:43Z</time>
      </trkpt>
      <trkpt lat="43.20689" lon="5.50078">
        <ele>94.83</ele>
        <time>2019-04-22T10:49:04Z</time>
      </trkpt>
      <trkpt lat="43.20691" lon="5.5008">
        <ele>94.35</ele>
        <time>2019-04-22T10:49:24Z</time>
      </trkpt>
      <trkpt lat="43.20693" lon="5.50077">
        <ele>93.39</ele>
        <time>2019-04-22T10:49:42Z</time>
      </trkpt>
      <trkpt lat="43.20701" lon="5.50069">
        <ele>91.94</ele>
        <time>2019-04-22T10:50:02Z</time>
      </trkpt>
      <trkpt lat="43.20693" lon="5.5006">
        <ele>89.06</ele>
        <time>2019-04-22T10:50:22Z</time>
      </trkpt>
      <trkpt lat="43.20702" lon="5.50052">
        <ele>87.14</ele>
        <time>2019-04-22T10:50:39Z</time>
      </trkpt>
      <trkpt lat="43.2069" lon="5.50057">
        <ele>86.66</ele>
        <time>2019-04-22T10:50:59Z</time>
      </trkpt>
      <trkpt lat="43.20681" lon="5.50049">
        <ele>86.18</ele>
        <time>2019-04-22T10:51:17Z</time>
      </trkpt>
      <trkpt lat="43.20679" lon="5.50053">
        <ele>85.21</ele>
        <time>2019-04-22T10:51:34Z</time>
      </trkpt>
      <trkpt lat="43.20671" lon="5.50052">
        <ele>84.25</ele>
        <time>2019-04-22T10:51:59Z</time>
      </trkpt>
      <trkpt lat="43.20661" lon="5.5005">
        <ele>81.85</ele>
        <time>2019-04-22T10:52:14Z</time>
      </trkpt>
      <trkpt lat="43.20633" lon="5.50038">
        <ele>78.97</ele>
        <time>2019-04-22T10:52:29Z</time>
      </trkpt>
      <trkpt lat="43.20627" lon="5.50031">
        <ele>75.6</ele>
        <time>2019-04-22T10:52:40Z</time>
      </trkpt>
      <trkpt lat="43.20601" lon="5.50021">
        <ele>73.68</ele>
        <time>2019-04-22T10:52:53Z</time>
      </trkpt>
      <trkpt lat="43.20596" lon="5.50014">
        <ele>69.83</ele>
        <time>2019-04-22T10:53:05Z</time>
      </trkpt>
      <trkpt lat="43.206" lon="5.50006">
        <ele>67.91</ele>
        <time>2019-04-22T10:53:24Z</time>
      </trkpt>
      <trkpt lat="43.20598" lon="5.49993">
        <ele>66.47</ele>
        <time>2019-04-22T10:53:40Z</time>
      </trkpt>
      <trkpt lat="43.20591" lon="5.49983">
        <ele>63.58</ele>
        <time>2019-04-22T10:53:59Z</time>
      </trkpt>
      <trkpt lat="43.20597" lon="5.49976">
        <ele>60.7</ele>
        <time>2019-04-22T10:54:15Z</time>
      </trkpt>
      <trkpt lat="43.20594" lon="5.49975">
        <ele>60.7</ele>
        <time>2019-04-22T10:54:37Z</time>
      </trkpt>
      <trkpt lat="43.20592" lon="5.49968">
        <ele>59.26</ele>
        <time>2019-04-22T10:54:54Z</time>
      </trkpt>
      <trkpt lat="43.2061" lon="5.49964">
        <ele>55.89</ele>
        <time>2019-04-22T10:55:03Z</time>
      </trkpt>
      <trkpt lat="43.2062" lon="5.49959">
        <ele>53.97</ele>
        <time>2019-04-22T10:55:16Z</time>
      </trkpt>
      <trkpt lat="43.20619" lon="5.49949">
        <ele>51.57</ele>
        <time>2019-04-22T10:55:27Z</time>
      </trkpt>
      <trkpt lat="43.20619" lon="5.49938">
        <ele>48.2</ele>
        <time>2019-04-22T10:55:40Z</time>
      </trkpt>
      <trkpt lat="43.20618" lon="5.49926">
        <ele>45.32</ele>
        <time>2019-04-22T10:55:52Z</time>
      </trkpt>
      <trkpt lat="43.20619" lon="5.49916">
        <ele>41.95</ele>
        <time>2019-04-22T10:56:02Z</time>
      </trkpt>
      <trkpt lat="43.20612" lon="5.49901">
        <ele>38.59</ele>
        <time>2019-04-22T10:56:16Z</time>
      </trkpt>
      <trkpt lat="43.20608" lon="5.49882">
        <ele>38.11</ele>
        <time>2019-04-22T10:56:34Z</time>
      </trkpt>
      <trkpt lat="43.20616" lon="5.49885">
        <ele>39.07</ele>
        <time>2019-04-22T10:56:54Z</time>
      </trkpt>
      <trkpt lat="43.20608" lon="5.49877">
        <ele>39.07</ele>
        <time>2019-04-22T10:57:24Z</time>
      </trkpt>
      <trkpt lat="43.20611" lon="5.49876">
        <ele>39.55</ele>
        <time>2019-04-22T10:57:56Z</time>
      </trkpt>
      <trkpt lat="43.20608" lon="5.4988">
        <ele>40.99</ele>
        <time>2019-04-22T10:58:36Z</time>
      </trkpt>
      <trkpt lat="43.20609" lon="5.49884">
        <ele>39.55</ele>
        <time>2019-04-22T10:59:01Z</time>
      </trkpt>
      <trkpt lat="43.20603" lon="5.49886">
        <ele>39.07</ele>
        <time>2019-04-22T10:59:37Z</time>
      </trkpt>
      <trkpt lat="43.20609" lon="5.49888">
        <ele>40.51</ele>
        <time>2019-04-22T11:00:05Z</time>
      </trkpt>
      <trkpt lat="43.20612" lon="5.49884">
        <ele>40.51</ele>
        <time>2019-04-22T11:00:30Z</time>
      </trkpt>
      <trkpt lat="43.20614" lon="5.49875">
        <ele>41.47</ele>
        <time>2019-04-22T11:00:53Z</time>
      </trkpt>
      <trkpt lat="43.20609" lon="5.49868">
        <ele>40.03</ele>
        <time>2019-04-22T11:01:11Z</time>
      </trkpt>
      <trkpt lat="43.2062" lon="5.49855">
        <ele>39.55</ele>
        <time>2019-04-22T11:01:24Z</time>
      </trkpt>
      <trkpt lat="43.20626" lon="5.49848">
        <ele>38.11</ele>
        <time>2019-04-22T11:01:35Z</time>
      </trkpt>
      <trkpt lat="43.20633" lon="5.49834">
        <ele>35.71</ele>
        <time>2019-04-22T11:01:49Z</time>
      </trkpt>
      <trkpt lat="43.20638" lon="5.49829">
        <ele>35.71</ele>
        <time>2019-04-22T11:02:03Z</time>
      </trkpt>
      <trkpt lat="43.2064" lon="5.49812">
        <ele>35.71</ele>
        <time>2019-04-22T11:02:18Z</time>
      </trkpt>
      <trkpt lat="43.20644" lon="5.49797">
        <ele>35.71</ele>
        <time>2019-04-22T11:02:34Z</time>
      </trkpt>
      <trkpt lat="43.20638" lon="5.49772">
        <ele>34.74</ele>
        <time>2019-04-22T11:02:51Z</time>
      </trkpt>
      <trkpt lat="43.20638" lon="5.49771">
        <ele>34.26</ele>
        <time>2019-04-22T11:02:52Z</time>
      </trkpt>
      <trkpt lat="43.20639" lon="5.49749">
        <ele>32.82</ele>
        <time>2019-04-22T11:03:07Z</time>
      </trkpt>
      <trkpt lat="43.20642" lon="5.49732">
        <ele>32.82</ele>
        <time>2019-04-22T11:03:22Z</time>
      </trkpt>
      <trkpt lat="43.20645" lon="5.49727">
        <ele>32.82</ele>
        <time>2019-04-22T11:03:49Z</time>
      </trkpt>
      <trkpt lat="43.20636" lon="5.49721">
        <ele>31.38</ele>
        <time>2019-04-22T11:04:08Z</time>
      </trkpt>
      <trkpt lat="43.20626" lon="5.49726">
        <ele>30.9</ele>
        <time>2019-04-22T11:04:19Z</time>
      </trkpt>
      <trkpt lat="43.20614" lon="5.49725">
        <ele>28.98</ele>
        <time>2019-04-22T11:04:38Z</time>
      </trkpt>
      <trkpt lat="43.20596" lon="5.49714">
        <ele>27.05</ele>
        <time>2019-04-22T11:04:58Z</time>
      </trkpt>
      <trkpt lat="43.20576" lon="5.49692">
        <ele>28.02</ele>
        <time>2019-04-22T11:05:19Z</time>
      </trkpt>
      <trkpt lat="43.20566" lon="5.49667">
        <ele>28.98</ele>
        <time>2019-04-22T11:05:38Z</time>
      </trkpt>
      <trkpt lat="43.20553" lon="5.49656">
        <ele>28.02</ele>
        <time>2019-04-22T11:05:49Z</time>
      </trkpt>
      <trkpt lat="43.20537" lon="5.49646">
        <ele>27.05</ele>
        <time>2019-04-22T11:06:09Z</time>
      </trkpt>
      <trkpt lat="43.20527" lon="5.49664">
        <ele>24.17</ele>
        <time>2019-04-22T11:06:26Z</time>
      </trkpt>
      <trkpt lat="43.20513" lon="5.49673">
        <ele>22.73</ele>
        <time>2019-04-22T11:06:41Z</time>
      </trkpt>
      <trkpt lat="43.20497" lon="5.4965">
        <ele>24.17</ele>
        <time>2019-04-22T11:06:59Z</time>
      </trkpt>
      <trkpt lat="43.20482" lon="5.49651">
        <ele>23.21</ele>
        <time>2019-04-22T11:07:13Z</time>
      </trkpt>
      <trkpt lat="43.2047" lon="5.49655">
        <ele>21.77</ele>
        <time>2019-04-22T11:07:33Z</time>
      </trkpt>
      <trkpt lat="43.20473" lon="5.49701">
        <ele>19.36</ele>
        <time>2019-04-22T11:07:54Z</time>
      </trkpt>
      <trkpt lat="43.20473" lon="5.49703">
        <ele>17.92</ele>
        <time>2019-04-22T11:08:10Z</time>
      </trkpt>
      <trkpt lat="43.20445" lon="5.49669">
        <ele>18.4</ele>
        <time>2019-04-22T11:08:32Z</time>
      </trkpt>
      <trkpt lat="43.20426" lon="5.4965">
        <ele>21.29</ele>
        <time>2019-04-22T11:08:46Z</time>
      </trkpt>
      <trkpt lat="43.20395" lon="5.49645">
        <ele>18.88</ele>
        <time>2019-04-22T11:09:07Z</time>
      </trkpt>
      <trkpt lat="43.20367" lon="5.49645">
        <ele>17.92</ele>
        <time>2019-04-22T11:09:25Z</time>
      </trkpt>
      <trkpt lat="43.20348" lon="5.49651">
        <ele>17.92</ele>
        <time>2019-04-22T11:09:42Z</time>
      </trkpt>
      <trkpt lat="43.20343" lon="5.49644">
        <ele>18.4</ele>
        <time>2019-04-22T11:10:05Z</time>
      </trkpt>
      <trkpt lat="43.20342" lon="5.49644">
        <ele>18.4</ele>
        <time>2019-04-22T11:10:06Z</time>
      </trkpt>
      <trkpt lat="43.20329" lon="5.49649">
        <ele>18.4</ele>
        <time>2019-04-22T11:10:17Z</time>
      </trkpt>
      <trkpt lat="43.20311" lon="5.49657">
        <ele>17.44</ele>
        <time>2019-04-22T11:10:36Z</time>
      </trkpt>
      <trkpt lat="43.20302" lon="5.49662">
        <ele>16.48</ele>
        <time>2019-04-22T11:10:48Z</time>
      </trkpt>
      <trkpt lat="43.203" lon="5.49662">
        <ele>17.44</ele>
        <time>2019-04-22T11:10:50Z</time>
      </trkpt>
      <trkpt lat="43.2028" lon="5.49659">
        <ele>17.44</ele>
        <time>2019-04-22T11:11:07Z</time>
      </trkpt>
      <trkpt lat="43.20264" lon="5.49669">
        <ele>18.88</ele>
        <time>2019-04-22T11:11:21Z</time>
      </trkpt>
      <trkpt lat="43.20251" lon="5.49684">
        <ele>20.32</ele>
        <time>2019-04-22T11:11:41Z</time>
      </trkpt>
      <trkpt lat="43.20244" lon="5.49676">
        <ele>19.36</ele>
        <time>2019-04-22T11:11:58Z</time>
      </trkpt>
      <trkpt lat="43.20254" lon="5.49669">
        <ele>20.32</ele>
        <time>2019-04-22T11:12:21Z</time>
      </trkpt>
      <trkpt lat="43.20251" lon="5.49675">
        <ele>20.32</ele>
        <time>2019-04-22T11:12:50Z</time>
      </trkpt>
      <trkpt lat="43.20238" lon="5.49676">
        <ele>21.77</ele>
        <time>2019-04-22T11:13:13Z</time>
      </trkpt>
      <trkpt lat="43.20236" lon="5.49676">
        <ele>23.21</ele>
        <time>2019-04-22T11:13:15Z</time>
      </trkpt>
      <trkpt lat="43.20236" lon="5.49674">
        <ele>23.21</ele>
        <time>2019-04-22T11:13:19Z</time>
      </trkpt>
      <trkpt lat="43.20235" lon="5.49672">
        <ele>21.77</ele>
        <time>2019-04-22T11:13:20Z</time>
      </trkpt>
      <trkpt lat="43.20232" lon="5.49678">
        <ele>23.21</ele>
        <time>2019-04-22T11:13:37Z</time>
      </trkpt>
      <trkpt lat="43.20226" lon="5.49689">
        <ele>21.77</ele>
        <time>2019-04-22T11:13:52Z</time>
      </trkpt>
      <trkpt lat="43.20226" lon="5.4969">
        <ele>21.77</ele>
        <time>2019-04-22T11:13:53Z</time>
      </trkpt>
      <trkpt lat="43.20226" lon="5.49703">
        <ele>21.29</ele>
        <time>2019-04-22T11:14:03Z</time>
      </trkpt>
      <trkpt lat="43.20226" lon="5.49722">
        <ele>22.73</ele>
        <time>2019-04-22T11:14:18Z</time>
      </trkpt>
      <trkpt lat="43.20241" lon="5.49729">
        <ele>22.73</ele>
        <time>2019-04-22T11:14:36Z</time>
      </trkpt>
      <trkpt lat="43.20245" lon="5.49738">
        <ele>23.69</ele>
        <time>2019-04-22T11:14:58Z</time>
      </trkpt>
      <trkpt lat="43.20247" lon="5.49739">
        <ele>22.73</ele>
        <time>2019-04-22T11:15:14Z</time>
      </trkpt>
      <trkpt lat="43.20251" lon="5.49734">
        <ele>22.25</ele>
        <time>2019-04-22T11:15:32Z</time>
      </trkpt>
      <trkpt lat="43.20249" lon="5.4975">
        <ele>21.77</ele>
        <time>2019-04-22T11:15:50Z</time>
      </trkpt>
      <trkpt lat="43.20248" lon="5.49756">
        <ele>22.25</ele>
        <time>2019-04-22T11:16:07Z</time>
      </trkpt>
      <trkpt lat="43.20246" lon="5.49763">
        <ele>23.69</ele>
        <time>2019-04-22T11:16:22Z</time>
      </trkpt>
      <trkpt lat="43.20237" lon="5.49779">
        <ele>23.21</ele>
        <time>2019-04-22T11:16:36Z</time>
      </trkpt>
      <trkpt lat="43.2023" lon="5.49792">
        <ele>20.81</ele>
        <time>2019-04-22T11:16:49Z</time>
      </trkpt>
      <trkpt lat="43.20229" lon="5.49792">
        <ele>23.21</ele>
        <time>2019-04-22T11:16:51Z</time>
      </trkpt>
      <trkpt lat="43.20233" lon="5.49798">
        <ele>23.21</ele>
        <time>2019-04-22T11:17:12Z</time>
      </trkpt>
      <trkpt lat="43.20234" lon="5.49799">
        <ele>22.73</ele>
        <time>2019-04-22T11:17:13Z</time>
      </trkpt>
      <trkpt lat="43.20229" lon="5.49793">
        <ele>34.74</ele>
        <time>2019-04-22T11:34:16Z</time>
      </trkpt>
      <trkpt lat="43.20237" lon="5.49732">
        <ele>34.74</ele>
        <time>2019-04-22T11:34:17Z</time>
      </trkpt>
      <trkpt lat="43.2025" lon="5.49731">
        <ele>31.86</ele>
        <time>2019-04-22T11:34:29Z</time>
      </trkpt>
      <trkpt lat="43.20252" lon="5.49731">
        <ele>28.02</ele>
        <time>2019-04-22T11:34:33Z</time>
      </trkpt>
      <trkpt lat="43.20252" lon="5.4973">
        <ele>25.61</ele>
        <time>2019-04-22T11:34:36Z</time>
      </trkpt>
      <trkpt lat="43.20254" lon="5.49727">
        <ele>23.21</ele>
        <time>2019-04-22T11:34:40Z</time>
      </trkpt>
      <trkpt lat="43.20253" lon="5.49725">
        <ele>22.25</ele>
        <time>2019-04-22T11:34:42Z</time>
      </trkpt>
      <trkpt lat="43.20253" lon="5.49722">
        <ele>19.84</ele>
        <time>2019-04-22T11:34:45Z</time>
      </trkpt>
      <trkpt lat="43.20254" lon="5.49717">
        <ele>16.96</ele>
        <time>2019-04-22T11:34:50Z</time>
      </trkpt>
      <trkpt lat="43.20253" lon="5.49708">
        <ele>13.6</ele>
        <time>2019-04-22T11:34:57Z</time>
      </trkpt>
      <trkpt lat="43.20253" lon="5.49706">
        <ele>9.75</ele>
        <time>2019-04-22T11:35:07Z</time>
      </trkpt>
      <trkpt lat="43.20257" lon="5.49697">
        <ele>6.39</ele>
        <time>2019-04-22T11:35:19Z</time>
      </trkpt>
      <trkpt lat="43.20268" lon="5.4969">
        <ele>5.42</ele>
        <time>2019-04-22T11:35:30Z</time>
      </trkpt>
      <trkpt lat="43.20277" lon="5.49688">
        <ele>5.42</ele>
        <time>2019-04-22T11:35:43Z</time>
      </trkpt>
      <trkpt lat="43.20288" lon="5.49685">
        <ele>4.46</ele>
        <time>2019-04-22T11:35:55Z</time>
      </trkpt>
      <trkpt lat="43.20301" lon="5.49676">
        <ele>3.98</ele>
        <time>2019-04-22T11:36:11Z</time>
      </trkpt>
      <trkpt lat="43.2031" lon="5.4967">
        <ele>4.46</ele>
        <time>2019-04-22T11:36:26Z</time>
      </trkpt>
      <trkpt lat="43.20318" lon="5.49662">
        <ele>3.98</ele>
        <time>2019-04-22T11:36:41Z</time>
      </trkpt>
      <trkpt lat="43.20313" lon="5.49658">
        <ele>3.5</ele>
        <time>2019-04-22T11:36:52Z</time>
      </trkpt>
      <trkpt lat="43.20325" lon="5.49662">
        <ele>3.02</ele>
        <time>2019-04-22T11:37:06Z</time>
      </trkpt>
      <trkpt lat="43.20331" lon="5.4966">
        <ele>2.06</ele>
        <time>2019-04-22T11:37:29Z</time>
      </trkpt>
      <trkpt lat="43.20327" lon="5.49657">
        <ele>3.5</ele>
        <time>2019-04-22T11:37:48Z</time>
      </trkpt>
      <trkpt lat="43.20321" lon="5.49657">
        <ele>5.42</ele>
        <time>2019-04-22T11:37:54Z</time>
      </trkpt>
      <trkpt lat="43.20322" lon="5.49653">
        <ele>6.39</ele>
        <time>2019-04-22T11:38:02Z</time>
      </trkpt>
      <trkpt lat="43.20317" lon="5.49654">
        <ele>9.75</ele>
        <time>2019-04-22T11:38:19Z</time>
      </trkpt>
      <trkpt lat="43.20307" lon="5.49654">
        <ele>11.19</ele>
        <time>2019-04-22T11:38:39Z</time>
      </trkpt>
      <trkpt lat="43.20311" lon="5.4965">
        <ele>7.83</ele>
        <time>2019-04-22T11:39:02Z</time>
      </trkpt>
      <trkpt lat="43.20311" lon="5.49659">
        <ele>4.94</ele>
        <time>2019-04-22T11:39:14Z</time>
      </trkpt>
      <trkpt lat="43.20325" lon="5.49658">
        <ele>2.54</ele>
        <time>2019-04-22T11:39:36Z</time>
      </trkpt>
      <trkpt lat="43.20346" lon="5.49651">
        <ele>2.54</ele>
        <time>2019-04-22T11:39:58Z</time>
      </trkpt>
      <trkpt lat="43.20369" lon="5.49644">
        <ele>4.46</ele>
        <time>2019-04-22T11:40:21Z</time>
      </trkpt>
      <trkpt lat="43.2039" lon="5.49635">
        <ele>5.91</ele>
        <time>2019-04-22T11:40:39Z</time>
      </trkpt>
      <trkpt lat="43.20409" lon="5.49627">
        <ele>7.83</ele>
        <time>2019-04-22T11:41:02Z</time>
      </trkpt>
      <trkpt lat="43.20426" lon="5.49635">
        <ele>7.83</ele>
        <time>2019-04-22T11:41:23Z</time>
      </trkpt>
      <trkpt lat="43.20446" lon="5.49643">
        <ele>7.83</ele>
        <time>2019-04-22T11:41:48Z</time>
      </trkpt>
      <trkpt lat="43.20466" lon="5.49638">
        <ele>9.27</ele>
        <time>2019-04-22T11:42:13Z</time>
      </trkpt>
      <trkpt lat="43.2047" lon="5.49641">
        <ele>10.23</ele>
        <time>2019-04-22T11:42:31Z</time>
      </trkpt>
      <trkpt lat="43.20483" lon="5.49645">
        <ele>8.79</ele>
        <time>2019-04-22T11:42:48Z</time>
      </trkpt>
      <trkpt lat="43.20484" lon="5.49646">
        <ele>11.19</ele>
        <time>2019-04-22T11:42:49Z</time>
      </trkpt>
      <trkpt lat="43.20498" lon="5.4965">
        <ele>14.08</ele>
        <time>2019-04-22T11:43:05Z</time>
      </trkpt>
      <trkpt lat="43.20499" lon="5.4965">
        <ele>12.15</ele>
        <time>2019-04-22T11:43:06Z</time>
      </trkpt>
      <trkpt lat="43.20502" lon="5.49648">
        <ele>12.63</ele>
        <time>2019-04-22T11:43:09Z</time>
      </trkpt>
      <trkpt lat="43.20503" lon="5.49648">
        <ele>10.23</ele>
        <time>2019-04-22T11:43:10Z</time>
      </trkpt>
      <trkpt lat="43.20504" lon="5.49647">
        <ele>12.15</ele>
        <time>2019-04-22T11:43:11Z</time>
      </trkpt>
      <trkpt lat="43.20517" lon="5.49643">
        <ele>8.31</ele>
        <time>2019-04-22T11:43:25Z</time>
      </trkpt>
      <trkpt lat="43.20519" lon="5.49641">
        <ele>16.48</ele>
        <time>2019-04-22T11:43:26Z</time>
      </trkpt>
      <trkpt lat="43.20521" lon="5.49641">
        <ele>13.6</ele>
        <time>2019-04-22T11:43:27Z</time>
      </trkpt>
      <trkpt lat="43.20525" lon="5.49633">
        <ele>14.08</ele>
        <time>2019-04-22T11:43:33Z</time>
      </trkpt>
      <trkpt lat="43.20533" lon="5.49636">
        <ele>14.08</ele>
        <time>2019-04-22T11:43:47Z</time>
      </trkpt>
      <trkpt lat="43.20538" lon="5.49636">
        <ele>15.04</ele>
        <time>2019-04-22T11:43:57Z</time>
      </trkpt>
      <trkpt lat="43.20554" lon="5.49647">
        <ele>16.96</ele>
        <time>2019-04-22T11:44:18Z</time>
      </trkpt>
      <trkpt lat="43.2056" lon="5.49661">
        <ele>16.96</ele>
        <time>2019-04-22T11:44:30Z</time>
      </trkpt>
      <trkpt lat="43.20573" lon="5.49685">
        <ele>16.96</ele>
        <time>2019-04-22T11:44:51Z</time>
      </trkpt>
      <trkpt lat="43.20587" lon="5.49711">
        <ele>18.4</ele>
        <time>2019-04-22T11:45:14Z</time>
      </trkpt>
      <trkpt lat="43.20593" lon="5.49721">
        <ele>18.4</ele>
        <time>2019-04-22T11:45:23Z</time>
      </trkpt>
      <trkpt lat="43.20612" lon="5.49731">
        <ele>19.36</ele>
        <time>2019-04-22T11:45:43Z</time>
      </trkpt>
      <trkpt lat="43.20643" lon="5.49724">
        <ele>20.81</ele>
        <time>2019-04-22T11:46:04Z</time>
      </trkpt>
      <trkpt lat="43.20651" lon="5.49755">
        <ele>22.73</ele>
        <time>2019-04-22T11:46:24Z</time>
      </trkpt>
      <trkpt lat="43.20654" lon="5.49781">
        <ele>23.69</ele>
        <time>2019-04-22T11:46:41Z</time>
      </trkpt>
      <trkpt lat="43.20648" lon="5.49813">
        <ele>24.65</ele>
        <time>2019-04-22T11:47:03Z</time>
      </trkpt>
      <trkpt lat="43.20636" lon="5.49838">
        <ele>24.17</ele>
        <time>2019-04-22T11:47:24Z</time>
      </trkpt>
      <trkpt lat="43.20622" lon="5.49867">
        <ele>24.65</ele>
        <time>2019-04-22T11:47:49Z</time>
      </trkpt>
      <trkpt lat="43.20616" lon="5.4989">
        <ele>26.57</ele>
        <time>2019-04-22T11:48:10Z</time>
      </trkpt>
      <trkpt lat="43.20625" lon="5.4991">
        <ele>26.57</ele>
        <time>2019-04-22T11:48:31Z</time>
      </trkpt>
      <trkpt lat="43.20633" lon="5.49915">
        <ele>28.5</ele>
        <time>2019-04-22T11:48:52Z</time>
      </trkpt>
      <trkpt lat="43.20648" lon="5.49904">
        <ele>30.9</ele>
        <time>2019-04-22T11:49:13Z</time>
      </trkpt>
      <trkpt lat="43.20662" lon="5.49894">
        <ele>31.86</ele>
        <time>2019-04-22T11:49:32Z</time>
      </trkpt>
      <trkpt lat="43.20679" lon="5.49875">
        <ele>33.3</ele>
        <time>2019-04-22T11:49:56Z</time>
      </trkpt>
      <trkpt lat="43.20688" lon="5.49864">
        <ele>35.71</ele>
        <time>2019-04-22T11:50:17Z</time>
      </trkpt>
      <trkpt lat="43.20703" lon="5.49851">
        <ele>36.67</ele>
        <time>2019-04-22T11:50:36Z</time>
      </trkpt>
      <trkpt lat="43.20713" lon="5.49847">
        <ele>33.78</ele>
        <time>2019-04-22T11:50:46Z</time>
      </trkpt>
      <trkpt lat="43.20714" lon="5.49846">
        <ele>37.15</ele>
        <time>2019-04-22T11:50:49Z</time>
      </trkpt>
      <trkpt lat="43.20715" lon="5.49845">
        <ele>36.67</ele>
        <time>2019-04-22T11:50:50Z</time>
      </trkpt>
      <trkpt lat="43.20718" lon="5.4984">
        <ele>36.67</ele>
        <time>2019-04-22T11:51:03Z</time>
      </trkpt>
      <trkpt lat="43.20726" lon="5.49828">
        <ele>38.59</ele>
        <time>2019-04-22T11:51:26Z</time>
      </trkpt>
      <trkpt lat="43.20735" lon="5.49817">
        <ele>37.15</ele>
        <time>2019-04-22T11:51:37Z</time>
      </trkpt>
      <trkpt lat="43.20736" lon="5.49815">
        <ele>39.07</ele>
        <time>2019-04-22T11:51:39Z</time>
      </trkpt>
      <trkpt lat="43.20738" lon="5.49812">
        <ele>40.99</ele>
        <time>2019-04-22T11:51:44Z</time>
      </trkpt>
      <trkpt lat="43.20742" lon="5.49802">
        <ele>42.44</ele>
        <time>2019-04-22T11:51:54Z</time>
      </trkpt>
      <trkpt lat="43.20743" lon="5.49801">
        <ele>40.51</ele>
        <time>2019-04-22T11:51:55Z</time>
      </trkpt>
      <trkpt lat="43.20781" lon="5.49782">
        <ele>40.99</ele>
        <time>2019-04-22T11:52:18Z</time>
      </trkpt>
      <trkpt lat="43.20782" lon="5.49781">
        <ele>41.47</ele>
        <time>2019-04-22T11:52:20Z</time>
      </trkpt>
      <trkpt lat="43.20811" lon="5.49774">
        <ele>42.44</ele>
        <time>2019-04-22T11:52:39Z</time>
      </trkpt>
      <trkpt lat="43.20817" lon="5.49769">
        <ele>42.92</ele>
        <time>2019-04-22T11:52:43Z</time>
      </trkpt>
      <trkpt lat="43.20825" lon="5.49747">
        <ele>42.92</ele>
        <time>2019-04-22T11:52:59Z</time>
      </trkpt>
      <trkpt lat="43.20836" lon="5.49737">
        <ele>43.88</ele>
        <time>2019-04-22T11:53:12Z</time>
      </trkpt>
      <trkpt lat="43.20844" lon="5.49732">
        <ele>43.88</ele>
        <time>2019-04-22T11:53:25Z</time>
      </trkpt>
      <trkpt lat="43.20855" lon="5.49724">
        <ele>42.44</ele>
        <time>2019-04-22T11:53:38Z</time>
      </trkpt>
      <trkpt lat="43.2086" lon="5.49723">
        <ele>38.59</ele>
        <time>2019-04-22T11:53:44Z</time>
      </trkpt>
      <trkpt lat="43.20862" lon="5.49723">
        <ele>43.88</ele>
        <time>2019-04-22T11:53:46Z</time>
      </trkpt>
      <trkpt lat="43.20873" lon="5.49714">
        <ele>45.32</ele>
        <time>2019-04-22T11:54:04Z</time>
      </trkpt>
      <trkpt lat="43.20881" lon="5.49708">
        <ele>48.2</ele>
        <time>2019-04-22T11:54:17Z</time>
      </trkpt>
      <trkpt lat="43.20903" lon="5.49705">
        <ele>49.65</ele>
        <time>2019-04-22T11:54:39Z</time>
      </trkpt>
      <trkpt lat="43.20911" lon="5.49703">
        <ele>50.61</ele>
        <time>2019-04-22T11:54:49Z</time>
      </trkpt>
      <trkpt lat="43.20924" lon="5.49698">
        <ele>52.05</ele>
        <time>2019-04-22T11:55:06Z</time>
      </trkpt>
      <trkpt lat="43.2094" lon="5.49692">
        <ele>52.53</ele>
        <time>2019-04-22T11:55:25Z</time>
      </trkpt>
      <trkpt lat="43.20958" lon="5.49688">
        <ele>53.49</ele>
        <time>2019-04-22T11:55:39Z</time>
      </trkpt>
      <trkpt lat="43.20974" lon="5.49692">
        <ele>54.93</ele>
        <time>2019-04-22T11:55:56Z</time>
      </trkpt>
      <trkpt lat="43.20987" lon="5.49686">
        <ele>55.89</ele>
        <time>2019-04-22T11:56:12Z</time>
      </trkpt>
      <trkpt lat="43.21002" lon="5.49678">
        <ele>57.34</ele>
        <time>2019-04-22T11:56:31Z</time>
      </trkpt>
      <trkpt lat="43.21015" lon="5.49667">
        <ele>59.26</ele>
        <time>2019-04-22T11:56:49Z</time>
      </trkpt>
      <trkpt lat="43.21029" lon="5.49664">
        <ele>60.7</ele>
        <time>2019-04-22T11:57:08Z</time>
      </trkpt>
      <trkpt lat="43.21038" lon="5.49676">
        <ele>58.78</ele>
        <time>2019-04-22T11:57:38Z</time>
      </trkpt>
      <trkpt lat="43.21058" lon="5.4967">
        <ele>60.7</ele>
        <time>2019-04-22T11:57:56Z</time>
      </trkpt>
      <trkpt lat="43.21064" lon="5.49677">
        <ele>61.66</ele>
        <time>2019-04-22T11:58:13Z</time>
      </trkpt>
      <trkpt lat="43.21067" lon="5.49682">
        <ele>61.18</ele>
        <time>2019-04-22T11:58:19Z</time>
      </trkpt>
      <trkpt lat="43.21079" lon="5.49691">
        <ele>63.1</ele>
        <time>2019-04-22T11:58:35Z</time>
      </trkpt>
      <trkpt lat="43.21095" lon="5.4971">
        <ele>63.1</ele>
        <time>2019-04-22T11:58:54Z</time>
      </trkpt>
      <trkpt lat="43.21107" lon="5.49719">
        <ele>64.07</ele>
        <time>2019-04-22T11:59:13Z</time>
      </trkpt>
      <trkpt lat="43.21127" lon="5.49711">
        <ele>65.03</ele>
        <time>2019-04-22T11:59:31Z</time>
      </trkpt>
      <trkpt lat="43.21142" lon="5.49705">
        <ele>66.95</ele>
        <time>2019-04-22T11:59:49Z</time>
      </trkpt>
      <trkpt lat="43.21144" lon="5.49706">
        <ele>69.83</ele>
        <time>2019-04-22T12:00:08Z</time>
      </trkpt>
      <trkpt lat="43.21152" lon="5.49712">
        <ele>68.39</ele>
        <time>2019-04-22T12:00:22Z</time>
      </trkpt>
      <trkpt lat="43.21163" lon="5.49728">
        <ele>71.27</ele>
        <time>2019-04-22T12:00:42Z</time>
      </trkpt>
      <trkpt lat="43.21177" lon="5.49745">
        <ele>74.16</ele>
        <time>2019-04-22T12:01:04Z</time>
      </trkpt>
      <trkpt lat="43.21169" lon="5.49764">
        <ele>75.6</ele>
        <time>2019-04-22T12:01:23Z</time>
      </trkpt>
      <trkpt lat="43.21156" lon="5.49778">
        <ele>77.04</ele>
        <time>2019-04-22T12:01:45Z</time>
      </trkpt>
      <trkpt lat="43.21147" lon="5.4979">
        <ele>78</ele>
        <time>2019-04-22T12:02:04Z</time>
      </trkpt>
      <trkpt lat="43.21147" lon="5.49806">
        <ele>78.97</ele>
        <time>2019-04-22T12:02:22Z</time>
      </trkpt>
      <trkpt lat="43.21147" lon="5.49828">
        <ele>79.93</ele>
        <time>2019-04-22T12:02:42Z</time>
      </trkpt>
      <trkpt lat="43.21151" lon="5.49842">
        <ele>80.41</ele>
        <time>2019-04-22T12:03:00Z</time>
      </trkpt>
      <trkpt lat="43.21151" lon="5.49844">
        <ele>81.85</ele>
        <time>2019-04-22T12:03:02Z</time>
      </trkpt>
      <trkpt lat="43.21156" lon="5.49852">
        <ele>81.85</ele>
        <time>2019-04-22T12:03:18Z</time>
      </trkpt>
      <trkpt lat="43.21164" lon="5.49846">
        <ele>83.29</ele>
        <time>2019-04-22T12:03:34Z</time>
      </trkpt>
      <trkpt lat="43.21172" lon="5.49852">
        <ele>84.25</ele>
        <time>2019-04-22T12:03:50Z</time>
      </trkpt>
      <trkpt lat="43.21182" lon="5.49862">
        <ele>86.18</ele>
        <time>2019-04-22T12:04:06Z</time>
      </trkpt>
      <trkpt lat="43.21192" lon="5.49878">
        <ele>86.66</ele>
        <time>2019-04-22T12:04:20Z</time>
      </trkpt>
      <trkpt lat="43.21195" lon="5.49902">
        <ele>87.14</ele>
        <time>2019-04-22T12:04:38Z</time>
      </trkpt>
      <trkpt lat="43.21205" lon="5.49917">
        <ele>87.62</ele>
        <time>2019-04-22T12:04:56Z</time>
      </trkpt>
      <trkpt lat="43.21213" lon="5.4993">
        <ele>88.1</ele>
        <time>2019-04-22T12:05:12Z</time>
      </trkpt>
      <trkpt lat="43.21217" lon="5.49942">
        <ele>88.58</ele>
        <time>2019-04-22T12:05:29Z</time>
      </trkpt>
      <trkpt lat="43.21219" lon="5.49952">
        <ele>88.58</ele>
        <time>2019-04-22T12:05:44Z</time>
      </trkpt>
      <trkpt lat="43.21222" lon="5.49959">
        <ele>89.54</ele>
        <time>2019-04-22T12:06:07Z</time>
      </trkpt>
      <trkpt lat="43.21215" lon="5.49953">
        <ele>89.54</ele>
        <time>2019-04-22T12:06:29Z</time>
      </trkpt>
      <trkpt lat="43.21221" lon="5.49967">
        <ele>89.54</ele>
        <time>2019-04-22T12:06:44Z</time>
      </trkpt>
      <trkpt lat="43.21225" lon="5.49978">
        <ele>89.06</ele>
        <time>2019-04-22T12:06:59Z</time>
      </trkpt>
      <trkpt lat="43.21233" lon="5.49987">
        <ele>90.98</ele>
        <time>2019-04-22T12:07:15Z</time>
      </trkpt>
      <trkpt lat="43.21243" lon="5.49994">
        <ele>91.94</ele>
        <time>2019-04-22T12:07:28Z</time>
      </trkpt>
      <trkpt lat="43.21255" lon="5.50004">
        <ele>92.9</ele>
        <time>2019-04-22T12:07:43Z</time>
      </trkpt>
      <trkpt lat="43.21269" lon="5.50005">
        <ele>93.87</ele>
        <time>2019-04-22T12:08:00Z</time>
      </trkpt>
      <trkpt lat="43.21272" lon="5.50021">
        <ele>94.35</ele>
        <time>2019-04-22T12:08:21Z</time>
      </trkpt>
      <trkpt lat="43.21277" lon="5.5002">
        <ele>94.83</ele>
        <time>2019-04-22T12:08:42Z</time>
      </trkpt>
      <trkpt lat="43.21291" lon="5.50022">
        <ele>97.71</ele>
        <time>2019-04-22T12:09:00Z</time>
      </trkpt>
      <trkpt lat="43.213" lon="5.50024">
        <ele>97.71</ele>
        <time>2019-04-22T12:09:16Z</time>
      </trkpt>
      <trkpt lat="43.21314" lon="5.50026">
        <ele>98.19</ele>
        <time>2019-04-22T12:09:32Z</time>
      </trkpt>
      <trkpt lat="43.21323" lon="5.50033">
        <ele>98.67</ele>
        <time>2019-04-22T12:09:52Z</time>
      </trkpt>
      <trkpt lat="43.21324" lon="5.50032">
        <ele>97.71</ele>
        <time>2019-04-22T12:09:56Z</time>
      </trkpt>
      <trkpt lat="43.21323" lon="5.50034">
        <ele>103.48</ele>
        <time>2019-04-22T12:38:24Z</time>
      </trkpt>
      <trkpt lat="43.21335" lon="5.50038">
        <ele>102.52</ele>
        <time>2019-04-22T12:38:26Z</time>
      </trkpt>
      <trkpt lat="43.21323" lon="5.50034">
        <ele>108.29</ele>
        <time>2019-04-22T13:03:47Z</time>
      </trkpt>
      <trkpt lat="43.21336" lon="5.50015">
        <ele>107.32</ele>
        <time>2019-04-22T13:04:21Z</time>
      </trkpt>
      <trkpt lat="43.21333" lon="5.50023">
        <ele>108.77</ele>
        <time>2019-04-22T13:04:54Z</time>
      </trkpt>
      <trkpt lat="43.21339" lon="5.50024">
        <ele>107.32</ele>
        <time>2019-04-22T13:05:19Z</time>
      </trkpt>
      <trkpt lat="43.21338" lon="5.50023">
        <ele>111.17</ele>
        <time>2019-04-22T13:05:35Z</time>
      </trkpt>
      <trkpt lat="43.21336" lon="5.50023">
        <ele>114.53</ele>
        <time>2019-04-22T13:05:38Z</time>
      </trkpt>
      <trkpt lat="43.21335" lon="5.50024">
        <ele>118.38</ele>
        <time>2019-04-22T13:05:42Z</time>
      </trkpt>
      <trkpt lat="43.21333" lon="5.50025">
        <ele>121.74</ele>
        <time>2019-04-22T13:05:47Z</time>
      </trkpt>
      <trkpt lat="43.21332" lon="5.50025">
        <ele>125.11</ele>
        <time>2019-04-22T13:05:54Z</time>
      </trkpt>
      <trkpt lat="43.21336" lon="5.50014">
        <ele>128.47</ele>
        <time>2019-04-22T13:06:06Z</time>
      </trkpt>
      <trkpt lat="43.21337" lon="5.50018">
        <ele>129.92</ele>
        <time>2019-04-22T13:06:12Z</time>
      </trkpt>
      <trkpt lat="43.21337" lon="5.50022">
        <ele>132.8</ele>
        <time>2019-04-22T13:06:32Z</time>
      </trkpt>
      <trkpt lat="43.21332" lon="5.5001">
        <ele>132.32</ele>
        <time>2019-04-22T13:06:54Z</time>
      </trkpt>
      <trkpt lat="43.21334" lon="5.50021">
        <ele>133.28</ele>
        <time>2019-04-22T13:07:17Z</time>
      </trkpt>
      <trkpt lat="43.21336" lon="5.50021">
        <ele>132.32</ele>
        <time>2019-04-22T13:07:39Z</time>
      </trkpt>
      <trkpt lat="43.21349" lon="5.50011">
        <ele>133.76</ele>
        <time>2019-04-22T13:07:57Z</time>
      </trkpt>
      <trkpt lat="43.21364" lon="5.50012">
        <ele>134.72</ele>
        <time>2019-04-22T13:08:14Z</time>
      </trkpt>
      <trkpt lat="43.21368" lon="5.5">
        <ele>135.2</ele>
        <time>2019-04-22T13:08:31Z</time>
      </trkpt>
      <trkpt lat="43.21373" lon="5.49986">
        <ele>136.64</ele>
        <time>2019-04-22T13:08:50Z</time>
      </trkpt>
      <trkpt lat="43.2138" lon="5.49984">
        <ele>137.13</ele>
        <time>2019-04-22T13:09:10Z</time>
      </trkpt>
      <trkpt lat="43.2139" lon="5.49988">
        <ele>138.09</ele>
        <time>2019-04-22T13:09:31Z</time>
      </trkpt>
      <trkpt lat="43.21399" lon="5.50002">
        <ele>138.57</ele>
        <time>2019-04-22T13:09:48Z</time>
      </trkpt>
      <trkpt lat="43.21402" lon="5.50013">
        <ele>138.09</ele>
        <time>2019-04-22T13:10:00Z</time>
      </trkpt>
      <trkpt lat="43.21406" lon="5.50032">
        <ele>138.57</ele>
        <time>2019-04-22T13:10:20Z</time>
      </trkpt>
      <trkpt lat="43.21403" lon="5.50053">
        <ele>139.53</ele>
        <time>2019-04-22T13:10:39Z</time>
      </trkpt>
      <trkpt lat="43.21401" lon="5.50067">
        <ele>139.53</ele>
        <time>2019-04-22T13:10:54Z</time>
      </trkpt>
      <trkpt lat="43.21391" lon="5.50086">
        <ele>140.01</ele>
        <time>2019-04-22T13:11:17Z</time>
      </trkpt>
      <trkpt lat="43.21384" lon="5.50101">
        <ele>140.97</ele>
        <time>2019-04-22T13:11:34Z</time>
      </trkpt>
      <trkpt lat="43.2139" lon="5.50121">
        <ele>142.41</ele>
        <time>2019-04-22T13:11:54Z</time>
      </trkpt>
      <trkpt lat="43.21396" lon="5.50135">
        <ele>142.89</ele>
        <time>2019-04-22T13:12:13Z</time>
      </trkpt>
      <trkpt lat="43.21404" lon="5.50147">
        <ele>143.37</ele>
        <time>2019-04-22T13:12:33Z</time>
      </trkpt>
      <trkpt lat="43.21414" lon="5.50161">
        <ele>143.37</ele>
        <time>2019-04-22T13:12:51Z</time>
      </trkpt>
      <trkpt lat="43.21423" lon="5.50173">
        <ele>144.34</ele>
        <time>2019-04-22T13:13:12Z</time>
      </trkpt>
      <trkpt lat="43.21442" lon="5.50171">
        <ele>145.3</ele>
        <time>2019-04-22T13:13:30Z</time>
      </trkpt>
      <trkpt lat="43.21455" lon="5.5016">
        <ele>146.26</ele>
        <time>2019-04-22T13:13:48Z</time>
      </trkpt>
      <trkpt lat="43.21466" lon="5.50147">
        <ele>146.26</ele>
        <time>2019-04-22T13:14:09Z</time>
      </trkpt>
      <trkpt lat="43.21473" lon="5.50136">
        <ele>146.74</ele>
        <time>2019-04-22T13:14:28Z</time>
      </trkpt>
      <trkpt lat="43.21489" lon="5.5014">
        <ele>149.62</ele>
        <time>2019-04-22T13:14:48Z</time>
      </trkpt>
      <trkpt lat="43.21496" lon="5.50154">
        <ele>150.58</ele>
        <time>2019-04-22T13:15:03Z</time>
      </trkpt>
      <trkpt lat="43.21503" lon="5.5017">
        <ele>150.58</ele>
        <time>2019-04-22T13:15:18Z</time>
      </trkpt>
      <trkpt lat="43.21507" lon="5.50189">
        <ele>150.58</ele>
        <time>2019-04-22T13:15:37Z</time>
      </trkpt>
      <trkpt lat="43.21518" lon="5.50199">
        <ele>150.1</ele>
        <time>2019-04-22T13:15:56Z</time>
      </trkpt>
      <trkpt lat="43.2153" lon="5.50186">
        <ele>150.58</ele>
        <time>2019-04-22T13:16:14Z</time>
      </trkpt>
      <trkpt lat="43.21543" lon="5.50175">
        <ele>152.03</ele>
        <time>2019-04-22T13:16:33Z</time>
      </trkpt>
      <trkpt lat="43.21544" lon="5.50173">
        <ele>152.99</ele>
        <time>2019-04-22T13:16:35Z</time>
      </trkpt>
      <trkpt lat="43.21557" lon="5.50176">
        <ele>153.95</ele>
        <time>2019-04-22T13:16:51Z</time>
      </trkpt>
      <trkpt lat="43.21572" lon="5.50181">
        <ele>154.43</ele>
        <time>2019-04-22T13:17:11Z</time>
      </trkpt>
      <trkpt lat="43.21585" lon="5.50184">
        <ele>154.91</ele>
        <time>2019-04-22T13:17:28Z</time>
      </trkpt>
      <trkpt lat="43.21597" lon="5.50196">
        <ele>155.39</ele>
        <time>2019-04-22T13:17:50Z</time>
      </trkpt>
      <trkpt lat="43.21602" lon="5.50214">
        <ele>155.87</ele>
        <time>2019-04-22T13:18:06Z</time>
      </trkpt>
      <trkpt lat="43.21599" lon="5.50233">
        <ele>156.83</ele>
        <time>2019-04-22T13:18:24Z</time>
      </trkpt>
      <trkpt lat="43.21597" lon="5.50253">
        <ele>158.27</ele>
        <time>2019-04-22T13:18:42Z</time>
      </trkpt>
      <trkpt lat="43.21598" lon="5.50271">
        <ele>159.24</ele>
        <time>2019-04-22T13:18:59Z</time>
      </trkpt>
      <trkpt lat="43.21593" lon="5.50287">
        <ele>160.2</ele>
        <time>2019-04-22T13:19:17Z</time>
      </trkpt>
      <trkpt lat="43.21583" lon="5.50302">
        <ele>160.2</ele>
        <time>2019-04-22T13:19:34Z</time>
      </trkpt>
      <trkpt lat="43.21578" lon="5.50313">
        <ele>163.08</ele>
        <time>2019-04-22T13:19:46Z</time>
      </trkpt>
      <trkpt lat="43.2158" lon="5.50329">
        <ele>161.64</ele>
        <time>2019-04-22T13:20:03Z</time>
      </trkpt>
      <trkpt lat="43.21581" lon="5.50338">
        <ele>162.6</ele>
        <time>2019-04-22T13:20:12Z</time>
      </trkpt>
      <trkpt lat="43.21583" lon="5.50341">
        <ele>161.16</ele>
        <time>2019-04-22T13:20:16Z</time>
      </trkpt>
      <trkpt lat="43.21584" lon="5.50346">
        <ele>161.16</ele>
        <time>2019-04-22T13:20:32Z</time>
      </trkpt>
      <trkpt lat="43.21586" lon="5.50348">
        <ele>160.2</ele>
        <time>2019-04-22T13:20:56Z</time>
      </trkpt>
      <trkpt lat="43.21587" lon="5.50352">
        <ele>160.68</ele>
        <time>2019-04-22T13:21:01Z</time>
      </trkpt>
      <trkpt lat="43.21594" lon="5.50371">
        <ele>162.6</ele>
        <time>2019-04-22T13:21:18Z</time>
      </trkpt>
      <trkpt lat="43.21599" lon="5.50383">
        <ele>165.96</ele>
        <time>2019-04-22T13:21:31Z</time>
      </trkpt>
      <trkpt lat="43.21606" lon="5.50387">
        <ele>165.48</ele>
        <time>2019-04-22T13:21:38Z</time>
      </trkpt>
      <trkpt lat="43.21619" lon="5.50397">
        <ele>163.08</ele>
        <time>2019-04-22T13:21:54Z</time>
      </trkpt>
      <trkpt lat="43.21619" lon="5.50397">
        <ele>163.08</ele>
        <time>2019-04-22T13:21:55Z</time>
      </trkpt>
      <trkpt lat="43.21627" lon="5.50393">
        <ele>164.52</ele>
        <time>2019-04-22T13:22:11Z</time>
      </trkpt>
      <trkpt lat="43.21634" lon="5.5039">
        <ele>164.04</ele>
        <time>2019-04-22T13:22:20Z</time>
      </trkpt>
      <trkpt lat="43.21651" lon="5.50386">
        <ele>165</ele>
        <time>2019-04-22T13:22:38Z</time>
      </trkpt>
      <trkpt lat="43.21667" lon="5.50393">
        <ele>165</ele>
        <time>2019-04-22T13:22:55Z</time>
      </trkpt>
      <trkpt lat="43.21668" lon="5.50396">
        <ele>166.45</ele>
        <time>2019-04-22T13:22:58Z</time>
      </trkpt>
      <trkpt lat="43.2167" lon="5.50422">
        <ele>166.45</ele>
        <time>2019-04-22T13:23:17Z</time>
      </trkpt>
      <trkpt lat="43.21674" lon="5.50436">
        <ele>166.45</ele>
        <time>2019-04-22T13:23:35Z</time>
      </trkpt>
      <trkpt lat="43.21682" lon="5.50445">
        <ele>167.41</ele>
        <time>2019-04-22T13:23:52Z</time>
      </trkpt>
      <trkpt lat="43.21698" lon="5.50443">
        <ele>167.89</ele>
        <time>2019-04-22T13:24:12Z</time>
      </trkpt>
      <trkpt lat="43.21709" lon="5.50453">
        <ele>168.85</ele>
        <time>2019-04-22T13:24:29Z</time>
      </trkpt>
      <trkpt lat="43.2172" lon="5.50468">
        <ele>171.25</ele>
        <time>2019-04-22T13:24:48Z</time>
      </trkpt>
      <trkpt lat="43.21729" lon="5.50471">
        <ele>169.81</ele>
        <time>2019-04-22T13:25:05Z</time>
      </trkpt>
      <trkpt lat="43.21736" lon="5.50472">
        <ele>171.73</ele>
        <time>2019-04-22T13:25:22Z</time>
      </trkpt>
      <trkpt lat="43.21749" lon="5.50493">
        <ele>172.21</ele>
        <time>2019-04-22T13:25:38Z</time>
      </trkpt>
      <trkpt lat="43.2175" lon="5.50494">
        <ele>172.21</ele>
        <time>2019-04-22T13:25:39Z</time>
      </trkpt>
      <trkpt lat="43.21757" lon="5.50509">
        <ele>174.62</ele>
        <time>2019-04-22T13:25:51Z</time>
      </trkpt>
      <trkpt lat="43.21766" lon="5.50523">
        <ele>174.14</ele>
        <time>2019-04-22T13:26:07Z</time>
      </trkpt>
      <trkpt lat="43.21771" lon="5.50535">
        <ele>175.58</ele>
        <time>2019-04-22T13:26:20Z</time>
      </trkpt>
      <trkpt lat="43.21782" lon="5.50547">
        <ele>176.54</ele>
        <time>2019-04-22T13:26:37Z</time>
      </trkpt>
      <trkpt lat="43.21789" lon="5.50558">
        <ele>175.58</ele>
        <time>2019-04-22T13:26:50Z</time>
      </trkpt>
      <trkpt lat="43.21798" lon="5.50576">
        <ele>177.5</ele>
        <time>2019-04-22T13:27:07Z</time>
      </trkpt>
      <trkpt lat="43.21798" lon="5.50581">
        <ele>176.06</ele>
        <time>2019-04-22T13:27:11Z</time>
      </trkpt>
      <trkpt lat="43.21799" lon="5.50589">
        <ele>179.42</ele>
        <time>2019-04-22T13:27:19Z</time>
      </trkpt>
      <trkpt lat="43.21799" lon="5.5059">
        <ele>179.42</ele>
        <time>2019-04-22T13:27:20Z</time>
      </trkpt>
      <trkpt lat="43.218" lon="5.50608">
        <ele>179.9</ele>
        <time>2019-04-22T13:27:40Z</time>
      </trkpt>
      <trkpt lat="43.21807" lon="5.50623">
        <ele>182.31</ele>
        <time>2019-04-22T13:27:58Z</time>
      </trkpt>
      <trkpt lat="43.21815" lon="5.50626">
        <ele>181.35</ele>
        <time>2019-04-22T13:28:14Z</time>
      </trkpt>
      <trkpt lat="43.21819" lon="5.50642">
        <ele>181.35</ele>
        <time>2019-04-22T13:28:29Z</time>
      </trkpt>
      <trkpt lat="43.21827" lon="5.50653">
        <ele>180.87</ele>
        <time>2019-04-22T13:28:47Z</time>
      </trkpt>
      <trkpt lat="43.21841" lon="5.50654">
        <ele>181.83</ele>
        <time>2019-04-22T13:29:05Z</time>
      </trkpt>
      <trkpt lat="43.21855" lon="5.50653">
        <ele>181.35</ele>
        <time>2019-04-22T13:29:23Z</time>
      </trkpt>
      <trkpt lat="43.21858" lon="5.50661">
        <ele>184.71</ele>
        <time>2019-04-22T13:29:31Z</time>
      </trkpt>
      <trkpt lat="43.2185" lon="5.5067">
        <ele>184.23</ele>
        <time>2019-04-22T13:29:49Z</time>
      </trkpt>
      <trkpt lat="43.21844" lon="5.50676">
        <ele>186.63</ele>
        <time>2019-04-22T13:30:01Z</time>
      </trkpt>
      <trkpt lat="43.21835" lon="5.50686">
        <ele>188.56</ele>
        <time>2019-04-22T13:30:18Z</time>
      </trkpt>
      <trkpt lat="43.2182" lon="5.50682">
        <ele>189.52</ele>
        <time>2019-04-22T13:30:35Z</time>
      </trkpt>
      <trkpt lat="43.21811" lon="5.50686">
        <ele>192.4</ele>
        <time>2019-04-22T13:30:56Z</time>
      </trkpt>
      <trkpt lat="43.21808" lon="5.50704">
        <ele>192.4</ele>
        <time>2019-04-22T13:31:12Z</time>
      </trkpt>
      <trkpt lat="43.21809" lon="5.50715">
        <ele>195.28</ele>
        <time>2019-04-22T13:31:25Z</time>
      </trkpt>
      <trkpt lat="43.21807" lon="5.50733">
        <ele>198.17</ele>
        <time>2019-04-22T13:31:45Z</time>
      </trkpt>
      <trkpt lat="43.21799" lon="5.50743">
        <ele>199.61</ele>
        <time>2019-04-22T13:32:01Z</time>
      </trkpt>
      <trkpt lat="43.2179" lon="5.50749">
        <ele>200.09</ele>
        <time>2019-04-22T13:32:18Z</time>
      </trkpt>
      <trkpt lat="43.21788" lon="5.5075">
        <ele>201.05</ele>
        <time>2019-04-22T13:32:20Z</time>
      </trkpt>
      <trkpt lat="43.2178" lon="5.50762">
        <ele>201.05</ele>
        <time>2019-04-22T13:32:35Z</time>
      </trkpt>
      <trkpt lat="43.21778" lon="5.50765">
        <ele>202.01</ele>
        <time>2019-04-22T13:32:39Z</time>
      </trkpt>
      <trkpt lat="43.21767" lon="5.50782">
        <ele>203.46</ele>
        <time>2019-04-22T13:32:59Z</time>
      </trkpt>
      <trkpt lat="43.21753" lon="5.50799">
        <ele>204.42</ele>
        <time>2019-04-22T13:33:17Z</time>
      </trkpt>
      <trkpt lat="43.21751" lon="5.50801">
        <ele>202.98</ele>
        <time>2019-04-22T13:33:20Z</time>
      </trkpt>
      <trkpt lat="43.21733" lon="5.50821">
        <ele>202.98</ele>
        <time>2019-04-22T13:33:42Z</time>
      </trkpt>
      <trkpt lat="43.21723" lon="5.5084">
        <ele>203.46</ele>
        <time>2019-04-22T13:33:57Z</time>
      </trkpt>
      <trkpt lat="43.2172" lon="5.50847">
        <ele>202.98</ele>
        <time>2019-04-22T13:34:02Z</time>
      </trkpt>
      <trkpt lat="43.21706" lon="5.50863">
        <ele>202.49</ele>
        <time>2019-04-22T13:34:20Z</time>
      </trkpt>
      <trkpt lat="43.217" lon="5.50882">
        <ele>201.53</ele>
        <time>2019-04-22T13:34:37Z</time>
      </trkpt>
      <trkpt lat="43.21708" lon="5.50898">
        <ele>202.98</ele>
        <time>2019-04-22T13:34:54Z</time>
      </trkpt>
      <trkpt lat="43.21713" lon="5.50904">
        <ele>202.01</ele>
        <time>2019-04-22T13:35:02Z</time>
      </trkpt>
      <trkpt lat="43.21724" lon="5.50915">
        <ele>202.98</ele>
        <time>2019-04-22T13:35:15Z</time>
      </trkpt>
      <trkpt lat="43.21737" lon="5.50937">
        <ele>203.94</ele>
        <time>2019-04-22T13:35:34Z</time>
      </trkpt>
      <trkpt lat="43.2174" lon="5.50951">
        <ele>203.94</ele>
        <time>2019-04-22T13:35:44Z</time>
      </trkpt>
      <trkpt lat="43.21732" lon="5.50975">
        <ele>202.01</ele>
        <time>2019-04-22T13:36:01Z</time>
      </trkpt>
      <trkpt lat="43.21731" lon="5.50981">
        <ele>201.05</ele>
        <time>2019-04-22T13:36:06Z</time>
      </trkpt>
      <trkpt lat="43.21723" lon="5.50993">
        <ele>201.05</ele>
        <time>2019-04-22T13:36:23Z</time>
      </trkpt>
      <trkpt lat="43.21722" lon="5.50989">
        <ele>200.57</ele>
        <time>2019-04-22T13:36:43Z</time>
      </trkpt>
      <trkpt lat="43.21721" lon="5.50989">
        <ele>201.53</ele>
        <time>2019-04-22T13:36:45Z</time>
      </trkpt>
      <trkpt lat="43.21718" lon="5.50993">
        <ele>200.09</ele>
        <time>2019-04-22T13:37:13Z</time>
      </trkpt>
      <trkpt lat="43.21716" lon="5.51005">
        <ele>199.13</ele>
        <time>2019-04-22T13:37:32Z</time>
      </trkpt>
      <trkpt lat="43.2171" lon="5.51012">
        <ele>197.21</ele>
        <time>2019-04-22T13:37:44Z</time>
      </trkpt>
      <trkpt lat="43.21702" lon="5.51018">
        <ele>195.77</ele>
        <time>2019-04-22T13:37:58Z</time>
      </trkpt>
      <trkpt lat="43.21698" lon="5.51024">
        <ele>194.32</ele>
        <time>2019-04-22T13:38:13Z</time>
      </trkpt>
      <trkpt lat="43.21696" lon="5.51037">
        <ele>194.32</ele>
        <time>2019-04-22T13:38:27Z</time>
      </trkpt>
      <trkpt lat="43.21699" lon="5.51056">
        <ele>193.36</ele>
        <time>2019-04-22T13:38:44Z</time>
      </trkpt>
      <trkpt lat="43.21701" lon="5.51064">
        <ele>192.4</ele>
        <time>2019-04-22T13:38:52Z</time>
      </trkpt>
      <trkpt lat="43.21705" lon="5.51092">
        <ele>190.96</ele>
        <time>2019-04-22T13:39:12Z</time>
      </trkpt>
      <trkpt lat="43.21704" lon="5.51097">
        <ele>190</ele>
        <time>2019-04-22T13:39:17Z</time>
      </trkpt>
      <trkpt lat="43.21693" lon="5.51119">
        <ele>188.08</ele>
        <time>2019-04-22T13:39:37Z</time>
      </trkpt>
      <trkpt lat="43.2168" lon="5.51139">
        <ele>185.67</ele>
        <time>2019-04-22T13:39:55Z</time>
      </trkpt>
      <trkpt lat="43.21669" lon="5.51157">
        <ele>183.75</ele>
        <time>2019-04-22T13:40:13Z</time>
      </trkpt>
      <trkpt lat="43.21658" lon="5.51175">
        <ele>181.35</ele>
        <time>2019-04-22T13:40:30Z</time>
      </trkpt>
      <trkpt lat="43.21653" lon="5.51193">
        <ele>179.9</ele>
        <time>2019-04-22T13:40:46Z</time>
      </trkpt>
      <trkpt lat="43.21654" lon="5.51195">
        <ele>180.38</ele>
        <time>2019-04-22T13:40:48Z</time>
      </trkpt>
      <trkpt lat="43.21654" lon="5.51211">
        <ele>178.94</ele>
        <time>2019-04-22T13:40:59Z</time>
      </trkpt>
      <trkpt lat="43.2166" lon="5.51226">
        <ele>177.02</ele>
        <time>2019-04-22T13:41:15Z</time>
      </trkpt>
      <trkpt lat="43.21663" lon="5.51246">
        <ele>175.58</ele>
        <time>2019-04-22T13:41:33Z</time>
      </trkpt>
      <trkpt lat="43.21663" lon="5.51273">
        <ele>174.14</ele>
        <time>2019-04-22T13:41:53Z</time>
      </trkpt>
      <trkpt lat="43.21661" lon="5.5129">
        <ele>173.17</ele>
        <time>2019-04-22T13:42:06Z</time>
      </trkpt>
      <trkpt lat="43.21661" lon="5.51295">
        <ele>173.17</ele>
        <time>2019-04-22T13:42:10Z</time>
      </trkpt>
      <trkpt lat="43.21663" lon="5.51311">
        <ele>170.29</ele>
        <time>2019-04-22T13:42:26Z</time>
      </trkpt>
      <trkpt lat="43.21662" lon="5.51333">
        <ele>168.37</ele>
        <time>2019-04-22T13:42:45Z</time>
      </trkpt>
      <trkpt lat="43.21658" lon="5.51341">
        <ele>169.81</ele>
        <time>2019-04-22T13:43:02Z</time>
      </trkpt>
      <trkpt lat="43.21655" lon="5.51362">
        <ele>166.45</ele>
        <time>2019-04-22T13:43:19Z</time>
      </trkpt>
      <trkpt lat="43.21652" lon="5.51378">
        <ele>164.52</ele>
        <time>2019-04-22T13:43:32Z</time>
      </trkpt>
      <trkpt lat="43.21651" lon="5.51381">
        <ele>165</ele>
        <time>2019-04-22T13:43:34Z</time>
      </trkpt>
      <trkpt lat="43.21649" lon="5.51404">
        <ele>164.52</ele>
        <time>2019-04-22T13:43:52Z</time>
      </trkpt>
      <trkpt lat="43.2165" lon="5.51417">
        <ele>164.52</ele>
        <time>2019-04-22T13:44:04Z</time>
      </trkpt>
      <trkpt lat="43.21647" lon="5.51417">
        <ele>165.48</ele>
        <time>2019-04-22T13:44:23Z</time>
      </trkpt>
      <trkpt lat="43.21645" lon="5.51417">
        <ele>162.6</ele>
        <time>2019-04-22T13:44:33Z</time>
      </trkpt>
      <trkpt lat="43.21644" lon="5.51416">
        <ele>161.64</ele>
        <time>2019-04-22T13:44:41Z</time>
      </trkpt>
      <trkpt lat="43.21644" lon="5.51416">
        <ele>165</ele>
        <time>2019-04-22T13:44:46Z</time>
      </trkpt>
      <trkpt lat="43.21644" lon="5.51416">
        <ele>162.12</ele>
        <time>2019-04-22T13:44:53Z</time>
      </trkpt>
      <trkpt lat="43.21644" lon="5.51416">
        <ele>162.12</ele>
        <time>2019-04-22T13:44:54Z</time>
      </trkpt>
      <trkpt lat="43.21644" lon="5.51416">
        <ele>165</ele>
        <time>2019-04-22T13:45:05Z</time>
      </trkpt>
      <trkpt lat="43.21645" lon="5.51416">
        <ele>163.56</ele>
        <time>2019-04-22T13:45:08Z</time>
      </trkpt>
      <trkpt lat="43.21647" lon="5.51419">
        <ele>166.93</ele>
        <time>2019-04-22T13:45:31Z</time>
      </trkpt>
      <trkpt lat="43.21649" lon="5.5142">
        <ele>163.56</ele>
        <time>2019-04-22T13:45:33Z</time>
      </trkpt>
      <trkpt lat="43.21651" lon="5.51421">
        <ele>163.08</ele>
        <time>2019-04-22T13:45:35Z</time>
      </trkpt>
      <trkpt lat="43.21656" lon="5.51427">
        <ele>162.6</ele>
        <time>2019-04-22T13:45:41Z</time>
      </trkpt>
      <trkpt lat="43.21658" lon="5.51436">
        <ele>163.08</ele>
        <time>2019-04-22T13:45:49Z</time>
      </trkpt>
      <trkpt lat="43.21664" lon="5.5146">
        <ele>165</ele>
        <time>2019-04-22T13:46:07Z</time>
      </trkpt>
      <trkpt lat="43.21656" lon="5.51476">
        <ele>165</ele>
        <time>2019-04-22T13:46:19Z</time>
      </trkpt>
      <trkpt lat="43.21652" lon="5.51478">
        <ele>163.56</ele>
        <time>2019-04-22T13:46:23Z</time>
      </trkpt>
      <trkpt lat="43.2165" lon="5.51479">
        <ele>162.6</ele>
        <time>2019-04-22T13:46:25Z</time>
      </trkpt>
      <trkpt lat="43.21639" lon="5.51494">
        <ele>160.68</ele>
        <time>2019-04-22T13:46:42Z</time>
      </trkpt>
      <trkpt lat="43.21637" lon="5.515">
        <ele>157.31</ele>
        <time>2019-04-22T13:46:47Z</time>
      </trkpt>
      <trkpt lat="43.21636" lon="5.51502">
        <ele>157.79</ele>
        <time>2019-04-22T13:46:49Z</time>
      </trkpt>
      <trkpt lat="43.21636" lon="5.51514">
        <ele>159.72</ele>
        <time>2019-04-22T13:46:59Z</time>
      </trkpt>
      <trkpt lat="43.2164" lon="5.51538">
        <ele>156.35</ele>
        <time>2019-04-22T13:47:18Z</time>
      </trkpt>
      <trkpt lat="43.21645" lon="5.51561">
        <ele>157.31</ele>
        <time>2019-04-22T13:47:37Z</time>
      </trkpt>
      <trkpt lat="43.21645" lon="5.51587">
        <ele>156.83</ele>
        <time>2019-04-22T13:47:55Z</time>
      </trkpt>
      <trkpt lat="43.21643" lon="5.51591">
        <ele>156.35</ele>
        <time>2019-04-22T13:47:58Z</time>
      </trkpt>
      <trkpt lat="43.21633" lon="5.51596">
        <ele>155.87</ele>
        <time>2019-04-22T13:48:17Z</time>
      </trkpt>
      <trkpt lat="43.21627" lon="5.51602">
        <ele>154.43</ele>
        <time>2019-04-22T13:48:25Z</time>
      </trkpt>
      <trkpt lat="43.21624" lon="5.51606">
        <ele>156.35</ele>
        <time>2019-04-22T13:48:31Z</time>
      </trkpt>
      <trkpt lat="43.21618" lon="5.51611">
        <ele>152.99</ele>
        <time>2019-04-22T13:48:39Z</time>
      </trkpt>
      <trkpt lat="43.21617" lon="5.51612">
        <ele>155.87</ele>
        <time>2019-04-22T13:48:42Z</time>
      </trkpt>
      <trkpt lat="43.21616" lon="5.51613">
        <ele>153.47</ele>
        <time>2019-04-22T13:48:45Z</time>
      </trkpt>
      <trkpt lat="43.21611" lon="5.51616">
        <ele>153.47</ele>
        <time>2019-04-22T13:48:52Z</time>
      </trkpt>
      <trkpt lat="43.21596" lon="5.51625">
        <ele>150.58</ele>
        <time>2019-04-22T13:49:10Z</time>
      </trkpt>
      <trkpt lat="43.21587" lon="5.51634">
        <ele>150.1</ele>
        <time>2019-04-22T13:49:22Z</time>
      </trkpt>
      <trkpt lat="43.21576" lon="5.51656">
        <ele>149.14</ele>
        <time>2019-04-22T13:49:41Z</time>
      </trkpt>
      <trkpt lat="43.21574" lon="5.51659">
        <ele>147.7</ele>
        <time>2019-04-22T13:49:44Z</time>
      </trkpt>
      <trkpt lat="43.21564" lon="5.51683">
        <ele>146.26</ele>
        <time>2019-04-22T13:50:02Z</time>
      </trkpt>
      <trkpt lat="43.21559" lon="5.51706">
        <ele>144.34</ele>
        <time>2019-04-22T13:50:20Z</time>
      </trkpt>
      <trkpt lat="43.21556" lon="5.51718">
        <ele>143.85</ele>
        <time>2019-04-22T13:50:34Z</time>
      </trkpt>
      <trkpt lat="43.21556" lon="5.5174">
        <ele>144.82</ele>
        <time>2019-04-22T13:50:52Z</time>
      </trkpt>
      <trkpt lat="43.2156" lon="5.51753">
        <ele>144.34</ele>
        <time>2019-04-22T13:51:01Z</time>
      </trkpt>
      <trkpt lat="43.21565" lon="5.51765">
        <ele>143.37</ele>
        <time>2019-04-22T13:51:11Z</time>
      </trkpt>
      <trkpt lat="43.21566" lon="5.51768">
        <ele>143.37</ele>
        <time>2019-04-22T13:51:13Z</time>
      </trkpt>
      <trkpt lat="43.21572" lon="5.51785">
        <ele>142.41</ele>
        <time>2019-04-22T13:51:25Z</time>
      </trkpt>
      <trkpt lat="43.21571" lon="5.51791">
        <ele>140.97</ele>
        <time>2019-04-22T13:51:29Z</time>
      </trkpt>
      <trkpt lat="43.21564" lon="5.51797">
        <ele>141.45</ele>
        <time>2019-04-22T13:51:36Z</time>
      </trkpt>
      <trkpt lat="43.21544" lon="5.51796">
        <ele>140.97</ele>
        <time>2019-04-22T13:51:53Z</time>
      </trkpt>
      <trkpt lat="43.21529" lon="5.51793">
        <ele>138.09</ele>
        <time>2019-04-22T13:52:09Z</time>
      </trkpt>
      <trkpt lat="43.21524" lon="5.51792">
        <ele>137.61</ele>
        <time>2019-04-22T13:52:14Z</time>
      </trkpt>
      <trkpt lat="43.21505" lon="5.51786">
        <ele>138.09</ele>
        <time>2019-04-22T13:52:32Z</time>
      </trkpt>
      <trkpt lat="43.21499" lon="5.51784">
        <ele>140.49</ele>
        <time>2019-04-22T13:52:37Z</time>
      </trkpt>
      <trkpt lat="43.2148" lon="5.51778">
        <ele>140.49</ele>
        <time>2019-04-22T13:52:55Z</time>
      </trkpt>
      <trkpt lat="43.21475" lon="5.51777">
        <ele>138.57</ele>
        <time>2019-04-22T13:52:59Z</time>
      </trkpt>
      <trkpt lat="43.21471" lon="5.51776">
        <ele>137.13</ele>
        <time>2019-04-22T13:53:06Z</time>
      </trkpt>
      <trkpt lat="43.21449" lon="5.5177">
        <ele>136.64</ele>
        <time>2019-04-22T13:53:25Z</time>
      </trkpt>
      <trkpt lat="43.21435" lon="5.51765">
        <ele>135.2</ele>
        <time>2019-04-22T13:53:37Z</time>
      </trkpt>
      <trkpt lat="43.21414" lon="5.51759">
        <ele>134.24</ele>
        <time>2019-04-22T13:53:56Z</time>
      </trkpt>
      <trkpt lat="43.21395" lon="5.51757">
        <ele>133.76</ele>
        <time>2019-04-22T13:54:14Z</time>
      </trkpt>
      <trkpt lat="43.21387" lon="5.51762">
        <ele>130.88</ele>
        <time>2019-04-22T13:54:23Z</time>
      </trkpt>
      <trkpt lat="43.21382" lon="5.51769">
        <ele>134.72</ele>
        <time>2019-04-22T13:54:29Z</time>
      </trkpt>
      <trkpt lat="43.2138" lon="5.51772">
        <ele>132.32</ele>
        <time>2019-04-22T13:54:32Z</time>
      </trkpt>
      <trkpt lat="43.21375" lon="5.5178">
        <ele>131.36</ele>
        <time>2019-04-22T13:54:45Z</time>
      </trkpt>
      <trkpt lat="43.21373" lon="5.51781">
        <ele>130.4</ele>
        <time>2019-04-22T13:54:47Z</time>
      </trkpt>
      <trkpt lat="43.21368" lon="5.51786">
        <ele>129.92</ele>
        <time>2019-04-22T13:54:54Z</time>
      </trkpt>
      <trkpt lat="43.21366" lon="5.51789">
        <ele>126.07</ele>
        <time>2019-04-22T13:54:57Z</time>
      </trkpt>
      <trkpt lat="43.21363" lon="5.51792">
        <ele>130.4</ele>
        <time>2019-04-22T13:55:01Z</time>
      </trkpt>
      <trkpt lat="43.21362" lon="5.51793">
        <ele>129.92</ele>
        <time>2019-04-22T13:55:02Z</time>
      </trkpt>
      <trkpt lat="43.21361" lon="5.51795">
        <ele>127.99</ele>
        <time>2019-04-22T13:55:04Z</time>
      </trkpt>
      <trkpt lat="43.21358" lon="5.51798">
        <ele>126.55</ele>
        <time>2019-04-22T13:55:10Z</time>
      </trkpt>
      <trkpt lat="43.21359" lon="5.51798">
        <ele>129.92</ele>
        <time>2019-04-22T13:55:14Z</time>
      </trkpt>
      <trkpt lat="43.21359" lon="5.51798">
        <ele>129.92</ele>
        <time>2019-04-22T13:55:15Z</time>
      </trkpt>
      <trkpt lat="43.21359" lon="5.51801">
        <ele>128.95</ele>
        <time>2019-04-22T13:55:35Z</time>
      </trkpt>
      <trkpt lat="43.21358" lon="5.518">
        <ele>128.95</ele>
        <time>2019-04-22T13:55:44Z</time>
      </trkpt>
      <trkpt lat="43.21359" lon="5.51802">
        <ele>128.47</ele>
        <time>2019-04-22T13:56:10Z</time>
      </trkpt>
      <trkpt lat="43.21358" lon="5.518">
        <ele>128.95</ele>
        <time>2019-04-22T13:56:30Z</time>
      </trkpt>
      <trkpt lat="43.21357" lon="5.51798">
        <ele>130.4</ele>
        <time>2019-04-22T13:56:54Z</time>
      </trkpt>
      <trkpt lat="43.21356" lon="5.51802">
        <ele>129.92</ele>
        <time>2019-04-22T13:57:05Z</time>
      </trkpt>
      <trkpt lat="43.21354" lon="5.51808">
        <ele>125.59</ele>
        <time>2019-04-22T13:57:10Z</time>
      </trkpt>
      <trkpt lat="43.21354" lon="5.51809">
        <ele>127.03</ele>
        <time>2019-04-22T13:57:11Z</time>
      </trkpt>
      <trkpt lat="43.21354" lon="5.51818">
        <ele>126.07</ele>
        <time>2019-04-22T13:57:19Z</time>
      </trkpt>
      <trkpt lat="43.21354" lon="5.5182">
        <ele>129.92</ele>
        <time>2019-04-22T13:57:21Z</time>
      </trkpt>
      <trkpt lat="43.21355" lon="5.51826">
        <ele>127.99</ele>
        <time>2019-04-22T13:57:27Z</time>
      </trkpt>
      <trkpt lat="43.21355" lon="5.5183">
        <ele>125.59</ele>
        <time>2019-04-22T13:57:30Z</time>
      </trkpt>
      <trkpt lat="43.21355" lon="5.51831">
        <ele>128.95</ele>
        <time>2019-04-22T13:57:32Z</time>
      </trkpt>
      <trkpt lat="43.21355" lon="5.51835">
        <ele>127.03</ele>
        <time>2019-04-22T13:57:35Z</time>
      </trkpt>
      <trkpt lat="43.21353" lon="5.51842">
        <ele>126.55</ele>
        <time>2019-04-22T13:57:42Z</time>
      </trkpt>
      <trkpt lat="43.21353" lon="5.51845">
        <ele>124.63</ele>
        <time>2019-04-22T13:57:45Z</time>
      </trkpt>
      <trkpt lat="43.21349" lon="5.51844">
        <ele>125.11</ele>
        <time>2019-04-22T13:57:57Z</time>
      </trkpt>
      <trkpt lat="43.21349" lon="5.51847">
        <ele>126.07</ele>
        <time>2019-04-22T13:57:59Z</time>
      </trkpt>
      <trkpt lat="43.21349" lon="5.51865">
        <ele>127.51</ele>
        <time>2019-04-22T13:58:14Z</time>
      </trkpt>
      <trkpt lat="43.2135" lon="5.51871">
        <ele>123.19</ele>
        <time>2019-04-22T13:58:19Z</time>
      </trkpt>
      <trkpt lat="43.2135" lon="5.51873">
        <ele>123.19</ele>
        <time>2019-04-22T13:58:20Z</time>
      </trkpt>
      <trkpt lat="43.2135" lon="5.51882">
        <ele>123.67</ele>
        <time>2019-04-22T13:58:27Z</time>
      </trkpt>
      <trkpt lat="43.21344" lon="5.51885">
        <ele>124.63</ele>
        <time>2019-04-22T13:58:42Z</time>
      </trkpt>
      <trkpt lat="43.21346" lon="5.51888">
        <ele>123.67</ele>
        <time>2019-04-22T13:59:07Z</time>
      </trkpt>
      <trkpt lat="43.21347" lon="5.5189">
        <ele>123.19</ele>
        <time>2019-04-22T13:59:37Z</time>
      </trkpt>
      <trkpt lat="43.21347" lon="5.5189">
        <ele>124.63</ele>
        <time>2019-04-22T13:59:39Z</time>
      </trkpt>
      <trkpt lat="43.21347" lon="5.51892">
        <ele>120.78</ele>
        <time>2019-04-22T13:59:57Z</time>
      </trkpt>
      <trkpt lat="43.21347" lon="5.51892">
        <ele>124.15</ele>
        <time>2019-04-22T13:59:59Z</time>
      </trkpt>
      <trkpt lat="43.21347" lon="5.51892">
        <ele>123.67</ele>
        <time>2019-04-22T14:00:00Z</time>
      </trkpt>
      <trkpt lat="43.21347" lon="5.51892">
        <ele>120.3</ele>
        <time>2019-04-22T14:00:11Z</time>
      </trkpt>
      <trkpt lat="43.21347" lon="5.51892">
        <ele>123.19</ele>
        <time>2019-04-22T14:00:13Z</time>
      </trkpt>
      <trkpt lat="43.21348" lon="5.51887">
        <ele>124.15</ele>
        <time>2019-04-22T14:00:37Z</time>
      </trkpt>
      <trkpt lat="43.21346" lon="5.51887">
        <ele>124.15</ele>
        <time>2019-04-22T14:01:09Z</time>
      </trkpt>
      <trkpt lat="43.21346" lon="5.51901">
        <ele>124.15</ele>
        <time>2019-04-22T14:01:24Z</time>
      </trkpt>
      <trkpt lat="43.21344" lon="5.519">
        <ele>122.71</ele>
        <time>2019-04-22T14:01:37Z</time>
      </trkpt>
      <trkpt lat="43.21343" lon="5.51905">
        <ele>122.71</ele>
        <time>2019-04-22T14:01:41Z</time>
      </trkpt>
      <trkpt lat="43.21342" lon="5.51909">
        <ele>122.22</ele>
        <time>2019-04-22T14:01:44Z</time>
      </trkpt>
      <trkpt lat="43.21341" lon="5.51914">
        <ele>121.74</ele>
        <time>2019-04-22T14:01:47Z</time>
      </trkpt>
      <trkpt lat="43.21339" lon="5.51922">
        <ele>120.78</ele>
        <time>2019-04-22T14:01:53Z</time>
      </trkpt>
      <trkpt lat="43.21338" lon="5.51936">
        <ele>117.9</ele>
        <time>2019-04-22T14:02:08Z</time>
      </trkpt>
      <trkpt lat="43.21338" lon="5.51937">
        <ele>117.9</ele>
        <time>2019-04-22T14:02:09Z</time>
      </trkpt>
      <trkpt lat="43.21336" lon="5.51942">
        <ele>121.26</ele>
        <time>2019-04-22T14:02:13Z</time>
      </trkpt>
      <trkpt lat="43.21336" lon="5.51943">
        <ele>120.78</ele>
        <time>2019-04-22T14:02:14Z</time>
      </trkpt>
      <trkpt lat="43.21334" lon="5.51948">
        <ele>118.38</ele>
        <time>2019-04-22T14:02:17Z</time>
      </trkpt>
      <trkpt lat="43.21331" lon="5.51973">
        <ele>117.42</ele>
        <time>2019-04-22T14:02:35Z</time>
      </trkpt>
      <trkpt lat="43.21335" lon="5.51989">
        <ele>114.53</ele>
        <time>2019-04-22T14:02:46Z</time>
      </trkpt>
      <trkpt lat="43.21337" lon="5.52008">
        <ele>114.05</ele>
        <time>2019-04-22T14:02:58Z</time>
      </trkpt>
      <trkpt lat="43.21338" lon="5.52011">
        <ele>115.5</ele>
        <time>2019-04-22T14:03:01Z</time>
      </trkpt>
      <trkpt lat="43.21342" lon="5.52019">
        <ele>114.05</ele>
        <time>2019-04-22T14:03:08Z</time>
      </trkpt>
      <trkpt lat="43.21341" lon="5.52033">
        <ele>110.21</ele>
        <time>2019-04-22T14:03:17Z</time>
      </trkpt>
      <trkpt lat="43.21341" lon="5.52034">
        <ele>110.69</ele>
        <time>2019-04-22T14:03:18Z</time>
      </trkpt>
      <trkpt lat="43.21341" lon="5.52037">
        <ele>112.61</ele>
        <time>2019-04-22T14:03:20Z</time>
      </trkpt>
      <trkpt lat="43.21338" lon="5.52047">
        <ele>109.25</ele>
        <time>2019-04-22T14:03:27Z</time>
      </trkpt>
      <trkpt lat="43.21335" lon="5.52062">
        <ele>110.69</ele>
        <time>2019-04-22T14:03:37Z</time>
      </trkpt>
      <trkpt lat="43.21335" lon="5.52069">
        <ele>109.25</ele>
        <time>2019-04-22T14:03:42Z</time>
      </trkpt>
      <trkpt lat="43.21334" lon="5.52083">
        <ele>107.81</ele>
        <time>2019-04-22T14:03:51Z</time>
      </trkpt>
      <trkpt lat="43.21336" lon="5.52106">
        <ele>106.36</ele>
        <time>2019-04-22T14:04:11Z</time>
      </trkpt>
      <trkpt lat="43.21337" lon="5.52111">
        <ele>104.44</ele>
        <time>2019-04-22T14:04:16Z</time>
      </trkpt>
      <trkpt lat="43.21338" lon="5.52114">
        <ele>104.44</ele>
        <time>2019-04-22T14:04:19Z</time>
      </trkpt>
      <trkpt lat="43.21338" lon="5.52131">
        <ele>102.52</ele>
        <time>2019-04-22T14:04:34Z</time>
      </trkpt>
      <trkpt lat="43.21338" lon="5.52133">
        <ele>101.56</ele>
        <time>2019-04-22T14:04:36Z</time>
      </trkpt>
      <trkpt lat="43.21338" lon="5.52135">
        <ele>101.56</ele>
        <time>2019-04-22T14:04:38Z</time>
      </trkpt>
      <trkpt lat="43.21335" lon="5.52153">
        <ele>100.11</ele>
        <time>2019-04-22T14:04:56Z</time>
      </trkpt>
      <trkpt lat="43.21336" lon="5.52152">
        <ele>99.15</ele>
        <time>2019-04-22T14:05:10Z</time>
      </trkpt>
      <trkpt lat="43.21337" lon="5.5216">
        <ele>99.63</ele>
        <time>2019-04-22T14:05:17Z</time>
      </trkpt>
      <trkpt lat="43.21338" lon="5.52165">
        <ele>97.23</ele>
        <time>2019-04-22T14:05:22Z</time>
      </trkpt>
      <trkpt lat="43.2134" lon="5.52169">
        <ele>96.27</ele>
        <time>2019-04-22T14:05:27Z</time>
      </trkpt>
      <trkpt lat="43.21335" lon="5.52174">
        <ele>99.15</ele>
        <time>2019-04-22T14:05:43Z</time>
      </trkpt>
      <trkpt lat="43.21334" lon="5.52175">
        <ele>97.23</ele>
        <time>2019-04-22T14:06:05Z</time>
      </trkpt>
      <trkpt lat="43.21334" lon="5.52175">
        <ele>96.27</ele>
        <time>2019-04-22T14:06:07Z</time>
      </trkpt>
      <trkpt lat="43.21333" lon="5.52173">
        <ele>97.23</ele>
        <time>2019-04-22T14:06:27Z</time>
      </trkpt>
      <trkpt lat="43.21333" lon="5.52173">
        <ele>101.08</ele>
        <time>2019-04-22T14:06:30Z</time>
      </trkpt>
      <trkpt lat="43.21333" lon="5.52172">
        <ele>100.11</ele>
        <time>2019-04-22T14:06:31Z</time>
      </trkpt>
      <trkpt lat="43.21334" lon="5.52173">
        <ele>100.11</ele>
        <time>2019-04-22T14:06:39Z</time>
      </trkpt>
      <trkpt lat="43.21334" lon="5.52172">
        <ele>96.75</ele>
        <time>2019-04-22T14:06:56Z</time>
      </trkpt>
      <trkpt lat="43.21335" lon="5.52175">
        <ele>96.75</ele>
        <time>2019-04-22T14:07:13Z</time>
      </trkpt>
      <trkpt lat="43.21333" lon="5.52175">
        <ele>94.83</ele>
        <time>2019-04-22T14:07:19Z</time>
      </trkpt>
      <trkpt lat="43.21334" lon="5.52175">
        <ele>91.46</ele>
        <time>2019-04-22T14:07:32Z</time>
      </trkpt>
      <trkpt lat="43.21336" lon="5.52175">
        <ele>94.83</ele>
        <time>2019-04-22T14:07:34Z</time>
      </trkpt>
      <trkpt lat="43.21334" lon="5.52176">
        <ele>92.9</ele>
        <time>2019-04-22T14:07:47Z</time>
      </trkpt>
      <trkpt lat="43.21334" lon="5.52176">
        <ele>95.79</ele>
        <time>2019-04-22T14:07:52Z</time>
      </trkpt>
      <trkpt lat="43.21334" lon="5.52176">
        <ele>95.79</ele>
        <time>2019-04-22T14:07:53Z</time>
      </trkpt>
      <trkpt lat="43.21335" lon="5.52176">
        <ele>97.71</ele>
        <time>2019-04-22T14:08:00Z</time>
      </trkpt>
      <trkpt lat="43.21337" lon="5.52176">
        <ele>97.23</ele>
        <time>2019-04-22T14:08:10Z</time>
      </trkpt>
      <trkpt lat="43.21336" lon="5.52184">
        <ele>96.27</ele>
        <time>2019-04-22T14:08:14Z</time>
      </trkpt>
      <trkpt lat="43.21339" lon="5.52191">
        <ele>96.27</ele>
        <time>2019-04-22T14:08:19Z</time>
      </trkpt>
      <trkpt lat="43.21342" lon="5.52192">
        <ele>93.87</ele>
        <time>2019-04-22T14:08:21Z</time>
      </trkpt>
      <trkpt lat="43.21344" lon="5.52194">
        <ele>93.39</ele>
        <time>2019-04-22T14:08:23Z</time>
      </trkpt>
      <trkpt lat="43.21345" lon="5.52195">
        <ele>89.54</ele>
        <time>2019-04-22T14:08:25Z</time>
      </trkpt>
      <trkpt lat="43.2135" lon="5.52199">
        <ele>85.69</ele>
        <time>2019-04-22T14:08:32Z</time>
      </trkpt>
      <trkpt lat="43.21351" lon="5.522">
        <ele>86.18</ele>
        <time>2019-04-22T14:08:33Z</time>
      </trkpt>
      <trkpt lat="43.21352" lon="5.52203">
        <ele>84.25</ele>
        <time>2019-04-22T14:08:35Z</time>
      </trkpt>
      <trkpt lat="43.21355" lon="5.52207">
        <ele>85.69</ele>
        <time>2019-04-22T14:08:38Z</time>
      </trkpt>
      <trkpt lat="43.2136" lon="5.52213">
        <ele>84.25</ele>
        <time>2019-04-22T14:08:45Z</time>
      </trkpt>
      <trkpt lat="43.21363" lon="5.52218">
        <ele>80.89</ele>
        <time>2019-04-22T14:08:48Z</time>
      </trkpt>
      <trkpt lat="43.21365" lon="5.5222">
        <ele>82.33</ele>
        <time>2019-04-22T14:08:51Z</time>
      </trkpt>
      <trkpt lat="43.21369" lon="5.52223">
        <ele>83.29</ele>
        <time>2019-04-22T14:08:56Z</time>
      </trkpt>
      <trkpt lat="43.21372" lon="5.52226">
        <ele>81.37</ele>
        <time>2019-04-22T14:08:59Z</time>
      </trkpt>
      <trkpt lat="43.21373" lon="5.52229">
        <ele>80.41</ele>
        <time>2019-04-22T14:09:01Z</time>
      </trkpt>
      <trkpt lat="43.21376" lon="5.52235">
        <ele>78.48</ele>
        <time>2019-04-22T14:09:06Z</time>
      </trkpt>
      <trkpt lat="43.21378" lon="5.52241">
        <ele>78.48</ele>
        <time>2019-04-22T14:09:09Z</time>
      </trkpt>
      <trkpt lat="43.21382" lon="5.52252">
        <ele>81.37</ele>
        <time>2019-04-22T14:09:18Z</time>
      </trkpt>
      <trkpt lat="43.21382" lon="5.52252">
        <ele>80.41</ele>
        <time>2019-04-22T14:09:22Z</time>
      </trkpt>
      <trkpt lat="43.21383" lon="5.52252">
        <ele>80.41</ele>
        <time>2019-04-22T14:09:27Z</time>
      </trkpt>
      <trkpt lat="43.21382" lon="5.52253">
        <ele>79.93</ele>
        <time>2019-04-22T14:09:32Z</time>
      </trkpt>
      <trkpt lat="43.21381" lon="5.52254">
        <ele>87.14</ele>
        <time>2019-04-22T14:09:37Z</time>
      </trkpt>
      <trkpt lat="43.2138" lon="5.52255">
        <ele>85.69</ele>
        <time>2019-04-22T14:09:38Z</time>
      </trkpt>
      <trkpt lat="43.21381" lon="5.52255">
        <ele>79.93</ele>
        <time>2019-04-22T14:09:43Z</time>
      </trkpt>
      <trkpt lat="43.21381" lon="5.52255">
        <ele>78.48</ele>
        <time>2019-04-22T14:09:45Z</time>
      </trkpt>
      <trkpt lat="43.21383" lon="5.52254">
        <ele>79.45</ele>
        <time>2019-04-22T14:10:00Z</time>
      </trkpt>
      <trkpt lat="43.21384" lon="5.52256">
        <ele>83.29</ele>
        <time>2019-04-22T14:10:03Z</time>
      </trkpt>
      <trkpt lat="43.21384" lon="5.52257">
        <ele>78.48</ele>
        <time>2019-04-22T14:10:04Z</time>
      </trkpt>
      <trkpt lat="43.21381" lon="5.52257">
        <ele>82.33</ele>
        <time>2019-04-22T14:10:11Z</time>
      </trkpt>
      <trkpt lat="43.21379" lon="5.52254">
        <ele>85.21</ele>
        <time>2019-04-22T14:10:19Z</time>
      </trkpt>
      <trkpt lat="43.2138" lon="5.52253">
        <ele>88.1</ele>
        <time>2019-04-22T14:10:30Z</time>
      </trkpt>
      <trkpt lat="43.2138" lon="5.52253">
        <ele>88.1</ele>
        <time>2019-04-22T14:10:31Z</time>
      </trkpt>
      <trkpt lat="43.21378" lon="5.52251">
        <ele>87.62</ele>
        <time>2019-04-22T14:10:59Z</time>
      </trkpt>
      <trkpt lat="43.21379" lon="5.52251">
        <ele>85.69</ele>
        <time>2019-04-22T14:11:03Z</time>
      </trkpt>
      <trkpt lat="43.2138" lon="5.52251">
        <ele>86.66</ele>
        <time>2019-04-22T14:11:08Z</time>
      </trkpt>
      <trkpt lat="43.2138" lon="5.52252">
        <ele>90.5</ele>
        <time>2019-04-22T14:11:27Z</time>
      </trkpt>
      <trkpt lat="43.2138" lon="5.52252">
        <ele>86.66</ele>
        <time>2019-04-22T14:11:29Z</time>
      </trkpt>
      <trkpt lat="43.2138" lon="5.52252">
        <ele>86.18</ele>
        <time>2019-04-22T14:11:30Z</time>
      </trkpt>
      <trkpt lat="43.2138" lon="5.52253">
        <ele>84.73</ele>
        <time>2019-04-22T14:11:33Z</time>
      </trkpt>
      <trkpt lat="43.21379" lon="5.52254">
        <ele>84.73</ele>
        <time>2019-04-22T14:11:42Z</time>
      </trkpt>
      <trkpt lat="43.2138" lon="5.52253">
        <ele>87.62</ele>
        <time>2019-04-22T14:11:54Z</time>
      </trkpt>
      <trkpt lat="43.2138" lon="5.52252">
        <ele>89.06</ele>
        <time>2019-04-22T14:11:57Z</time>
      </trkpt>
      <trkpt lat="43.21381" lon="5.52252">
        <ele>88.1</ele>
        <time>2019-04-22T14:12:03Z</time>
      </trkpt>
      <trkpt lat="43.21381" lon="5.52253">
        <ele>84.73</ele>
        <time>2019-04-22T14:12:16Z</time>
      </trkpt>
      <trkpt lat="43.2138" lon="5.52253">
        <ele>90.02</ele>
        <time>2019-04-22T14:12:19Z</time>
      </trkpt>
      <trkpt lat="43.2138" lon="5.52253">
        <ele>86.18</ele>
        <time>2019-04-22T14:12:20Z</time>
      </trkpt>
      <trkpt lat="43.21377" lon="5.52255">
        <ele>87.62</ele>
        <time>2019-04-22T14:12:37Z</time>
      </trkpt>
      <trkpt lat="43.2137" lon="5.52254">
        <ele>84.25</ele>
        <time>2019-04-22T14:12:45Z</time>
      </trkpt>
      <trkpt lat="43.21369" lon="5.52254">
        <ele>85.21</ele>
        <time>2019-04-22T14:12:46Z</time>
      </trkpt>
      <trkpt lat="43.21368" lon="5.52252">
        <ele>81.85</ele>
        <time>2019-04-22T14:12:52Z</time>
      </trkpt>
      <trkpt lat="43.21368" lon="5.52253">
        <ele>81.85</ele>
        <time>2019-04-22T14:12:53Z</time>
      </trkpt>
      <trkpt lat="43.21367" lon="5.52252">
        <ele>83.29</ele>
        <time>2019-04-22T14:12:56Z</time>
      </trkpt>
      <trkpt lat="43.21364" lon="5.52249">
        <ele>81.37</ele>
        <time>2019-04-22T14:13:03Z</time>
      </trkpt>
      <trkpt lat="43.21362" lon="5.52248">
        <ele>80.89</ele>
        <time>2019-04-22T14:13:07Z</time>
      </trkpt>
      <trkpt lat="43.21356" lon="5.52243">
        <ele>79.45</ele>
        <time>2019-04-22T14:13:19Z</time>
      </trkpt>
      <trkpt lat="43.2136" lon="5.52245">
        <ele>77.52</ele>
        <time>2019-04-22T14:13:25Z</time>
      </trkpt>
      <trkpt lat="43.21363" lon="5.52242">
        <ele>76.56</ele>
        <time>2019-04-22T14:13:33Z</time>
      </trkpt>
      <trkpt lat="43.21362" lon="5.52242">
        <ele>80.41</ele>
        <time>2019-04-22T14:13:37Z</time>
      </trkpt>
      <trkpt lat="43.21363" lon="5.52242">
        <ele>79.93</ele>
        <time>2019-04-22T14:13:38Z</time>
      </trkpt>
      <trkpt lat="43.21365" lon="5.5224">
        <ele>80.41</ele>
        <time>2019-04-22T14:14:03Z</time>
      </trkpt>
      <trkpt lat="43.21364" lon="5.52242">
        <ele>81.37</ele>
        <time>2019-04-22T14:14:22Z</time>
      </trkpt>
      <trkpt lat="43.21345" lon="5.52233">
        <ele>77.52</ele>
        <time>2019-04-22T14:14:35Z</time>
      </trkpt>
      <trkpt lat="43.21343" lon="5.52231">
        <ele>77.52</ele>
        <time>2019-04-22T14:14:36Z</time>
      </trkpt>
      <trkpt lat="43.21336" lon="5.52216">
        <ele>74.64</ele>
        <time>2019-04-22T14:14:41Z</time>
      </trkpt>
      <trkpt lat="43.2133" lon="5.52207">
        <ele>74.16</ele>
        <time>2019-04-22T14:14:47Z</time>
      </trkpt>
      <trkpt lat="43.21318" lon="5.52199">
        <ele>72.24</ele>
        <time>2019-04-22T14:15:05Z</time>
      </trkpt>
      <trkpt lat="43.21309" lon="5.52192">
        <ele>70.31</ele>
        <time>2019-04-22T14:15:17Z</time>
      </trkpt>
      <trkpt lat="43.21312" lon="5.52202">
        <ele>68.39</ele>
        <time>2019-04-22T14:15:32Z</time>
      </trkpt>
      <trkpt lat="43.21317" lon="5.5221">
        <ele>67.43</ele>
        <time>2019-04-22T14:15:38Z</time>
      </trkpt>
      <trkpt lat="43.21319" lon="5.52211">
        <ele>66.95</ele>
        <time>2019-04-22T14:15:39Z</time>
      </trkpt>
      <trkpt lat="43.21321" lon="5.52214">
        <ele>63.58</ele>
        <time>2019-04-22T14:15:42Z</time>
      </trkpt>
      <trkpt lat="43.21324" lon="5.5222">
        <ele>65.51</ele>
        <time>2019-04-22T14:15:47Z</time>
      </trkpt>
      <trkpt lat="43.21325" lon="5.52222">
        <ele>65.99</ele>
        <time>2019-04-22T14:15:48Z</time>
      </trkpt>
      <trkpt lat="43.21332" lon="5.5224">
        <ele>64.07</ele>
        <time>2019-04-22T14:16:01Z</time>
      </trkpt>
      <trkpt lat="43.21333" lon="5.52242">
        <ele>59.26</ele>
        <time>2019-04-22T14:16:03Z</time>
      </trkpt>
      <trkpt lat="43.21334" lon="5.52243">
        <ele>59.74</ele>
        <time>2019-04-22T14:16:04Z</time>
      </trkpt>
      <trkpt lat="43.21336" lon="5.52247">
        <ele>61.18</ele>
        <time>2019-04-22T14:16:07Z</time>
      </trkpt>
      <trkpt lat="43.21338" lon="5.52249">
        <ele>59.74</ele>
        <time>2019-04-22T14:16:09Z</time>
      </trkpt>
      <trkpt lat="43.21341" lon="5.52254">
        <ele>62.62</ele>
        <time>2019-04-22T14:16:13Z</time>
      </trkpt>
      <trkpt lat="43.21342" lon="5.52256">
        <ele>59.26</ele>
        <time>2019-04-22T14:16:15Z</time>
      </trkpt>
      <trkpt lat="43.21344" lon="5.52258">
        <ele>62.62</ele>
        <time>2019-04-22T14:16:18Z</time>
      </trkpt>
      <trkpt lat="43.21345" lon="5.52259">
        <ele>55.89</ele>
        <time>2019-04-22T14:16:20Z</time>
      </trkpt>
      <trkpt lat="43.21348" lon="5.5226">
        <ele>56.86</ele>
        <time>2019-04-22T14:16:24Z</time>
      </trkpt>
      <trkpt lat="43.21352" lon="5.52266">
        <ele>57.34</ele>
        <time>2019-04-22T14:16:30Z</time>
      </trkpt>
      <trkpt lat="43.21359" lon="5.52275">
        <ele>57.34</ele>
        <time>2019-04-22T14:16:45Z</time>
      </trkpt>
      <trkpt lat="43.21366" lon="5.52287">
        <ele>53.97</ele>
        <time>2019-04-22T14:17:00Z</time>
      </trkpt>
      <trkpt lat="43.21369" lon="5.52291">
        <ele>53.49</ele>
        <time>2019-04-22T14:17:08Z</time>
      </trkpt>
      <trkpt lat="43.21369" lon="5.52301">
        <ele>51.57</ele>
        <time>2019-04-22T14:17:24Z</time>
      </trkpt>
      <trkpt lat="43.21364" lon="5.52301">
        <ele>51.09</ele>
        <time>2019-04-22T14:17:29Z</time>
      </trkpt>
      <trkpt lat="43.21361" lon="5.523">
        <ele>50.61</ele>
        <time>2019-04-22T14:17:34Z</time>
      </trkpt>
      <trkpt lat="43.21348" lon="5.52297">
        <ele>48.2</ele>
        <time>2019-04-22T14:17:49Z</time>
      </trkpt>
      <trkpt lat="43.21343" lon="5.52297">
        <ele>50.13</ele>
        <time>2019-04-22T14:18:03Z</time>
      </trkpt>
      <trkpt lat="43.21341" lon="5.52297">
        <ele>48.68</ele>
        <time>2019-04-22T14:18:05Z</time>
      </trkpt>
      <trkpt lat="43.21323" lon="5.52287">
        <ele>44.84</ele>
        <time>2019-04-22T14:18:21Z</time>
      </trkpt>
      <trkpt lat="43.21317" lon="5.52285">
        <ele>43.88</ele>
        <time>2019-04-22T14:18:34Z</time>
      </trkpt>
      <trkpt lat="43.21307" lon="5.52283">
        <ele>40.99</ele>
        <time>2019-04-22T14:18:44Z</time>
      </trkpt>
      <trkpt lat="43.21297" lon="5.52274">
        <ele>39.55</ele>
        <time>2019-04-22T14:18:56Z</time>
      </trkpt>
      <trkpt lat="43.21291" lon="5.52267">
        <ele>40.51</ele>
        <time>2019-04-22T14:19:08Z</time>
      </trkpt>
      <trkpt lat="43.21286" lon="5.52263">
        <ele>37.15</ele>
        <time>2019-04-22T14:19:16Z</time>
      </trkpt>
      <trkpt lat="43.21277" lon="5.52254">
        <ele>35.71</ele>
        <time>2019-04-22T14:19:29Z</time>
      </trkpt>
      <trkpt lat="43.21266" lon="5.52244">
        <ele>35.23</ele>
        <time>2019-04-22T14:19:45Z</time>
      </trkpt>
      <trkpt lat="43.21255" lon="5.52238">
        <ele>32.82</ele>
        <time>2019-04-22T14:19:59Z</time>
      </trkpt>
      <trkpt lat="43.21244" lon="5.52227">
        <ele>32.34</ele>
        <time>2019-04-22T14:20:12Z</time>
      </trkpt>
      <trkpt lat="43.21231" lon="5.52222">
        <ele>30.9</ele>
        <time>2019-04-22T14:20:29Z</time>
      </trkpt>
      <trkpt lat="43.21224" lon="5.5222">
        <ele>31.38</ele>
        <time>2019-04-22T14:20:41Z</time>
      </trkpt>
      <trkpt lat="43.21215" lon="5.5222">
        <ele>30.42</ele>
        <time>2019-04-22T14:20:59Z</time>
      </trkpt>
      <trkpt lat="43.21209" lon="5.52213">
        <ele>30.9</ele>
        <time>2019-04-22T14:21:14Z</time>
      </trkpt>
      <trkpt lat="43.21209" lon="5.52213">
        <ele>30.9</ele>
        <time>2019-04-22T14:21:15Z</time>
      </trkpt>
      <trkpt lat="43.21213" lon="5.52209">
        <ele>29.46</ele>
        <time>2019-04-22T14:21:36Z</time>
      </trkpt>
      <trkpt lat="43.21202" lon="5.52218">
        <ele>29.46</ele>
        <time>2019-04-22T14:21:52Z</time>
      </trkpt>
      <trkpt lat="43.21194" lon="5.52219">
        <ele>31.38</ele>
        <time>2019-04-22T14:22:07Z</time>
      </trkpt>
      <trkpt lat="43.21183" lon="5.52216">
        <ele>34.26</ele>
        <time>2019-04-22T14:22:20Z</time>
      </trkpt>
      <trkpt lat="43.21174" lon="5.52213">
        <ele>33.78</ele>
        <time>2019-04-22T14:22:34Z</time>
      </trkpt>
      <trkpt lat="43.21162" lon="5.5221">
        <ele>36.19</ele>
        <time>2019-04-22T14:22:49Z</time>
      </trkpt>
      <trkpt lat="43.21151" lon="5.52216">
        <ele>38.11</ele>
        <time>2019-04-22T14:23:06Z</time>
      </trkpt>
      <trkpt lat="43.21147" lon="5.52231">
        <ele>39.07</ele>
        <time>2019-04-22T14:23:22Z</time>
      </trkpt>
      <trkpt lat="43.21145" lon="5.52251">
        <ele>39.55</ele>
        <time>2019-04-22T14:23:41Z</time>
      </trkpt>
      <trkpt lat="43.21144" lon="5.5226">
        <ele>41.47</ele>
        <time>2019-04-22T14:23:48Z</time>
      </trkpt>
      <trkpt lat="43.21137" lon="5.5226">
        <ele>41.95</ele>
        <time>2019-04-22T14:24:02Z</time>
      </trkpt>
      <trkpt lat="43.21132" lon="5.52255">
        <ele>40.99</ele>
        <time>2019-04-22T14:24:17Z</time>
      </trkpt>
      <trkpt lat="43.21133" lon="5.52257">
        <ele>41.95</ele>
        <time>2019-04-22T14:24:44Z</time>
      </trkpt>
      <trkpt lat="43.2114" lon="5.5226">
        <ele>43.88</ele>
        <time>2019-04-22T14:25:00Z</time>
      </trkpt>
      <trkpt lat="43.21142" lon="5.52261">
        <ele>41.95</ele>
        <time>2019-04-22T14:25:08Z</time>
      </trkpt>
      <trkpt lat="43.21143" lon="5.52261">
        <ele>41.47</ele>
        <time>2019-04-22T14:25:09Z</time>
      </trkpt>
      <trkpt lat="43.21146" lon="5.52269">
        <ele>40.51</ele>
        <time>2019-04-22T14:25:17Z</time>
      </trkpt>
      <trkpt lat="43.21144" lon="5.52288">
        <ele>43.88</ele>
        <time>2019-04-22T14:25:32Z</time>
      </trkpt>
      <trkpt lat="43.21144" lon="5.52306">
        <ele>45.8</ele>
        <time>2019-04-22T14:25:46Z</time>
      </trkpt>
      <trkpt lat="43.21143" lon="5.5232">
        <ele>46.76</ele>
        <time>2019-04-22T14:25:58Z</time>
      </trkpt>
      <trkpt lat="43.21141" lon="5.52337">
        <ele>47.72</ele>
        <time>2019-04-22T14:26:11Z</time>
      </trkpt>
      <trkpt lat="43.21143" lon="5.52355">
        <ele>48.2</ele>
        <time>2019-04-22T14:26:27Z</time>
      </trkpt>
      <trkpt lat="43.21143" lon="5.52357">
        <ele>49.65</ele>
        <time>2019-04-22T14:26:30Z</time>
      </trkpt>
      <trkpt lat="43.21149" lon="5.52375">
        <ele>49.65</ele>
        <time>2019-04-22T14:26:46Z</time>
      </trkpt>
      <trkpt lat="43.21153" lon="5.52392">
        <ele>50.13</ele>
        <time>2019-04-22T14:27:01Z</time>
      </trkpt>
      <trkpt lat="43.2116" lon="5.52408">
        <ele>49.65</ele>
        <time>2019-04-22T14:27:16Z</time>
      </trkpt>
      <trkpt lat="43.21164" lon="5.52415">
        <ele>51.57</ele>
        <time>2019-04-22T14:27:22Z</time>
      </trkpt>
      <trkpt lat="43.21172" lon="5.52441">
        <ele>54.45</ele>
        <time>2019-04-22T14:27:40Z</time>
      </trkpt>
      <trkpt lat="43.21177" lon="5.5245">
        <ele>57.34</ele>
        <time>2019-04-22T14:27:47Z</time>
      </trkpt>
      <trkpt lat="43.21181" lon="5.52458">
        <ele>57.34</ele>
        <time>2019-04-22T14:27:54Z</time>
      </trkpt>
      <trkpt lat="43.21185" lon="5.52477">
        <ele>57.82</ele>
        <time>2019-04-22T14:28:10Z</time>
      </trkpt>
      <trkpt lat="43.21188" lon="5.52494">
        <ele>58.3</ele>
        <time>2019-04-22T14:28:24Z</time>
      </trkpt>
      <trkpt lat="43.21194" lon="5.52509">
        <ele>60.22</ele>
        <time>2019-04-22T14:28:38Z</time>
      </trkpt>
      <trkpt lat="43.21197" lon="5.52516">
        <ele>60.7</ele>
        <time>2019-04-22T14:28:44Z</time>
      </trkpt>
      <trkpt lat="43.21204" lon="5.52534">
        <ele>57.82</ele>
        <time>2019-04-22T14:28:59Z</time>
      </trkpt>
      <trkpt lat="43.21204" lon="5.52535">
        <ele>57.34</ele>
        <time>2019-04-22T14:29:00Z</time>
      </trkpt>
      <trkpt lat="43.21205" lon="5.52534">
        <ele>59.26</ele>
        <time>2019-04-22T14:29:03Z</time>
      </trkpt>
      <trkpt lat="43.21211" lon="5.5255">
        <ele>58.78</ele>
        <time>2019-04-22T14:29:24Z</time>
      </trkpt>
      <trkpt lat="43.21216" lon="5.52574">
        <ele>60.7</ele>
        <time>2019-04-22T14:29:41Z</time>
      </trkpt>
      <trkpt lat="43.21217" lon="5.52584">
        <ele>63.1</ele>
        <time>2019-04-22T14:29:55Z</time>
      </trkpt>
      <trkpt lat="43.21227" lon="5.52607">
        <ele>60.7</ele>
        <time>2019-04-22T14:30:13Z</time>
      </trkpt>
      <trkpt lat="43.21234" lon="5.52624">
        <ele>58.78</ele>
        <time>2019-04-22T14:30:25Z</time>
      </trkpt>
      <trkpt lat="43.21229" lon="5.52634">
        <ele>55.89</ele>
        <time>2019-04-22T14:30:31Z</time>
      </trkpt>
      <trkpt lat="43.21225" lon="5.52637">
        <ele>58.78</ele>
        <time>2019-04-22T14:30:34Z</time>
      </trkpt>
      <trkpt lat="43.21212" lon="5.52647">
        <ele>55.41</ele>
        <time>2019-04-22T14:30:45Z</time>
      </trkpt>
      <trkpt lat="43.21207" lon="5.52649">
        <ele>53.97</ele>
        <time>2019-04-22T14:30:54Z</time>
      </trkpt>
      <trkpt lat="43.21196" lon="5.52657">
        <ele>54.45</ele>
        <time>2019-04-22T14:31:06Z</time>
      </trkpt>
      <trkpt lat="43.21184" lon="5.52666">
        <ele>54.45</ele>
        <time>2019-04-22T14:31:18Z</time>
      </trkpt>
      <trkpt lat="43.21178" lon="5.52682">
        <ele>53.49</ele>
        <time>2019-04-22T14:31:34Z</time>
      </trkpt>
      <trkpt lat="43.21181" lon="5.52709">
        <ele>53.01</ele>
        <time>2019-04-22T14:31:52Z</time>
      </trkpt>
      <trkpt lat="43.2118" lon="5.52731">
        <ele>50.61</ele>
        <time>2019-04-22T14:32:06Z</time>
      </trkpt>
      <trkpt lat="43.2118" lon="5.52752">
        <ele>51.09</ele>
        <time>2019-04-22T14:32:20Z</time>
      </trkpt>
      <trkpt lat="43.2118" lon="5.52751">
        <ele>50.61</ele>
        <time>2019-04-22T14:32:21Z</time>
      </trkpt>
      <trkpt lat="43.21181" lon="5.52764">
        <ele>51.09</ele>
        <time>2019-04-22T14:32:33Z</time>
      </trkpt>
      <trkpt lat="43.21181" lon="5.52774">
        <ele>52.05</ele>
        <time>2019-04-22T14:32:44Z</time>
      </trkpt>
      <trkpt lat="43.21184" lon="5.52779">
        <ele>50.13</ele>
        <time>2019-04-22T14:32:48Z</time>
      </trkpt>
      <trkpt lat="43.21193" lon="5.52799">
        <ele>49.65</ele>
        <time>2019-04-22T14:33:02Z</time>
      </trkpt>
      <trkpt lat="43.21196" lon="5.52816">
        <ele>48.68</ele>
        <time>2019-04-22T14:33:13Z</time>
      </trkpt>
      <trkpt lat="43.21203" lon="5.52838">
        <ele>47.72</ele>
        <time>2019-04-22T14:33:28Z</time>
      </trkpt>
      <trkpt lat="43.21206" lon="5.52843">
        <ele>45.8</ele>
        <time>2019-04-22T14:33:32Z</time>
      </trkpt>
      <trkpt lat="43.21207" lon="5.52853">
        <ele>44.36</ele>
        <time>2019-04-22T14:33:39Z</time>
      </trkpt>
      <trkpt lat="43.21207" lon="5.52854">
        <ele>44.84</ele>
        <time>2019-04-22T14:33:40Z</time>
      </trkpt>
      <trkpt lat="43.21208" lon="5.52858">
        <ele>39.07</ele>
        <time>2019-04-22T14:33:43Z</time>
      </trkpt>
      <trkpt lat="43.21208" lon="5.5286">
        <ele>40.03</ele>
        <time>2019-04-22T14:33:44Z</time>
      </trkpt>
      <trkpt lat="43.21209" lon="5.52863">
        <ele>41.95</ele>
        <time>2019-04-22T14:33:46Z</time>
      </trkpt>
      <trkpt lat="43.2121" lon="5.52865">
        <ele>44.84</ele>
        <time>2019-04-22T14:33:48Z</time>
      </trkpt>
      <trkpt lat="43.2121" lon="5.52867">
        <ele>45.32</ele>
        <time>2019-04-22T14:33:49Z</time>
      </trkpt>
      <trkpt lat="43.21215" lon="5.52887">
        <ele>44.84</ele>
        <time>2019-04-22T14:34:04Z</time>
      </trkpt>
      <trkpt lat="43.21218" lon="5.52897">
        <ele>40.99</ele>
        <time>2019-04-22T14:34:11Z</time>
      </trkpt>
      <trkpt lat="43.21219" lon="5.52899">
        <ele>40.03</ele>
        <time>2019-04-22T14:34:13Z</time>
      </trkpt>
      <trkpt lat="43.21219" lon="5.52902">
        <ele>39.55</ele>
        <time>2019-04-22T14:34:14Z</time>
      </trkpt>
      <trkpt lat="43.21218" lon="5.52903">
        <ele>39.07</ele>
        <time>2019-04-22T14:34:15Z</time>
      </trkpt>
      <trkpt lat="43.21219" lon="5.52913">
        <ele>40.03</ele>
        <time>2019-04-22T14:34:23Z</time>
      </trkpt>
      <trkpt lat="43.2122" lon="5.52916">
        <ele>39.55</ele>
        <time>2019-04-22T14:34:25Z</time>
      </trkpt>
      <trkpt lat="43.2122" lon="5.52929">
        <ele>37.15</ele>
        <time>2019-04-22T14:34:40Z</time>
      </trkpt>
      <trkpt lat="43.2122" lon="5.52937">
        <ele>33.78</ele>
        <time>2019-04-22T14:34:54Z</time>
      </trkpt>
      <trkpt lat="43.2122" lon="5.52938">
        <ele>34.26</ele>
        <time>2019-04-22T14:34:55Z</time>
      </trkpt>
      <trkpt lat="43.21222" lon="5.52945">
        <ele>34.26</ele>
        <time>2019-04-22T14:34:59Z</time>
      </trkpt>
      <trkpt lat="43.21224" lon="5.52957">
        <ele>32.34</ele>
        <time>2019-04-22T14:35:03Z</time>
      </trkpt>
      <trkpt lat="43.21224" lon="5.52966">
        <ele>34.26</ele>
        <time>2019-04-22T14:35:07Z</time>
      </trkpt>
      <trkpt lat="43.21219" lon="5.5298">
        <ele>33.3</ele>
        <time>2019-04-22T14:35:23Z</time>
      </trkpt>
      <trkpt lat="43.21218" lon="5.52983">
        <ele>29.94</ele>
        <time>2019-04-22T14:35:28Z</time>
      </trkpt>
      <trkpt lat="43.2122" lon="5.53">
        <ele>30.42</ele>
        <time>2019-04-22T14:35:44Z</time>
      </trkpt>
      <trkpt lat="43.21223" lon="5.53029">
        <ele>28.02</ele>
        <time>2019-04-22T14:36:02Z</time>
      </trkpt>
      <trkpt lat="43.21224" lon="5.53054">
        <ele>25.13</ele>
        <time>2019-04-22T14:36:18Z</time>
      </trkpt>
      <trkpt lat="43.21224" lon="5.53072">
        <ele>21.77</ele>
        <time>2019-04-22T14:36:30Z</time>
      </trkpt>
      <trkpt lat="43.21224" lon="5.53072">
        <ele>21.29</ele>
        <time>2019-04-22T14:36:31Z</time>
      </trkpt>
      <trkpt lat="43.21218" lon="5.53077">
        <ele>23.21</ele>
        <time>2019-04-22T14:36:46Z</time>
      </trkpt>
      <trkpt lat="43.21218" lon="5.53077">
        <ele>19.36</ele>
        <time>2019-04-22T14:36:48Z</time>
      </trkpt>
      <trkpt lat="43.21218" lon="5.53077">
        <ele>19.84</ele>
        <time>2019-04-22T14:36:49Z</time>
      </trkpt>
      <trkpt lat="43.21218" lon="5.53078">
        <ele>23.21</ele>
        <time>2019-04-22T14:36:50Z</time>
      </trkpt>
      <trkpt lat="43.2122" lon="5.5308">
        <ele>27.53</ele>
        <time>2019-04-22T14:36:52Z</time>
      </trkpt>
      <trkpt lat="43.21225" lon="5.53083">
        <ele>24.65</ele>
        <time>2019-04-22T14:36:59Z</time>
      </trkpt>
      <trkpt lat="43.21228" lon="5.53084">
        <ele>23.21</ele>
        <time>2019-04-22T14:37:02Z</time>
      </trkpt>
      <trkpt lat="43.2124" lon="5.53078">
        <ele>20.81</ele>
        <time>2019-04-22T14:37:13Z</time>
      </trkpt>
      <trkpt lat="43.21241" lon="5.53078">
        <ele>20.32</ele>
        <time>2019-04-22T14:37:14Z</time>
      </trkpt>
      <trkpt lat="43.21245" lon="5.53076">
        <ele>19.84</ele>
        <time>2019-04-22T14:37:18Z</time>
      </trkpt>
      <trkpt lat="43.21253" lon="5.53072">
        <ele>16</ele>
        <time>2019-04-22T14:37:24Z</time>
      </trkpt>
      <trkpt lat="43.2126" lon="5.53068">
        <ele>16.48</ele>
        <time>2019-04-22T14:37:30Z</time>
      </trkpt>
      <trkpt lat="43.21274" lon="5.53065">
        <ele>20.81</ele>
        <time>2019-04-22T14:37:40Z</time>
      </trkpt>
      <trkpt lat="43.21276" lon="5.53064">
        <ele>19.36</ele>
        <time>2019-04-22T14:37:41Z</time>
      </trkpt>
      <trkpt lat="43.21277" lon="5.53065">
        <ele>15.04</ele>
        <time>2019-04-22T14:37:43Z</time>
      </trkpt>
      <trkpt lat="43.21277" lon="5.53066">
        <ele>12.15</ele>
        <time>2019-04-22T14:37:45Z</time>
      </trkpt>
      <trkpt lat="43.21277" lon="5.53067">
        <ele>10.71</ele>
        <time>2019-04-22T14:37:47Z</time>
      </trkpt>
      <trkpt lat="43.21277" lon="5.53069">
        <ele>12.63</ele>
        <time>2019-04-22T14:37:50Z</time>
      </trkpt>
      <trkpt lat="43.21278" lon="5.53076">
        <ele>16</ele>
        <time>2019-04-22T14:38:12Z</time>
      </trkpt>
      <trkpt lat="43.21281" lon="5.53072">
        <ele>17.44</ele>
        <time>2019-04-22T14:38:24Z</time>
      </trkpt>
      <trkpt lat="43.21288" lon="5.53072">
        <ele>17.44</ele>
        <time>2019-04-22T14:38:30Z</time>
      </trkpt>
      <trkpt lat="43.213" lon="5.53086">
        <ele>16.48</ele>
        <time>2019-04-22T14:38:48Z</time>
      </trkpt>
      <trkpt lat="43.21301" lon="5.53087">
        <ele>16.96</ele>
        <time>2019-04-22T14:38:49Z</time>
      </trkpt>
      <trkpt lat="43.2131" lon="5.53104">
        <ele>14.56</ele>
        <time>2019-04-22T14:39:04Z</time>
      </trkpt>
      <trkpt lat="43.21318" lon="5.53117">
        <ele>16</ele>
        <time>2019-04-22T14:39:20Z</time>
      </trkpt>
      <trkpt lat="43.21325" lon="5.53119">
        <ele>17.44</ele>
        <time>2019-04-22T14:39:34Z</time>
      </trkpt>
      <trkpt lat="43.21332" lon="5.53123">
        <ele>17.92</ele>
        <time>2019-04-22T14:39:48Z</time>
      </trkpt>
      <trkpt lat="43.21337" lon="5.53141">
        <ele>18.4</ele>
        <time>2019-04-22T14:40:02Z</time>
      </trkpt>
      <trkpt lat="43.21341" lon="5.53159">
        <ele>20.81</ele>
        <time>2019-04-22T14:40:18Z</time>
      </trkpt>
      <trkpt lat="43.21339" lon="5.53174">
        <ele>19.36</ele>
        <time>2019-04-22T14:40:34Z</time>
      </trkpt>
      <trkpt lat="43.21332" lon="5.53178">
        <ele>16</ele>
        <time>2019-04-22T14:40:42Z</time>
      </trkpt>
      <trkpt lat="43.21326" lon="5.53196">
        <ele>16</ele>
        <time>2019-04-22T14:40:58Z</time>
      </trkpt>
      <trkpt lat="43.21318" lon="5.53208">
        <ele>16.48</ele>
        <time>2019-04-22T14:41:12Z</time>
      </trkpt>
      <trkpt lat="43.21306" lon="5.53211">
        <ele>15.52</ele>
        <time>2019-04-22T14:41:27Z</time>
      </trkpt>
      <trkpt lat="43.21308" lon="5.53209">
        <ele>15.52</ele>
        <time>2019-04-22T14:41:47Z</time>
      </trkpt>
      <trkpt lat="43.21308" lon="5.53211">
        <ele>11.67</ele>
        <time>2019-04-22T14:41:58Z</time>
      </trkpt>
      <trkpt lat="43.21308" lon="5.53211">
        <ele>12.15</ele>
        <time>2019-04-22T14:41:59Z</time>
      </trkpt>
      <trkpt lat="43.21307" lon="5.53211">
        <ele>14.08</ele>
        <time>2019-04-22T14:42:01Z</time>
      </trkpt>
      <trkpt lat="43.21307" lon="5.5321">
        <ele>12.63</ele>
        <time>2019-04-22T14:42:08Z</time>
      </trkpt>
      <trkpt lat="43.21306" lon="5.53216">
        <ele>11.67</ele>
        <time>2019-04-22T14:42:18Z</time>
      </trkpt>
      <trkpt lat="43.21307" lon="5.53214">
        <ele>14.08</ele>
        <time>2019-04-22T14:42:23Z</time>
      </trkpt>
      <trkpt lat="43.21307" lon="5.53213">
        <ele>15.52</ele>
        <time>2019-04-22T14:42:25Z</time>
      </trkpt>
      <trkpt lat="43.21305" lon="5.53212">
        <ele>14.08</ele>
        <time>2019-04-22T14:42:37Z</time>
      </trkpt>
      <trkpt lat="43.21305" lon="5.53214">
        <ele>13.12</ele>
        <time>2019-04-22T14:42:45Z</time>
      </trkpt>
      <trkpt lat="43.21305" lon="5.53212">
        <ele>16</ele>
        <time>2019-04-22T14:42:49Z</time>
      </trkpt>
      <trkpt lat="43.21305" lon="5.53213">
        <ele>14.56</ele>
        <time>2019-04-22T14:42:50Z</time>
      </trkpt>
      <trkpt lat="43.21305" lon="5.53212">
        <ele>11.67</ele>
        <time>2019-04-22T14:42:54Z</time>
      </trkpt>
      <trkpt lat="43.21305" lon="5.53213">
        <ele>11.67</ele>
        <time>2019-04-22T14:42:55Z</time>
      </trkpt>
      <trkpt lat="43.21305" lon="5.53214">
        <ele>9.27</ele>
        <time>2019-04-22T14:42:57Z</time>
      </trkpt>
      <trkpt lat="43.21305" lon="5.53214">
        <ele>13.12</ele>
        <time>2019-04-22T14:43:06Z</time>
      </trkpt>
      <trkpt lat="43.21308" lon="5.5321">
        <ele>14.08</ele>
        <time>2019-04-22T14:43:10Z</time>
      </trkpt>
      <trkpt lat="43.2131" lon="5.5321">
        <ele>12.63</ele>
        <time>2019-04-22T14:43:16Z</time>
      </trkpt>
      <trkpt lat="43.21307" lon="5.53213">
        <ele>11.67</ele>
        <time>2019-04-22T14:43:41Z</time>
      </trkpt>
      <trkpt lat="43.21307" lon="5.53212">
        <ele>11.19</ele>
        <time>2019-04-22T14:43:58Z</time>
      </trkpt>
      <trkpt lat="43.21308" lon="5.53212">
        <ele>12.63</ele>
        <time>2019-04-22T14:44:22Z</time>
      </trkpt>
      <trkpt lat="43.21313" lon="5.532">
        <ele>13.12</ele>
        <time>2019-04-22T14:44:36Z</time>
      </trkpt>
      <trkpt lat="43.21312" lon="5.53203">
        <ele>12.15</ele>
        <time>2019-04-22T14:45:04Z</time>
      </trkpt>
      <trkpt lat="43.21312" lon="5.53205">
        <ele>13.12</ele>
        <time>2019-04-22T14:45:15Z</time>
      </trkpt>
      <trkpt lat="43.21314" lon="5.53205">
        <ele>15.04</ele>
        <time>2019-04-22T14:45:34Z</time>
      </trkpt>
      <trkpt lat="43.21315" lon="5.53207">
        <ele>11.19</ele>
        <time>2019-04-22T14:46:06Z</time>
      </trkpt>
      <trkpt lat="43.21315" lon="5.53207">
        <ele>11.19</ele>
        <time>2019-04-22T14:46:07Z</time>
      </trkpt>
      <trkpt lat="43.21315" lon="5.53206">
        <ele>16</ele>
        <time>2019-04-22T14:46:09Z</time>
      </trkpt>
      <trkpt lat="43.21317" lon="5.53206">
        <ele>12.63</ele>
        <time>2019-04-22T14:46:30Z</time>
      </trkpt>
      <trkpt lat="43.21317" lon="5.53206">
        <ele>14.08</ele>
        <time>2019-04-22T14:46:36Z</time>
      </trkpt>
      <trkpt lat="43.21316" lon="5.53206">
        <ele>16.96</ele>
        <time>2019-04-22T14:46:52Z</time>
      </trkpt>
      <trkpt lat="43.21316" lon="5.53206">
        <ele>15.04</ele>
        <time>2019-04-22T14:46:56Z</time>
      </trkpt>
      <trkpt lat="43.21316" lon="5.53206">
        <ele>13.6</ele>
        <time>2019-04-22T14:47:03Z</time>
      </trkpt>
      <trkpt lat="43.21318" lon="5.532">
        <ele>14.56</ele>
        <time>2019-04-22T14:47:27Z</time>
      </trkpt>
      <trkpt lat="43.2132" lon="5.53198">
        <ele>16.48</ele>
        <time>2019-04-22T14:47:33Z</time>
      </trkpt>
      <trkpt lat="43.21316" lon="5.53194">
        <ele>13.12</ele>
        <time>2019-04-22T14:47:49Z</time>
      </trkpt>
      <trkpt lat="43.21314" lon="5.53193">
        <ele>16.96</ele>
        <time>2019-04-22T14:48:00Z</time>
      </trkpt>
      <trkpt lat="43.21314" lon="5.53193">
        <ele>16.96</ele>
        <time>2019-04-22T14:48:01Z</time>
      </trkpt>
      <trkpt lat="43.21315" lon="5.53192">
        <ele>15.04</ele>
        <time>2019-04-22T14:48:05Z</time>
      </trkpt>
      <trkpt lat="43.21315" lon="5.53191">
        <ele>16.96</ele>
        <time>2019-04-22T14:48:10Z</time>
      </trkpt>
      <trkpt lat="43.21315" lon="5.5319">
        <ele>20.32</ele>
        <time>2019-04-22T14:48:17Z</time>
      </trkpt>
      <trkpt lat="43.21315" lon="5.53191">
        <ele>20.32</ele>
        <time>2019-04-22T14:48:18Z</time>
      </trkpt>
      <trkpt lat="43.21314" lon="5.53192">
        <ele>18.4</ele>
        <time>2019-04-22T14:48:20Z</time>
      </trkpt>
      <trkpt lat="43.21314" lon="5.53193">
        <ele>16.48</ele>
        <time>2019-04-22T14:48:26Z</time>
      </trkpt>
      <trkpt lat="43.21312" lon="5.53194">
        <ele>15.04</ele>
        <time>2019-04-22T14:48:47Z</time>
      </trkpt>
      <trkpt lat="43.21313" lon="5.53195">
        <ele>15.52</ele>
        <time>2019-04-22T14:49:07Z</time>
      </trkpt>
      <trkpt lat="43.2132" lon="5.53196">
        <ele>17.92</ele>
        <time>2019-04-22T14:49:23Z</time>
      </trkpt>
      <trkpt lat="43.2132" lon="5.53203">
        <ele>17.92</ele>
        <time>2019-04-22T14:49:43Z</time>
      </trkpt>
      <trkpt lat="43.21326" lon="5.53199">
        <ele>14.08</ele>
        <time>2019-04-22T14:49:55Z</time>
      </trkpt>
      <trkpt lat="43.21324" lon="5.53193">
        <ele>13.6</ele>
        <time>2019-04-22T14:50:11Z</time>
      </trkpt>
      <trkpt lat="43.21323" lon="5.53194">
        <ele>13.6</ele>
        <time>2019-04-22T14:50:30Z</time>
      </trkpt>
      <trkpt lat="43.21323" lon="5.53193">
        <ele>13.6</ele>
        <time>2019-04-22T14:50:45Z</time>
      </trkpt>
      <trkpt lat="43.21324" lon="5.53191">
        <ele>12.63</ele>
        <time>2019-04-22T14:50:57Z</time>
      </trkpt>
      <trkpt lat="43.21327" lon="5.53185">
        <ele>14.56</ele>
        <time>2019-04-22T14:51:14Z</time>
      </trkpt>
      <trkpt lat="43.21331" lon="5.53174">
        <ele>17.44</ele>
        <time>2019-04-22T14:51:30Z</time>
      </trkpt>
      <trkpt lat="43.21341" lon="5.53173">
        <ele>20.81</ele>
        <time>2019-04-22T14:51:46Z</time>
      </trkpt>
      <trkpt lat="43.21344" lon="5.53174">
        <ele>21.77</ele>
        <time>2019-04-22T14:51:51Z</time>
      </trkpt>
      <trkpt lat="43.21345" lon="5.53178">
        <ele>21.77</ele>
        <time>2019-04-22T14:52:07Z</time>
      </trkpt>
      <trkpt lat="43.21351" lon="5.5318">
        <ele>23.69</ele>
        <time>2019-04-22T14:52:15Z</time>
      </trkpt>
      <trkpt lat="43.21359" lon="5.53188">
        <ele>24.17</ele>
        <time>2019-04-22T14:52:30Z</time>
      </trkpt>
      <trkpt lat="43.21371" lon="5.53204">
        <ele>25.61</ele>
        <time>2019-04-22T14:52:47Z</time>
      </trkpt>
      <trkpt lat="43.21381" lon="5.53228">
        <ele>28.02</ele>
        <time>2019-04-22T14:53:03Z</time>
      </trkpt>
      <trkpt lat="43.21387" lon="5.53244">
        <ele>29.46</ele>
        <time>2019-04-22T14:53:19Z</time>
      </trkpt>
      <trkpt lat="43.21398" lon="5.53265">
        <ele>30.9</ele>
        <time>2019-04-22T14:53:38Z</time>
      </trkpt>
      <trkpt lat="43.21403" lon="5.53282">
        <ele>31.86</ele>
        <time>2019-04-22T14:53:54Z</time>
      </trkpt>
      <trkpt lat="43.21403" lon="5.5329">
        <ele>31.86</ele>
        <time>2019-04-22T14:54:07Z</time>
      </trkpt>
      <trkpt lat="43.21405" lon="5.533">
        <ele>35.23</ele>
        <time>2019-04-22T14:54:12Z</time>
      </trkpt>
      <trkpt lat="43.21407" lon="5.53306">
        <ele>32.34</ele>
        <time>2019-04-22T14:54:17Z</time>
      </trkpt>
      <trkpt lat="43.21421" lon="5.53314">
        <ele>30.9</ele>
        <time>2019-04-22T14:54:34Z</time>
      </trkpt>
      <trkpt lat="43.21437" lon="5.53317">
        <ele>29.94</ele>
        <time>2019-04-22T14:54:51Z</time>
      </trkpt>
      <trkpt lat="43.21441" lon="5.53317">
        <ele>28.98</ele>
        <time>2019-04-22T14:54:55Z</time>
      </trkpt>
      <trkpt lat="43.21443" lon="5.53317">
        <ele>30.42</ele>
        <time>2019-04-22T14:54:57Z</time>
      </trkpt>
      <trkpt lat="43.21456" lon="5.53324">
        <ele>28.98</ele>
        <time>2019-04-22T14:55:09Z</time>
      </trkpt>
      <trkpt lat="43.21458" lon="5.53327">
        <ele>27.53</ele>
        <time>2019-04-22T14:55:11Z</time>
      </trkpt>
      <trkpt lat="43.21462" lon="5.53341">
        <ele>29.94</ele>
        <time>2019-04-22T14:55:20Z</time>
      </trkpt>
      <trkpt lat="43.21455" lon="5.53364">
        <ele>29.46</ele>
        <time>2019-04-22T14:55:35Z</time>
      </trkpt>
      <trkpt lat="43.21454" lon="5.53364">
        <ele>28.98</ele>
        <time>2019-04-22T14:55:36Z</time>
      </trkpt>
      <trkpt lat="43.21456" lon="5.53366">
        <ele>28.98</ele>
        <time>2019-04-22T14:55:48Z</time>
      </trkpt>
      <trkpt lat="43.21454" lon="5.53363">
        <ele>25.61</ele>
        <time>2019-04-22T14:55:55Z</time>
      </trkpt>
      <trkpt lat="43.21454" lon="5.53364">
        <ele>25.61</ele>
        <time>2019-04-22T14:55:56Z</time>
      </trkpt>
      <trkpt lat="43.21452" lon="5.53365">
        <ele>28.02</ele>
        <time>2019-04-22T14:55:59Z</time>
      </trkpt>
      <trkpt lat="43.2145" lon="5.53367">
        <ele>26.57</ele>
        <time>2019-04-22T14:56:02Z</time>
      </trkpt>
      <trkpt lat="43.21448" lon="5.53369">
        <ele>23.69</ele>
        <time>2019-04-22T14:56:07Z</time>
      </trkpt>
      <trkpt lat="43.21437" lon="5.5338">
        <ele>24.17</ele>
        <time>2019-04-22T14:56:20Z</time>
      </trkpt>
      <trkpt lat="43.21425" lon="5.53393">
        <ele>25.13</ele>
        <time>2019-04-22T14:56:35Z</time>
      </trkpt>
      <trkpt lat="43.21427" lon="5.53413">
        <ele>25.13</ele>
        <time>2019-04-22T14:56:51Z</time>
      </trkpt>
      <trkpt lat="43.21427" lon="5.53421">
        <ele>22.25</ele>
        <time>2019-04-22T14:56:58Z</time>
      </trkpt>
      <trkpt lat="43.2143" lon="5.53436">
        <ele>22.25</ele>
        <time>2019-04-22T14:57:11Z</time>
      </trkpt>
      <trkpt lat="43.21435" lon="5.53459">
        <ele>19.36</ele>
        <time>2019-04-22T14:57:28Z</time>
      </trkpt>
      <trkpt lat="43.21434" lon="5.53463">
        <ele>19.84</ele>
        <time>2019-04-22T14:57:32Z</time>
      </trkpt>
      <trkpt lat="43.21437" lon="5.53472">
        <ele>19.36</ele>
        <time>2019-04-22T14:57:39Z</time>
      </trkpt>
      <trkpt lat="43.21438" lon="5.53475">
        <ele>19.36</ele>
        <time>2019-04-22T14:57:42Z</time>
      </trkpt>
      <trkpt lat="43.21449" lon="5.53491">
        <ele>21.29</ele>
        <time>2019-04-22T14:57:58Z</time>
      </trkpt>
      <trkpt lat="43.2145" lon="5.53492">
        <ele>18.4</ele>
        <time>2019-04-22T14:57:59Z</time>
      </trkpt>
      <trkpt lat="43.2145" lon="5.53493">
        <ele>18.4</ele>
        <time>2019-04-22T14:58:00Z</time>
      </trkpt>
      <trkpt lat="43.21446" lon="5.53501">
        <ele>18.4</ele>
        <time>2019-04-22T14:58:09Z</time>
      </trkpt>
      <trkpt lat="43.21446" lon="5.53502">
        <ele>13.6</ele>
        <time>2019-04-22T14:58:14Z</time>
      </trkpt>
      <trkpt lat="43.21445" lon="5.53503">
        <ele>14.08</ele>
        <time>2019-04-22T14:58:15Z</time>
      </trkpt>
      <trkpt lat="43.21429" lon="5.53515">
        <ele>15.04</ele>
        <time>2019-04-22T14:58:32Z</time>
      </trkpt>
      <trkpt lat="43.21435" lon="5.53526">
        <ele>13.12</ele>
        <time>2019-04-22T14:58:40Z</time>
      </trkpt>
      <trkpt lat="43.21437" lon="5.53527">
        <ele>13.6</ele>
        <time>2019-04-22T14:58:42Z</time>
      </trkpt>
      <trkpt lat="43.21438" lon="5.53536">
        <ele>10.23</ele>
        <time>2019-04-22T14:58:53Z</time>
      </trkpt>
      <trkpt lat="43.21438" lon="5.53536">
        <ele>10.23</ele>
        <time>2019-04-22T14:58:54Z</time>
      </trkpt>
    </trkseg>
  </trk>
</gpx>